<?xml version="1.0" encoding="UTF-8" standalone="no" ?>
<gpx xmlns="http://www.topografix.com/GPX/1/1" xmlns:xsi="http://www.w3.org/2001/XMLSchema-instance" xsi:schemaLocation="http://www.topografix.com/GPX/1/1 http://www.topografix.com/GPX/1/1/gpx.xsd" version="1.1" creator="VisuGPX - https://www.visugpx.com">
  <metadata>
    <name>40Km les rosiers</name>
  </metadata>
  <trk>
    <name><![CDATA[40Km les rosiers_1]]></name>
    <desc><![CDATA[]]></desc>
    <trkseg>
      <trkpt lat="47.32427" lon="-0.22797">
        <ele>70</ele>
        <time>2024-10-16T13:39:14Z</time>
      </trkpt>
      <trkpt lat="47.32432" lon="-0.22783">
        <ele>63.5</ele>
      </trkpt>
      <trkpt lat="47.32442" lon="-0.22763">
        <ele>63.4</ele>
        <time>2024-10-16T13:39:19Z</time>
      </trkpt>
      <trkpt lat="47.32479" lon="-0.22685">
        <ele>63.1</ele>
        <time>2024-10-16T13:39:34Z</time>
      </trkpt>
      <trkpt lat="47.32497" lon="-0.22648">
        <ele>63.6</ele>
        <time>2024-10-16T13:40:22Z</time>
      </trkpt>
      <trkpt lat="47.32515" lon="-0.22665">
        <ele>62.5</ele>
        <time>2024-10-16T13:40:24Z</time>
      </trkpt>
      <trkpt lat="47.32524" lon="-0.2267">
        <ele>68</ele>
        <time>2024-10-16T13:40:27Z</time>
      </trkpt>
      <trkpt lat="47.32532" lon="-0.22677">
        <ele>68</ele>
        <time>2024-10-16T13:40:29Z</time>
      </trkpt>
      <trkpt lat="47.32536" lon="-0.22688">
        <ele>68</ele>
        <time>2024-10-16T13:40:31Z</time>
      </trkpt>
      <trkpt lat="47.32543" lon="-0.22692">
        <ele>68</ele>
        <time>2024-10-16T13:40:33Z</time>
      </trkpt>
      <trkpt lat="47.32555" lon="-0.22706">
        <ele>68</ele>
        <time>2024-10-16T13:40:36Z</time>
      </trkpt>
      <trkpt lat="47.32564" lon="-0.22711">
        <ele>69</ele>
        <time>2024-10-16T13:40:38Z</time>
      </trkpt>
      <trkpt lat="47.3257" lon="-0.22707">
        <ele>69</ele>
        <time>2024-10-16T13:40:40Z</time>
      </trkpt>
      <trkpt lat="47.32574" lon="-0.227">
        <ele>69</ele>
        <time>2024-10-16T13:40:41Z</time>
      </trkpt>
      <trkpt lat="47.32593" lon="-0.22701">
        <ele>69</ele>
        <time>2024-10-16T13:40:46Z</time>
      </trkpt>
      <trkpt lat="47.326" lon="-0.22694">
        <ele>69</ele>
        <time>2024-10-16T13:40:48Z</time>
      </trkpt>
      <trkpt lat="47.32617" lon="-0.22687">
        <ele>69</ele>
        <time>2024-10-16T13:40:52Z</time>
      </trkpt>
      <trkpt lat="47.32621" lon="-0.22681">
        <ele>69</ele>
        <time>2024-10-16T13:40:53Z</time>
      </trkpt>
      <trkpt lat="47.32641" lon="-0.22675">
        <ele>69</ele>
        <time>2024-10-16T13:40:58Z</time>
      </trkpt>
      <trkpt lat="47.32647" lon="-0.22668">
        <ele>69</ele>
        <time>2024-10-16T13:41:00Z</time>
      </trkpt>
      <trkpt lat="47.32653" lon="-0.22653">
        <ele>69</ele>
        <time>2024-10-16T13:41:03Z</time>
      </trkpt>
      <trkpt lat="47.32675" lon="-0.22631">
        <ele>69</ele>
        <time>2024-10-16T13:41:09Z</time>
      </trkpt>
      <trkpt lat="47.32676" lon="-0.22622">
        <ele>69</ele>
        <time>2024-10-16T13:41:10Z</time>
      </trkpt>
      <trkpt lat="47.32672" lon="-0.22615">
        <ele>69</ele>
        <time>2024-10-16T13:41:12Z</time>
      </trkpt>
      <trkpt lat="47.32672" lon="-0.2261">
        <ele>69</ele>
        <time>2024-10-16T13:41:13Z</time>
      </trkpt>
      <trkpt lat="47.32676" lon="-0.22598">
        <ele>69</ele>
        <time>2024-10-16T13:41:15Z</time>
      </trkpt>
      <trkpt lat="47.32683" lon="-0.22596">
        <ele>69</ele>
        <time>2024-10-16T13:41:16Z</time>
      </trkpt>
      <trkpt lat="47.32687" lon="-0.22616">
        <ele>69</ele>
        <time>2024-10-16T13:41:20Z</time>
      </trkpt>
      <trkpt lat="47.32694" lon="-0.22618">
        <ele>69</ele>
        <time>2024-10-16T13:41:21Z</time>
      </trkpt>
      <trkpt lat="47.327" lon="-0.22624">
        <ele>68</ele>
        <time>2024-10-16T13:41:23Z</time>
      </trkpt>
      <trkpt lat="47.32705" lon="-0.22623">
        <ele>68</ele>
        <time>2024-10-16T13:41:24Z</time>
      </trkpt>
      <trkpt lat="47.32717" lon="-0.22613">
        <ele>68</ele>
        <time>2024-10-16T13:41:27Z</time>
      </trkpt>
      <trkpt lat="47.3273" lon="-0.22607">
        <ele>67</ele>
        <time>2024-10-16T13:41:31Z</time>
      </trkpt>
      <trkpt lat="47.32746" lon="-0.22589">
        <ele>67</ele>
        <time>2024-10-16T13:41:35Z</time>
      </trkpt>
      <trkpt lat="47.32763" lon="-0.22578">
        <ele>67</ele>
        <time>2024-10-16T13:41:40Z</time>
      </trkpt>
      <trkpt lat="47.32764" lon="-0.22573">
        <ele>67</ele>
        <time>2024-10-16T13:41:40Z</time>
      </trkpt>
      <trkpt lat="47.32778" lon="-0.22554">
        <ele>68</ele>
        <time>2024-10-16T13:41:45Z</time>
      </trkpt>
      <trkpt lat="47.32791" lon="-0.22534">
        <ele>61.3</ele>
        <time>2024-10-16T13:41:49Z</time>
      </trkpt>
      <trkpt lat="47.32806" lon="-0.2251">
        <ele>62.3</ele>
        <time>2024-10-16T13:41:55Z</time>
      </trkpt>
      <trkpt lat="47.32807" lon="-0.22504">
        <ele>69</ele>
        <time>2024-10-16T13:41:56Z</time>
      </trkpt>
      <trkpt lat="47.32815" lon="-0.22492">
        <ele>63.4</ele>
        <time>2024-10-16T13:41:58Z</time>
      </trkpt>
      <trkpt lat="47.32822" lon="-0.22469">
        <ele>64.7</ele>
        <time>2024-10-16T13:42:03Z</time>
      </trkpt>
      <trkpt lat="47.3282" lon="-0.22456">
        <ele>65.1</ele>
        <time>2024-10-16T13:42:06Z</time>
      </trkpt>
      <trkpt lat="47.32815" lon="-0.22447">
        <ele>71</ele>
        <time>2024-10-16T13:42:07Z</time>
      </trkpt>
      <trkpt lat="47.32803" lon="-0.22416">
        <ele>66</ele>
      </trkpt>
      <trkpt lat="47.32802" lon="-0.22413">
        <ele>66</ele>
        <time>2024-10-16T13:42:13Z</time>
      </trkpt>
      <trkpt lat="47.32801" lon="-0.22412">
        <ele>66</ele>
      </trkpt>
      <trkpt lat="47.32799" lon="-0.22408">
        <ele>66</ele>
        <time>2024-10-16T13:42:15Z</time>
      </trkpt>
      <trkpt lat="47.32798" lon="-0.22405">
        <ele>66</ele>
      </trkpt>
      <trkpt lat="47.32794" lon="-0.22391">
        <ele>66</ele>
      </trkpt>
      <trkpt lat="47.32791" lon="-0.22383">
        <ele>65.8</ele>
        <time>2024-10-16T13:42:19Z</time>
      </trkpt>
      <trkpt lat="47.32792" lon="-0.22378">
        <ele>65.6</ele>
        <time>2024-10-16T13:42:22Z</time>
      </trkpt>
      <trkpt lat="47.32793" lon="-0.22367">
        <ele>65.3</ele>
        <time>2024-10-16T13:42:26Z</time>
      </trkpt>
      <trkpt lat="47.32795" lon="-0.22362">
        <ele>65.3</ele>
        <time>2024-10-16T13:42:27Z</time>
      </trkpt>
      <trkpt lat="47.32796" lon="-0.22361">
        <ele>65.3</ele>
        <time>2024-10-16T13:42:29Z</time>
      </trkpt>
      <trkpt lat="47.32797" lon="-0.2236">
        <ele>65.4</ele>
        <time>2024-10-16T13:42:34Z</time>
      </trkpt>
      <trkpt lat="47.32798" lon="-0.22357">
        <ele>65.5</ele>
        <time>2024-10-16T13:42:35Z</time>
      </trkpt>
      <trkpt lat="47.328" lon="-0.22351">
        <ele>65.7</ele>
        <time>2024-10-16T13:42:40Z</time>
      </trkpt>
      <trkpt lat="47.32808" lon="-0.22368">
        <ele>73</ele>
        <time>2024-10-16T13:42:43Z</time>
      </trkpt>
      <trkpt lat="47.32824" lon="-0.22402">
        <ele>72</ele>
        <time>2024-10-16T13:42:49Z</time>
      </trkpt>
      <trkpt lat="47.32862" lon="-0.22497">
        <ele>69</ele>
        <time>2024-10-16T13:43:07Z</time>
      </trkpt>
      <trkpt lat="47.32883" lon="-0.22537">
        <ele>67</ele>
        <time>2024-10-16T13:43:15Z</time>
      </trkpt>
      <trkpt lat="47.32891" lon="-0.22557">
        <ele>66</ele>
        <time>2024-10-16T13:43:19Z</time>
      </trkpt>
      <trkpt lat="47.32904" lon="-0.22574">
        <ele>64</ele>
        <time>2024-10-16T13:43:23Z</time>
      </trkpt>
      <trkpt lat="47.32922" lon="-0.22578">
        <ele>63</ele>
        <time>2024-10-16T13:43:27Z</time>
      </trkpt>
      <trkpt lat="47.32941" lon="-0.22549">
        <ele>64</ele>
        <time>2024-10-16T13:43:33Z</time>
      </trkpt>
      <trkpt lat="47.32956" lon="-0.22517">
        <ele>65</ele>
        <time>2024-10-16T13:43:39Z</time>
      </trkpt>
      <trkpt lat="47.32956" lon="-0.225">
        <ele>67</ele>
        <time>2024-10-16T13:43:42Z</time>
      </trkpt>
      <trkpt lat="47.32965" lon="-0.22478">
        <ele>67</ele>
        <time>2024-10-16T13:43:46Z</time>
      </trkpt>
      <trkpt lat="47.32969" lon="-0.22474">
        <ele>67</ele>
        <time>2024-10-16T13:43:47Z</time>
      </trkpt>
      <trkpt lat="47.32977" lon="-0.22472">
        <ele>66</ele>
        <time>2024-10-16T13:43:49Z</time>
      </trkpt>
      <trkpt lat="47.32999" lon="-0.22454">
        <ele>65</ele>
        <time>2024-10-16T13:43:55Z</time>
      </trkpt>
      <trkpt lat="47.3303" lon="-0.2242">
        <ele>66</ele>
        <time>2024-10-16T13:44:04Z</time>
      </trkpt>
      <trkpt lat="47.33029" lon="-0.22408">
        <ele>67</ele>
        <time>2024-10-16T13:44:06Z</time>
      </trkpt>
      <trkpt lat="47.33033" lon="-0.22381">
        <ele>69</ele>
        <time>2024-10-16T13:44:10Z</time>
      </trkpt>
      <trkpt lat="47.33041" lon="-0.22362">
        <ele>70</ele>
        <time>2024-10-16T13:44:14Z</time>
      </trkpt>
      <trkpt lat="47.3305" lon="-0.22352">
        <ele>71</ele>
        <time>2024-10-16T13:44:17Z</time>
      </trkpt>
      <trkpt lat="47.33044" lon="-0.22361">
        <ele>70</ele>
        <time>2024-10-16T13:44:19Z</time>
      </trkpt>
      <trkpt lat="47.33036" lon="-0.22363">
        <ele>70</ele>
        <time>2024-10-16T13:44:21Z</time>
      </trkpt>
      <trkpt lat="47.33022" lon="-0.22353">
        <ele>71</ele>
        <time>2024-10-16T13:44:24Z</time>
      </trkpt>
      <trkpt lat="47.33013" lon="-0.22341">
        <ele>72</ele>
        <time>2024-10-16T13:44:27Z</time>
      </trkpt>
      <trkpt lat="47.33013" lon="-0.22325">
        <ele>73</ele>
        <time>2024-10-16T13:44:30Z</time>
      </trkpt>
      <trkpt lat="47.33" lon="-0.2232">
        <ele>73</ele>
        <time>2024-10-16T13:44:33Z</time>
      </trkpt>
      <trkpt lat="47.32991" lon="-0.22309">
        <ele>74</ele>
        <time>2024-10-16T13:44:35Z</time>
      </trkpt>
      <trkpt lat="47.32988" lon="-0.22302">
        <ele>74</ele>
        <time>2024-10-16T13:44:37Z</time>
      </trkpt>
      <trkpt lat="47.32988" lon="-0.22274">
        <ele>75</ele>
        <time>2024-10-16T13:44:41Z</time>
      </trkpt>
      <trkpt lat="47.32978" lon="-0.22256">
        <ele>75</ele>
        <time>2024-10-16T13:44:45Z</time>
      </trkpt>
      <trkpt lat="47.32974" lon="-0.22239">
        <ele>75</ele>
        <time>2024-10-16T13:44:48Z</time>
      </trkpt>
      <trkpt lat="47.32965" lon="-0.2224">
        <ele>74</ele>
        <time>2024-10-16T13:44:50Z</time>
      </trkpt>
      <trkpt lat="47.3296" lon="-0.22243">
        <ele>74</ele>
        <time>2024-10-16T13:44:51Z</time>
      </trkpt>
      <trkpt lat="47.32957" lon="-0.2225">
        <ele>74</ele>
        <time>2024-10-16T13:44:52Z</time>
      </trkpt>
      <trkpt lat="47.3296" lon="-0.22269">
        <ele>74</ele>
        <time>2024-10-16T13:44:55Z</time>
      </trkpt>
      <trkpt lat="47.32965" lon="-0.22276">
        <ele>74</ele>
        <time>2024-10-16T13:44:57Z</time>
      </trkpt>
      <trkpt lat="47.32963" lon="-0.22299">
        <ele>74</ele>
        <time>2024-10-16T13:45:01Z</time>
      </trkpt>
      <trkpt lat="47.32959" lon="-0.22305">
        <ele>74</ele>
        <time>2024-10-16T13:45:02Z</time>
      </trkpt>
      <trkpt lat="47.32957" lon="-0.22316">
        <ele>74</ele>
        <time>2024-10-16T13:45:04Z</time>
      </trkpt>
      <trkpt lat="47.32954" lon="-0.22319">
        <ele>74</ele>
        <time>2024-10-16T13:45:05Z</time>
      </trkpt>
      <trkpt lat="47.32935" lon="-0.22312">
        <ele>74</ele>
        <time>2024-10-16T13:45:09Z</time>
      </trkpt>
      <trkpt lat="47.32932" lon="-0.22302">
        <ele>73</ele>
        <time>2024-10-16T13:45:11Z</time>
      </trkpt>
      <trkpt lat="47.32926" lon="-0.22294">
        <ele>73</ele>
        <time>2024-10-16T13:45:13Z</time>
      </trkpt>
      <trkpt lat="47.32907" lon="-0.22252">
        <ele>72</ele>
        <time>2024-10-16T13:45:21Z</time>
      </trkpt>
      <trkpt lat="47.32899" lon="-0.2225">
        <ele>72</ele>
        <time>2024-10-16T13:45:23Z</time>
      </trkpt>
      <trkpt lat="47.32895" lon="-0.22244">
        <ele>72</ele>
        <time>2024-10-16T13:45:24Z</time>
      </trkpt>
      <trkpt lat="47.32899" lon="-0.22235">
        <ele>72</ele>
        <time>2024-10-16T13:45:26Z</time>
      </trkpt>
      <trkpt lat="47.32911" lon="-0.22228">
        <ele>72</ele>
        <time>2024-10-16T13:45:29Z</time>
      </trkpt>
      <trkpt lat="47.32956" lon="-0.22212">
        <ele>74</ele>
        <time>2024-10-16T13:45:40Z</time>
      </trkpt>
      <trkpt lat="47.3297" lon="-0.2221">
        <ele>74</ele>
        <time>2024-10-16T13:45:43Z</time>
      </trkpt>
      <trkpt lat="47.33004" lon="-0.22195">
        <ele>75</ele>
        <time>2024-10-16T13:45:51Z</time>
      </trkpt>
      <trkpt lat="47.33019" lon="-0.22176">
        <ele>74</ele>
        <time>2024-10-16T13:45:56Z</time>
      </trkpt>
      <trkpt lat="47.33023" lon="-0.22163">
        <ele>74</ele>
        <time>2024-10-16T13:45:58Z</time>
      </trkpt>
      <trkpt lat="47.33014" lon="-0.2215">
        <ele>74</ele>
        <time>2024-10-16T13:46:01Z</time>
      </trkpt>
      <trkpt lat="47.33001" lon="-0.22143">
        <ele>75</ele>
        <time>2024-10-16T13:46:04Z</time>
      </trkpt>
      <trkpt lat="47.33002" lon="-0.22123">
        <ele>74</ele>
        <time>2024-10-16T13:46:07Z</time>
      </trkpt>
      <trkpt lat="47.32996" lon="-0.2211">
        <ele>74</ele>
        <time>2024-10-16T13:46:10Z</time>
      </trkpt>
      <trkpt lat="47.32978" lon="-0.22095">
        <ele>74</ele>
        <time>2024-10-16T13:46:15Z</time>
      </trkpt>
      <trkpt lat="47.32958" lon="-0.22086">
        <ele>75</ele>
        <time>2024-10-16T13:46:20Z</time>
      </trkpt>
      <trkpt lat="47.32952" lon="-0.22081">
        <ele>75</ele>
        <time>2024-10-16T13:46:21Z</time>
      </trkpt>
      <trkpt lat="47.3294" lon="-0.22054">
        <ele>76</ele>
        <time>2024-10-16T13:46:26Z</time>
      </trkpt>
      <trkpt lat="47.32937" lon="-0.22027">
        <ele>76</ele>
        <time>2024-10-16T13:46:31Z</time>
      </trkpt>
      <trkpt lat="47.32943" lon="-0.22004">
        <ele>76</ele>
        <time>2024-10-16T13:46:35Z</time>
      </trkpt>
      <trkpt lat="47.3294" lon="-0.21954">
        <ele>76</ele>
        <time>2024-10-16T13:46:43Z</time>
      </trkpt>
      <trkpt lat="47.32934" lon="-0.21921">
        <ele>77</ele>
        <time>2024-10-16T13:46:48Z</time>
      </trkpt>
      <trkpt lat="47.32905" lon="-0.21815">
        <ele>79</ele>
        <time>2024-10-16T13:47:06Z</time>
      </trkpt>
      <trkpt lat="47.32902" lon="-0.21793">
        <ele>79</ele>
        <time>2024-10-16T13:47:10Z</time>
      </trkpt>
      <trkpt lat="47.32892" lon="-0.21771">
        <ele>79</ele>
        <time>2024-10-16T13:47:14Z</time>
      </trkpt>
      <trkpt lat="47.32881" lon="-0.21712">
        <ele>79</ele>
        <time>2024-10-16T13:47:23Z</time>
      </trkpt>
      <trkpt lat="47.32875" lon="-0.21694">
        <ele>79</ele>
        <time>2024-10-16T13:47:27Z</time>
      </trkpt>
      <trkpt lat="47.32854" lon="-0.21593">
        <ele>77</ele>
        <time>2024-10-16T13:47:43Z</time>
      </trkpt>
      <trkpt lat="47.32859" lon="-0.21584">
        <ele>77</ele>
        <time>2024-10-16T13:47:45Z</time>
      </trkpt>
      <trkpt lat="47.32864" lon="-0.21581">
        <ele>77</ele>
        <time>2024-10-16T13:47:46Z</time>
      </trkpt>
      <trkpt lat="47.3288" lon="-0.21561">
        <ele>77</ele>
        <time>2024-10-16T13:47:51Z</time>
      </trkpt>
      <trkpt lat="47.32884" lon="-0.2156">
        <ele>77</ele>
        <time>2024-10-16T13:47:52Z</time>
      </trkpt>
      <trkpt lat="47.32908" lon="-0.21624">
        <ele>78</ele>
        <time>2024-10-16T13:48:04Z</time>
      </trkpt>
      <trkpt lat="47.32929" lon="-0.21666">
        <ele>78</ele>
        <time>2024-10-16T13:48:12Z</time>
      </trkpt>
      <trkpt lat="47.32941" lon="-0.21673">
        <ele>78</ele>
        <time>2024-10-16T13:48:15Z</time>
      </trkpt>
      <trkpt lat="47.32958" lon="-0.21668">
        <ele>78</ele>
        <time>2024-10-16T13:48:19Z</time>
      </trkpt>
      <trkpt lat="47.32971" lon="-0.21676">
        <ele>77</ele>
        <time>2024-10-16T13:48:22Z</time>
      </trkpt>
      <trkpt lat="47.32984" lon="-0.21678">
        <ele>77</ele>
        <time>2024-10-16T13:48:26Z</time>
      </trkpt>
      <trkpt lat="47.33004" lon="-0.2165">
        <ele>77</ele>
        <time>2024-10-16T13:48:32Z</time>
      </trkpt>
      <trkpt lat="47.33009" lon="-0.21624">
        <ele>77</ele>
        <time>2024-10-16T13:48:36Z</time>
      </trkpt>
      <trkpt lat="47.33" lon="-0.21563">
        <ele>77</ele>
        <time>2024-10-16T13:48:46Z</time>
      </trkpt>
      <trkpt lat="47.33002" lon="-0.21556">
        <ele>77</ele>
        <time>2024-10-16T13:48:47Z</time>
      </trkpt>
      <trkpt lat="47.33015" lon="-0.21529">
        <ele>77</ele>
        <time>2024-10-16T13:48:53Z</time>
      </trkpt>
      <trkpt lat="47.33029" lon="-0.21512">
        <ele>77</ele>
        <time>2024-10-16T13:48:57Z</time>
      </trkpt>
      <trkpt lat="47.33039" lon="-0.21504">
        <ele>68.6</ele>
      </trkpt>
      <trkpt lat="47.33042" lon="-0.21502">
        <ele>68.5</ele>
        <time>2024-10-16T13:48:59Z</time>
      </trkpt>
      <trkpt lat="47.33047" lon="-0.21497">
        <ele>68.4</ele>
        <time>2024-10-16T13:49:02Z</time>
      </trkpt>
      <trkpt lat="47.33052" lon="-0.21491">
        <ele>68.4</ele>
      </trkpt>
      <trkpt lat="47.33058" lon="-0.21486">
        <ele>68.5</ele>
      </trkpt>
      <trkpt lat="47.33059" lon="-0.21485">
        <ele>68.5</ele>
        <time>2024-10-16T13:49:05Z</time>
      </trkpt>
      <trkpt lat="47.33061" lon="-0.21484">
        <ele>68.5</ele>
      </trkpt>
      <trkpt lat="47.33073" lon="-0.21486">
        <ele>68.2</ele>
        <time>2024-10-16T13:49:06Z</time>
      </trkpt>
      <trkpt lat="47.3308" lon="-0.21501">
        <ele>68</ele>
        <time>2024-10-16T13:49:12Z</time>
      </trkpt>
      <trkpt lat="47.33083" lon="-0.21506">
        <ele>68</ele>
        <time>2024-10-16T13:49:13Z</time>
      </trkpt>
      <trkpt lat="47.33098" lon="-0.21538">
        <ele>76</ele>
        <time>2024-10-16T13:49:20Z</time>
      </trkpt>
      <trkpt lat="47.33119" lon="-0.21545">
        <ele>76</ele>
        <time>2024-10-16T13:49:25Z</time>
      </trkpt>
      <trkpt lat="47.3313" lon="-0.21539">
        <ele>75</ele>
        <time>2024-10-16T13:49:27Z</time>
      </trkpt>
      <trkpt lat="47.33152" lon="-0.21519">
        <ele>74</ele>
        <time>2024-10-16T13:49:33Z</time>
      </trkpt>
      <trkpt lat="47.33162" lon="-0.21514">
        <ele>74</ele>
        <time>2024-10-16T13:49:36Z</time>
      </trkpt>
      <trkpt lat="47.33175" lon="-0.21513">
        <ele>74</ele>
        <time>2024-10-16T13:49:39Z</time>
      </trkpt>
      <trkpt lat="47.33203" lon="-0.21502">
        <ele>73</ele>
        <time>2024-10-16T13:49:46Z</time>
      </trkpt>
      <trkpt lat="47.33214" lon="-0.21504">
        <ele>73</ele>
        <time>2024-10-16T13:49:48Z</time>
      </trkpt>
      <trkpt lat="47.3323" lon="-0.21494">
        <ele>73</ele>
        <time>2024-10-16T13:49:52Z</time>
      </trkpt>
      <trkpt lat="47.3324" lon="-0.21486">
        <ele>73</ele>
        <time>2024-10-16T13:49:55Z</time>
      </trkpt>
      <trkpt lat="47.3325" lon="-0.21473">
        <ele>73</ele>
        <time>2024-10-16T13:49:58Z</time>
      </trkpt>
      <trkpt lat="47.3326" lon="-0.21434">
        <ele>72</ele>
        <time>2024-10-16T13:50:05Z</time>
      </trkpt>
      <trkpt lat="47.33266" lon="-0.21421">
        <ele>72</ele>
        <time>2024-10-16T13:50:07Z</time>
      </trkpt>
      <trkpt lat="47.33295" lon="-0.21402">
        <ele>73</ele>
        <time>2024-10-16T13:50:15Z</time>
      </trkpt>
      <trkpt lat="47.33308" lon="-0.21403">
        <ele>73</ele>
        <time>2024-10-16T13:50:18Z</time>
      </trkpt>
      <trkpt lat="47.33323" lon="-0.21422">
        <ele>73</ele>
        <time>2024-10-16T13:50:22Z</time>
      </trkpt>
      <trkpt lat="47.3336" lon="-0.21516">
        <ele>74</ele>
        <time>2024-10-16T13:50:40Z</time>
      </trkpt>
      <trkpt lat="47.33379" lon="-0.21556">
        <ele>74</ele>
        <time>2024-10-16T13:50:47Z</time>
      </trkpt>
      <trkpt lat="47.33403" lon="-0.2162">
        <ele>75</ele>
        <time>2024-10-16T13:50:59Z</time>
      </trkpt>
      <trkpt lat="47.33422" lon="-0.21684">
        <ele>76</ele>
        <time>2024-10-16T13:51:10Z</time>
      </trkpt>
      <trkpt lat="47.33459" lon="-0.21777">
        <ele>75</ele>
        <time>2024-10-16T13:51:27Z</time>
      </trkpt>
      <trkpt lat="47.33468" lon="-0.21814">
        <ele>74</ele>
        <time>2024-10-16T13:51:33Z</time>
      </trkpt>
      <trkpt lat="47.33474" lon="-0.21818">
        <ele>74</ele>
        <time>2024-10-16T13:51:35Z</time>
      </trkpt>
      <trkpt lat="47.3348" lon="-0.21813">
        <ele>74</ele>
        <time>2024-10-16T13:51:36Z</time>
      </trkpt>
      <trkpt lat="47.33495" lon="-0.21774">
        <ele>74</ele>
        <time>2024-10-16T13:51:43Z</time>
      </trkpt>
      <trkpt lat="47.33514" lon="-0.21761">
        <ele>73</ele>
        <time>2024-10-16T13:51:48Z</time>
      </trkpt>
      <trkpt lat="47.33528" lon="-0.21759">
        <ele>72</ele>
        <time>2024-10-16T13:51:52Z</time>
      </trkpt>
      <trkpt lat="47.33537" lon="-0.21766">
        <ele>72</ele>
        <time>2024-10-16T13:51:54Z</time>
      </trkpt>
      <trkpt lat="47.3356" lon="-0.2175">
        <ele>70</ele>
        <time>2024-10-16T13:52:00Z</time>
      </trkpt>
      <trkpt lat="47.33574" lon="-0.21759">
        <ele>70</ele>
        <time>2024-10-16T13:52:03Z</time>
      </trkpt>
      <trkpt lat="47.33589" lon="-0.21765">
        <ele>69</ele>
        <time>2024-10-16T13:52:07Z</time>
      </trkpt>
      <trkpt lat="47.33619" lon="-0.21771">
        <ele>66</ele>
        <time>2024-10-16T13:52:14Z</time>
      </trkpt>
      <trkpt lat="47.33629" lon="-0.21782">
        <ele>65</ele>
        <time>2024-10-16T13:52:17Z</time>
      </trkpt>
      <trkpt lat="47.3364" lon="-0.21806">
        <ele>65</ele>
        <time>2024-10-16T13:52:22Z</time>
      </trkpt>
      <trkpt lat="47.33641" lon="-0.21822">
        <ele>66</ele>
        <time>2024-10-16T13:52:24Z</time>
      </trkpt>
      <trkpt lat="47.33653" lon="-0.21865">
        <ele>66</ele>
        <time>2024-10-16T13:52:32Z</time>
      </trkpt>
      <trkpt lat="47.33655" lon="-0.21883">
        <ele>66</ele>
        <time>2024-10-16T13:52:34Z</time>
      </trkpt>
      <trkpt lat="47.33666" lon="-0.219">
        <ele>66</ele>
        <time>2024-10-16T13:52:38Z</time>
      </trkpt>
      <trkpt lat="47.33672" lon="-0.21898">
        <ele>65</ele>
        <time>2024-10-16T13:52:40Z</time>
      </trkpt>
      <trkpt lat="47.33679" lon="-0.219">
        <ele>63</ele>
        <time>2024-10-16T13:52:41Z</time>
      </trkpt>
      <trkpt lat="47.33687" lon="-0.21927">
        <ele>63</ele>
        <time>2024-10-16T13:52:46Z</time>
      </trkpt>
      <trkpt lat="47.33688" lon="-0.21948">
        <ele>64</ele>
        <time>2024-10-16T13:52:49Z</time>
      </trkpt>
      <trkpt lat="47.33701" lon="-0.21973">
        <ele>63</ele>
        <time>2024-10-16T13:52:54Z</time>
      </trkpt>
      <trkpt lat="47.33707" lon="-0.21977">
        <ele>62</ele>
        <time>2024-10-16T13:52:56Z</time>
      </trkpt>
      <trkpt lat="47.33726" lon="-0.21973">
        <ele>60</ele>
        <time>2024-10-16T13:53:00Z</time>
      </trkpt>
      <trkpt lat="47.33738" lon="-0.2198">
        <ele>60</ele>
        <time>2024-10-16T13:53:03Z</time>
      </trkpt>
      <trkpt lat="47.33757" lon="-0.21996">
        <ele>57</ele>
        <time>2024-10-16T13:53:08Z</time>
      </trkpt>
      <trkpt lat="47.33757" lon="-0.22006">
        <ele>57</ele>
        <time>2024-10-16T13:53:10Z</time>
      </trkpt>
      <trkpt lat="47.33753" lon="-0.22014">
        <ele>58</ele>
        <time>2024-10-16T13:53:12Z</time>
      </trkpt>
      <trkpt lat="47.33747" lon="-0.22021">
        <ele>58</ele>
        <time>2024-10-16T13:53:13Z</time>
      </trkpt>
      <trkpt lat="47.33738" lon="-0.22023">
        <ele>59</ele>
        <time>2024-10-16T13:53:15Z</time>
      </trkpt>
      <trkpt lat="47.3373" lon="-0.22031">
        <ele>59</ele>
        <time>2024-10-16T13:53:18Z</time>
      </trkpt>
      <trkpt lat="47.33715" lon="-0.22032">
        <ele>60</ele>
        <time>2024-10-16T13:53:21Z</time>
      </trkpt>
      <trkpt lat="47.33712" lon="-0.22024">
        <ele>61</ele>
        <time>2024-10-16T13:53:23Z</time>
      </trkpt>
      <trkpt lat="47.33692" lon="-0.22004">
        <ele>64</ele>
        <time>2024-10-16T13:53:28Z</time>
      </trkpt>
      <trkpt lat="47.33685" lon="-0.22001">
        <ele>65</ele>
        <time>2024-10-16T13:53:30Z</time>
      </trkpt>
      <trkpt lat="47.3368" lon="-0.22009">
        <ele>64</ele>
        <time>2024-10-16T13:53:32Z</time>
      </trkpt>
      <trkpt lat="47.33677" lon="-0.22025">
        <ele>63</ele>
        <time>2024-10-16T13:53:34Z</time>
      </trkpt>
      <trkpt lat="47.33684" lon="-0.22053">
        <ele>61</ele>
        <time>2024-10-16T13:53:39Z</time>
      </trkpt>
      <trkpt lat="47.33681" lon="-0.22064">
        <ele>60</ele>
        <time>2024-10-16T13:53:41Z</time>
      </trkpt>
      <trkpt lat="47.33682" lon="-0.22071">
        <ele>60</ele>
        <time>2024-10-16T13:53:42Z</time>
      </trkpt>
      <trkpt lat="47.33692" lon="-0.22089">
        <ele>58</ele>
        <time>2024-10-16T13:53:46Z</time>
      </trkpt>
      <trkpt lat="47.33699" lon="-0.22127">
        <ele>55</ele>
        <time>2024-10-16T13:53:52Z</time>
      </trkpt>
      <trkpt lat="47.33699" lon="-0.22146">
        <ele>55</ele>
        <time>2024-10-16T13:53:55Z</time>
      </trkpt>
      <trkpt lat="47.33702" lon="-0.22158">
        <ele>54</ele>
        <time>2024-10-16T13:53:57Z</time>
      </trkpt>
      <trkpt lat="47.33699" lon="-0.22176">
        <ele>54</ele>
        <time>2024-10-16T13:54:00Z</time>
      </trkpt>
      <trkpt lat="47.337" lon="-0.22184">
        <ele>54</ele>
        <time>2024-10-16T13:54:01Z</time>
      </trkpt>
      <trkpt lat="47.33709" lon="-0.22194">
        <ele>54</ele>
        <time>2024-10-16T13:54:04Z</time>
      </trkpt>
      <trkpt lat="47.3372" lon="-0.22191">
        <ele>53</ele>
        <time>2024-10-16T13:54:07Z</time>
      </trkpt>
      <trkpt lat="47.3373" lon="-0.22184">
        <ele>52</ele>
        <time>2024-10-16T13:54:09Z</time>
      </trkpt>
      <trkpt lat="47.33739" lon="-0.22181">
        <ele>51</ele>
        <time>2024-10-16T13:54:11Z</time>
      </trkpt>
      <trkpt lat="47.33749" lon="-0.22182">
        <ele>51</ele>
        <time>2024-10-16T13:54:14Z</time>
      </trkpt>
      <trkpt lat="47.33755" lon="-0.22188">
        <ele>50</ele>
        <time>2024-10-16T13:54:15Z</time>
      </trkpt>
      <trkpt lat="47.33754" lon="-0.22193">
        <ele>50</ele>
        <time>2024-10-16T13:54:16Z</time>
      </trkpt>
      <trkpt lat="47.33757" lon="-0.22198">
        <ele>50</ele>
        <time>2024-10-16T13:54:17Z</time>
      </trkpt>
      <trkpt lat="47.33751" lon="-0.22214">
        <ele>52</ele>
        <time>2024-10-16T13:54:20Z</time>
      </trkpt>
      <trkpt lat="47.33741" lon="-0.22224">
        <ele>53</ele>
        <time>2024-10-16T13:54:23Z</time>
      </trkpt>
      <trkpt lat="47.33728" lon="-0.22226">
        <ele>54</ele>
        <time>2024-10-16T13:54:26Z</time>
      </trkpt>
      <trkpt lat="47.33725" lon="-0.22222">
        <ele>54</ele>
        <time>2024-10-16T13:54:27Z</time>
      </trkpt>
      <trkpt lat="47.33717" lon="-0.22228">
        <ele>55</ele>
        <time>2024-10-16T13:54:29Z</time>
      </trkpt>
      <trkpt lat="47.33708" lon="-0.22226">
        <ele>56</ele>
        <time>2024-10-16T13:54:31Z</time>
      </trkpt>
      <trkpt lat="47.33695" lon="-0.22228">
        <ele>56</ele>
        <time>2024-10-16T13:54:34Z</time>
      </trkpt>
      <trkpt lat="47.33688" lon="-0.22233">
        <ele>57</ele>
        <time>2024-10-16T13:54:36Z</time>
      </trkpt>
      <trkpt lat="47.33689" lon="-0.2224">
        <ele>57</ele>
        <time>2024-10-16T13:54:37Z</time>
      </trkpt>
      <trkpt lat="47.33685" lon="-0.22245">
        <ele>58</ele>
        <time>2024-10-16T13:54:38Z</time>
      </trkpt>
      <trkpt lat="47.33675" lon="-0.22248">
        <ele>58</ele>
        <time>2024-10-16T13:54:41Z</time>
      </trkpt>
      <trkpt lat="47.33649" lon="-0.22246">
        <ele>60</ele>
        <time>2024-10-16T13:54:47Z</time>
      </trkpt>
      <trkpt lat="47.3364" lon="-0.22256">
        <ele>61</ele>
        <time>2024-10-16T13:54:49Z</time>
      </trkpt>
      <trkpt lat="47.3363" lon="-0.22254">
        <ele>62</ele>
        <time>2024-10-16T13:54:52Z</time>
      </trkpt>
      <trkpt lat="47.33623" lon="-0.22257">
        <ele>62</ele>
        <time>2024-10-16T13:54:53Z</time>
      </trkpt>
      <trkpt lat="47.3362" lon="-0.22253">
        <ele>62</ele>
        <time>2024-10-16T13:54:54Z</time>
      </trkpt>
      <trkpt lat="47.33607" lon="-0.22246">
        <ele>63</ele>
        <time>2024-10-16T13:54:58Z</time>
      </trkpt>
      <trkpt lat="47.336" lon="-0.22248">
        <ele>64</ele>
        <time>2024-10-16T13:54:59Z</time>
      </trkpt>
      <trkpt lat="47.3359" lon="-0.22247">
        <ele>64</ele>
        <time>2024-10-16T13:55:02Z</time>
      </trkpt>
      <trkpt lat="47.33582" lon="-0.22236">
        <ele>65</ele>
        <time>2024-10-16T13:55:04Z</time>
      </trkpt>
      <trkpt lat="47.33572" lon="-0.22229">
        <ele>65</ele>
        <time>2024-10-16T13:55:07Z</time>
      </trkpt>
      <trkpt lat="47.33565" lon="-0.22228">
        <ele>65</ele>
        <time>2024-10-16T13:55:08Z</time>
      </trkpt>
      <trkpt lat="47.33556" lon="-0.22233">
        <ele>66</ele>
        <time>2024-10-16T13:55:11Z</time>
      </trkpt>
      <trkpt lat="47.33542" lon="-0.22234">
        <ele>67</ele>
        <time>2024-10-16T13:55:14Z</time>
      </trkpt>
      <trkpt lat="47.33537" lon="-0.22217">
        <ele>67</ele>
        <time>2024-10-16T13:55:17Z</time>
      </trkpt>
      <trkpt lat="47.33526" lon="-0.22201">
        <ele>67</ele>
        <time>2024-10-16T13:55:21Z</time>
      </trkpt>
      <trkpt lat="47.33514" lon="-0.22201">
        <ele>68</ele>
        <time>2024-10-16T13:55:23Z</time>
      </trkpt>
      <trkpt lat="47.33501" lon="-0.2219">
        <ele>69</ele>
        <time>2024-10-16T13:55:27Z</time>
      </trkpt>
      <trkpt lat="47.33487" lon="-0.22191">
        <ele>70</ele>
        <time>2024-10-16T13:55:30Z</time>
      </trkpt>
      <trkpt lat="47.33469" lon="-0.22194">
        <ele>70</ele>
        <time>2024-10-16T13:55:34Z</time>
      </trkpt>
      <trkpt lat="47.33464" lon="-0.22199">
        <ele>71</ele>
        <time>2024-10-16T13:55:36Z</time>
      </trkpt>
      <trkpt lat="47.33463" lon="-0.22207">
        <ele>71</ele>
        <time>2024-10-16T13:55:37Z</time>
      </trkpt>
      <trkpt lat="47.33458" lon="-0.22213">
        <ele>71</ele>
        <time>2024-10-16T13:55:39Z</time>
      </trkpt>
      <trkpt lat="47.33436" lon="-0.22221">
        <ele>72</ele>
        <time>2024-10-16T13:55:44Z</time>
      </trkpt>
      <trkpt lat="47.33429" lon="-0.22226">
        <ele>72</ele>
        <time>2024-10-16T13:55:46Z</time>
      </trkpt>
      <trkpt lat="47.33417" lon="-0.22243">
        <ele>72</ele>
        <time>2024-10-16T13:55:50Z</time>
      </trkpt>
      <trkpt lat="47.33411" lon="-0.22267">
        <ele>71</ele>
        <time>2024-10-16T13:55:54Z</time>
      </trkpt>
      <trkpt lat="47.33407" lon="-0.2227">
        <ele>71</ele>
        <time>2024-10-16T13:55:55Z</time>
      </trkpt>
      <trkpt lat="47.33403" lon="-0.22269">
        <ele>72</ele>
        <time>2024-10-16T13:55:56Z</time>
      </trkpt>
      <trkpt lat="47.33384" lon="-0.22245">
        <ele>72</ele>
        <time>2024-10-16T13:56:01Z</time>
      </trkpt>
      <trkpt lat="47.33361" lon="-0.22223">
        <ele>73</ele>
        <time>2024-10-16T13:56:08Z</time>
      </trkpt>
      <trkpt lat="47.33333" lon="-0.22188">
        <ele>72</ele>
        <time>2024-10-16T13:56:16Z</time>
      </trkpt>
      <trkpt lat="47.3332" lon="-0.22179">
        <ele>72</ele>
        <time>2024-10-16T13:56:20Z</time>
      </trkpt>
      <trkpt lat="47.33314" lon="-0.2218">
        <ele>72</ele>
        <time>2024-10-16T13:56:21Z</time>
      </trkpt>
      <trkpt lat="47.33228" lon="-0.22279">
        <ele>75</ele>
        <time>2024-10-16T13:56:47Z</time>
      </trkpt>
      <trkpt lat="47.3321" lon="-0.22295">
        <ele>75</ele>
        <time>2024-10-16T13:56:52Z</time>
      </trkpt>
      <trkpt lat="47.33191" lon="-0.22307">
        <ele>75</ele>
        <time>2024-10-16T13:56:56Z</time>
      </trkpt>
      <trkpt lat="47.33179" lon="-0.22308">
        <ele>75</ele>
        <time>2024-10-16T13:56:59Z</time>
      </trkpt>
      <trkpt lat="47.33146" lon="-0.22319">
        <ele>74</ele>
        <time>2024-10-16T13:57:07Z</time>
      </trkpt>
      <trkpt lat="47.33128" lon="-0.22321">
        <ele>74</ele>
        <time>2024-10-16T13:57:11Z</time>
      </trkpt>
      <trkpt lat="47.33112" lon="-0.22326">
        <ele>73</ele>
        <time>2024-10-16T13:57:15Z</time>
      </trkpt>
      <trkpt lat="47.33081" lon="-0.22343">
        <ele>71</ele>
        <time>2024-10-16T13:57:23Z</time>
      </trkpt>
      <trkpt lat="47.33076" lon="-0.22349">
        <ele>71</ele>
        <time>2024-10-16T13:57:24Z</time>
      </trkpt>
      <trkpt lat="47.33088" lon="-0.22442">
        <ele>64</ele>
        <time>2024-10-16T13:57:39Z</time>
      </trkpt>
      <trkpt lat="47.33092" lon="-0.22493">
        <ele>60</ele>
        <time>2024-10-16T13:57:47Z</time>
      </trkpt>
      <trkpt lat="47.33115" lon="-0.22557">
        <ele>61</ele>
        <time>2024-10-16T13:57:59Z</time>
      </trkpt>
      <trkpt lat="47.33132" lon="-0.2259">
        <ele>61</ele>
        <time>2024-10-16T13:58:05Z</time>
      </trkpt>
      <trkpt lat="47.33144" lon="-0.22627">
        <ele>61</ele>
        <time>2024-10-16T13:58:12Z</time>
      </trkpt>
      <trkpt lat="47.33173" lon="-0.22667">
        <ele>60</ele>
        <time>2024-10-16T13:58:21Z</time>
      </trkpt>
      <trkpt lat="47.3325" lon="-0.22798">
        <ele>58</ele>
        <time>2024-10-16T13:58:49Z</time>
      </trkpt>
      <trkpt lat="47.33288" lon="-0.22782">
        <ele>56</ele>
        <time>2024-10-16T13:58:58Z</time>
      </trkpt>
      <trkpt lat="47.33315" lon="-0.22765">
        <ele>54</ele>
        <time>2024-10-16T13:59:05Z</time>
      </trkpt>
      <trkpt lat="47.33335" lon="-0.22758">
        <ele>53</ele>
        <time>2024-10-16T13:59:10Z</time>
      </trkpt>
      <trkpt lat="47.33342" lon="-0.22758">
        <ele>53</ele>
        <time>2024-10-16T13:59:11Z</time>
      </trkpt>
      <trkpt lat="47.33352" lon="-0.22767">
        <ele>53</ele>
        <time>2024-10-16T13:59:14Z</time>
      </trkpt>
      <trkpt lat="47.33367" lon="-0.22802">
        <ele>53</ele>
        <time>2024-10-16T13:59:20Z</time>
      </trkpt>
      <trkpt lat="47.33371" lon="-0.22804">
        <ele>53</ele>
        <time>2024-10-16T13:59:21Z</time>
      </trkpt>
      <trkpt lat="47.33384" lon="-0.22804">
        <ele>52</ele>
        <time>2024-10-16T13:59:24Z</time>
      </trkpt>
      <trkpt lat="47.33388" lon="-0.22807">
        <ele>52</ele>
        <time>2024-10-16T13:59:26Z</time>
      </trkpt>
      <trkpt lat="47.33394" lon="-0.22816">
        <ele>52</ele>
        <time>2024-10-16T13:59:28Z</time>
      </trkpt>
      <trkpt lat="47.33399" lon="-0.22843">
        <ele>53</ele>
        <time>2024-10-16T13:59:32Z</time>
      </trkpt>
      <trkpt lat="47.33412" lon="-0.22933">
        <ele>53</ele>
        <time>2024-10-16T13:59:47Z</time>
      </trkpt>
      <trkpt lat="47.33413" lon="-0.22962">
        <ele>54</ele>
        <time>2024-10-16T13:59:51Z</time>
      </trkpt>
      <trkpt lat="47.33421" lon="-0.22974">
        <ele>54</ele>
        <time>2024-10-16T13:59:54Z</time>
      </trkpt>
      <trkpt lat="47.33494" lon="-0.22948">
        <ele>52</ele>
        <time>2024-10-16T14:00:11Z</time>
      </trkpt>
      <trkpt lat="47.33506" lon="-0.22946">
        <ele>51</ele>
        <time>2024-10-16T14:00:14Z</time>
      </trkpt>
      <trkpt lat="47.33557" lon="-0.22953">
        <ele>50</ele>
        <time>2024-10-16T14:00:26Z</time>
      </trkpt>
      <trkpt lat="47.33602" lon="-0.22963">
        <ele>48</ele>
        <time>2024-10-16T14:00:37Z</time>
      </trkpt>
      <trkpt lat="47.33613" lon="-0.22961">
        <ele>48</ele>
        <time>2024-10-16T14:00:39Z</time>
      </trkpt>
      <trkpt lat="47.33616" lon="-0.22949">
        <ele>48</ele>
        <time>2024-10-16T14:00:41Z</time>
      </trkpt>
      <trkpt lat="47.3362" lon="-0.22864">
        <ele>47</ele>
        <time>2024-10-16T14:00:55Z</time>
      </trkpt>
      <trkpt lat="47.33622" lon="-0.22858">
        <ele>47</ele>
        <time>2024-10-16T14:00:56Z</time>
      </trkpt>
      <trkpt lat="47.33631" lon="-0.22849">
        <ele>47</ele>
        <time>2024-10-16T14:00:58Z</time>
      </trkpt>
      <trkpt lat="47.3365" lon="-0.22843">
        <ele>46</ele>
        <time>2024-10-16T14:01:03Z</time>
      </trkpt>
      <trkpt lat="47.33676" lon="-0.22847">
        <ele>45</ele>
        <time>2024-10-16T14:01:09Z</time>
      </trkpt>
      <trkpt lat="47.33688" lon="-0.22854">
        <ele>44</ele>
        <time>2024-10-16T14:01:12Z</time>
      </trkpt>
      <trkpt lat="47.33699" lon="-0.22874">
        <ele>44</ele>
        <time>2024-10-16T14:01:16Z</time>
      </trkpt>
      <trkpt lat="47.33707" lon="-0.22912">
        <ele>45</ele>
        <time>2024-10-16T14:01:22Z</time>
      </trkpt>
      <trkpt lat="47.33712" lon="-0.22924">
        <ele>45</ele>
        <time>2024-10-16T14:01:25Z</time>
      </trkpt>
      <trkpt lat="47.33719" lon="-0.22932">
        <ele>44</ele>
        <time>2024-10-16T14:01:27Z</time>
      </trkpt>
      <trkpt lat="47.33739" lon="-0.22938">
        <ele>43</ele>
        <time>2024-10-16T14:01:32Z</time>
      </trkpt>
      <trkpt lat="47.33759" lon="-0.22916">
        <ele>42</ele>
        <time>2024-10-16T14:01:37Z</time>
      </trkpt>
      <trkpt lat="47.33762" lon="-0.22909">
        <ele>42</ele>
        <time>2024-10-16T14:01:39Z</time>
      </trkpt>
      <trkpt lat="47.33751" lon="-0.22835">
        <ele>41</ele>
        <time>2024-10-16T14:01:51Z</time>
      </trkpt>
      <trkpt lat="47.33748" lon="-0.22778">
        <ele>40</ele>
        <time>2024-10-16T14:02:00Z</time>
      </trkpt>
      <trkpt lat="47.33751" lon="-0.22771">
        <ele>39</ele>
        <time>2024-10-16T14:02:01Z</time>
      </trkpt>
      <trkpt lat="47.33761" lon="-0.22764">
        <ele>39</ele>
        <time>2024-10-16T14:02:04Z</time>
      </trkpt>
      <trkpt lat="47.33844" lon="-0.2276">
        <ele>35</ele>
        <time>2024-10-16T14:02:23Z</time>
      </trkpt>
      <trkpt lat="47.33848" lon="-0.22757">
        <ele>34</ele>
        <time>2024-10-16T14:02:24Z</time>
      </trkpt>
      <trkpt lat="47.33851" lon="-0.22747">
        <ele>34</ele>
        <time>2024-10-16T14:02:26Z</time>
      </trkpt>
      <trkpt lat="47.33853" lon="-0.22712">
        <ele>34</ele>
        <time>2024-10-16T14:02:31Z</time>
      </trkpt>
      <trkpt lat="47.33853" lon="-0.22638">
        <ele>33</ele>
        <time>2024-10-16T14:02:43Z</time>
      </trkpt>
      <trkpt lat="47.33858" lon="-0.22617">
        <ele>33</ele>
        <time>2024-10-16T14:02:47Z</time>
      </trkpt>
      <trkpt lat="47.33863" lon="-0.2261">
        <ele>32</ele>
        <time>2024-10-16T14:02:48Z</time>
      </trkpt>
      <trkpt lat="47.33871" lon="-0.22607">
        <ele>32</ele>
        <time>2024-10-16T14:02:50Z</time>
      </trkpt>
      <trkpt lat="47.33886" lon="-0.22606">
        <ele>31</ele>
        <time>2024-10-16T14:02:54Z</time>
      </trkpt>
      <trkpt lat="47.3397" lon="-0.22609">
        <ele>28</ele>
        <time>2024-10-16T14:03:13Z</time>
      </trkpt>
      <trkpt lat="47.33979" lon="-0.22605">
        <ele>27</ele>
        <time>2024-10-16T14:03:15Z</time>
      </trkpt>
      <trkpt lat="47.3399" lon="-0.22592">
        <ele>27</ele>
        <time>2024-10-16T14:03:19Z</time>
      </trkpt>
      <trkpt lat="47.34023" lon="-0.22587">
        <ele>26</ele>
        <time>2024-10-16T14:03:26Z</time>
      </trkpt>
      <trkpt lat="47.34051" lon="-0.22589">
        <ele>27</ele>
        <time>2024-10-16T14:03:33Z</time>
      </trkpt>
      <trkpt lat="47.34065" lon="-0.22594">
        <ele>27</ele>
        <time>2024-10-16T14:03:36Z</time>
      </trkpt>
      <trkpt lat="47.34068" lon="-0.22599">
        <ele>27</ele>
        <time>2024-10-16T14:03:37Z</time>
      </trkpt>
      <trkpt lat="47.34094" lon="-0.22666">
        <ele>29</ele>
        <time>2024-10-16T14:03:50Z</time>
      </trkpt>
      <trkpt lat="47.34118" lon="-0.22738">
        <ele>29</ele>
        <time>2024-10-16T14:04:02Z</time>
      </trkpt>
      <trkpt lat="47.34138" lon="-0.22785">
        <ele>28</ele>
        <time>2024-10-16T14:04:11Z</time>
      </trkpt>
      <trkpt lat="47.34164" lon="-0.22872">
        <ele>25</ele>
        <time>2024-10-16T14:04:26Z</time>
      </trkpt>
      <trkpt lat="47.34166" lon="-0.22894">
        <ele>25</ele>
        <time>2024-10-16T14:04:30Z</time>
      </trkpt>
      <trkpt lat="47.34197" lon="-0.22954">
        <ele>26</ele>
        <time>2024-10-16T14:04:42Z</time>
      </trkpt>
      <trkpt lat="47.34223" lon="-0.23021">
        <ele>28</ele>
        <time>2024-10-16T14:04:54Z</time>
      </trkpt>
      <trkpt lat="47.34268" lon="-0.23081">
        <ele>27</ele>
        <time>2024-10-16T14:05:08Z</time>
      </trkpt>
      <trkpt lat="47.343" lon="-0.2311">
        <ele>29</ele>
        <time>2024-10-16T14:05:17Z</time>
      </trkpt>
      <trkpt lat="47.34338" lon="-0.23152">
        <ele>31</ele>
        <time>2024-10-16T14:05:28Z</time>
      </trkpt>
      <trkpt lat="47.3437" lon="-0.23193">
        <ele>32</ele>
        <time>2024-10-16T14:05:38Z</time>
      </trkpt>
      <trkpt lat="47.34431" lon="-0.23319">
        <ele>25.6</ele>
        <time>2024-10-16T11:38:19Z</time>
      </trkpt>
      <trkpt lat="47.34431" lon="-0.23319">
        <ele>25.6</ele>
        <time>2024-10-16T11:38:19Z</time>
      </trkpt>
      <trkpt lat="47.34449" lon="-0.23378">
        <ele>32</ele>
        <time>2024-10-16T11:38:29Z</time>
      </trkpt>
      <trkpt lat="47.34478" lon="-0.23442">
        <ele>32</ele>
        <time>2024-10-16T11:38:41Z</time>
      </trkpt>
      <trkpt lat="47.34547" lon="-0.23612">
        <ele>30</ele>
        <time>2024-10-16T11:39:13Z</time>
      </trkpt>
      <trkpt lat="47.34566" lon="-0.2365">
        <ele>29</ele>
        <time>2024-10-16T11:39:20Z</time>
      </trkpt>
      <trkpt lat="47.34605" lon="-0.23716">
        <ele>25</ele>
        <time>2024-10-16T11:39:34Z</time>
      </trkpt>
      <trkpt lat="47.34623" lon="-0.23755">
        <ele>24</ele>
        <time>2024-10-16T11:39:42Z</time>
      </trkpt>
      <trkpt lat="47.34716" lon="-0.23977">
        <ele>27</ele>
        <time>2024-10-16T11:40:23Z</time>
      </trkpt>
      <trkpt lat="47.34748" lon="-0.24068">
        <ele>28</ele>
        <time>2024-10-16T11:40:39Z</time>
      </trkpt>
      <trkpt lat="47.34785" lon="-0.24142">
        <ele>35</ele>
        <time>2024-10-16T11:40:54Z</time>
      </trkpt>
      <trkpt lat="47.34822" lon="-0.24208">
        <ele>35</ele>
        <time>2024-10-16T11:41:07Z</time>
      </trkpt>
      <trkpt lat="47.34872" lon="-0.24276">
        <ele>36</ele>
        <time>2024-10-16T11:41:23Z</time>
      </trkpt>
      <trkpt lat="47.34903" lon="-0.24314">
        <ele>34</ele>
        <time>2024-10-16T11:41:33Z</time>
      </trkpt>
      <trkpt lat="47.34914" lon="-0.24324">
        <ele>33</ele>
        <time>2024-10-16T11:41:36Z</time>
      </trkpt>
      <trkpt lat="47.34958" lon="-0.24377">
        <ele>36</ele>
        <time>2024-10-16T11:41:49Z</time>
      </trkpt>
      <trkpt lat="47.34976" lon="-0.24394">
        <ele>35</ele>
        <time>2024-10-16T11:41:54Z</time>
      </trkpt>
      <trkpt lat="47.35015" lon="-0.2444">
        <ele>35</ele>
        <time>2024-10-16T11:42:05Z</time>
      </trkpt>
      <trkpt lat="47.35035" lon="-0.24471">
        <ele>35</ele>
        <time>2024-10-16T11:42:12Z</time>
      </trkpt>
      <trkpt lat="47.35075" lon="-0.24549">
        <ele>37</ele>
        <time>2024-10-16T11:42:28Z</time>
      </trkpt>
      <trkpt lat="47.35088" lon="-0.24569">
        <ele>37</ele>
        <time>2024-10-16T11:42:32Z</time>
      </trkpt>
      <trkpt lat="47.35096" lon="-0.24587">
        <ele>38</ele>
        <time>2024-10-16T11:42:36Z</time>
      </trkpt>
      <trkpt lat="47.35111" lon="-0.24609">
        <ele>37</ele>
        <time>2024-10-16T11:42:40Z</time>
      </trkpt>
      <trkpt lat="47.35116" lon="-0.24628">
        <ele>37</ele>
        <time>2024-10-16T11:42:44Z</time>
      </trkpt>
      <trkpt lat="47.35136" lon="-0.24669">
        <ele>35</ele>
        <time>2024-10-16T11:42:52Z</time>
      </trkpt>
      <trkpt lat="47.35167" lon="-0.24745">
        <ele>31</ele>
        <time>2024-10-16T11:43:06Z</time>
      </trkpt>
      <trkpt lat="47.35169" lon="-0.24755">
        <ele>31</ele>
        <time>2024-10-16T11:43:07Z</time>
      </trkpt>
      <trkpt lat="47.35166" lon="-0.24767">
        <ele>31</ele>
        <time>2024-10-16T11:43:09Z</time>
      </trkpt>
      <trkpt lat="47.35144" lon="-0.24792">
        <ele>36</ele>
        <time>2024-10-16T11:43:16Z</time>
      </trkpt>
      <trkpt lat="47.35096" lon="-0.24834">
        <ele>42</ele>
        <time>2024-10-16T11:43:29Z</time>
      </trkpt>
      <trkpt lat="47.35085" lon="-0.24834">
        <ele>44</ele>
        <time>2024-10-16T11:43:31Z</time>
      </trkpt>
      <trkpt lat="47.35027" lon="-0.24818">
        <ele>52</ele>
        <time>2024-10-16T11:43:45Z</time>
      </trkpt>
      <trkpt lat="47.35009" lon="-0.24818">
        <ele>55</ele>
        <time>2024-10-16T11:43:49Z</time>
      </trkpt>
      <trkpt lat="47.35007" lon="-0.24816">
        <ele>55</ele>
        <time>2024-10-16T11:43:50Z</time>
      </trkpt>
      <trkpt lat="47.35002" lon="-0.24824">
        <ele>55</ele>
        <time>2024-10-16T11:43:52Z</time>
      </trkpt>
      <trkpt lat="47.35002" lon="-0.24835">
        <ele>54</ele>
        <time>2024-10-16T11:43:53Z</time>
      </trkpt>
      <trkpt lat="47.35008" lon="-0.24873">
        <ele>52</ele>
        <time>2024-10-16T11:44:00Z</time>
      </trkpt>
      <trkpt lat="47.35014" lon="-0.24895">
        <ele>51</ele>
        <time>2024-10-16T11:44:03Z</time>
      </trkpt>
      <trkpt lat="47.35045" lon="-0.24943">
        <ele>50</ele>
        <time>2024-10-16T11:44:14Z</time>
      </trkpt>
      <trkpt lat="47.35057" lon="-0.24999">
        <ele>56</ele>
        <time>2024-10-16T11:44:23Z</time>
      </trkpt>
      <trkpt lat="47.35072" lon="-0.25043">
        <ele>57</ele>
        <time>2024-10-16T11:44:31Z</time>
      </trkpt>
      <trkpt lat="47.35091" lon="-0.25068">
        <ele>57</ele>
        <time>2024-10-16T11:44:37Z</time>
      </trkpt>
      <trkpt lat="47.35103" lon="-0.25076">
        <ele>57</ele>
        <time>2024-10-16T11:44:40Z</time>
      </trkpt>
      <trkpt lat="47.35116" lon="-0.2508">
        <ele>57</ele>
        <time>2024-10-16T11:44:43Z</time>
      </trkpt>
      <trkpt lat="47.35127" lon="-0.25088">
        <ele>57</ele>
        <time>2024-10-16T11:44:46Z</time>
      </trkpt>
      <trkpt lat="47.35134" lon="-0.25101">
        <ele>57</ele>
        <time>2024-10-16T11:44:49Z</time>
      </trkpt>
      <trkpt lat="47.35149" lon="-0.25148">
        <ele>59</ele>
        <time>2024-10-16T11:44:57Z</time>
      </trkpt>
      <trkpt lat="47.35148" lon="-0.25155">
        <ele>60</ele>
        <time>2024-10-16T11:44:58Z</time>
      </trkpt>
      <trkpt lat="47.35141" lon="-0.25165">
        <ele>60</ele>
        <time>2024-10-16T11:45:00Z</time>
      </trkpt>
      <trkpt lat="47.35141" lon="-0.25176">
        <ele>60</ele>
        <time>2024-10-16T11:45:02Z</time>
      </trkpt>
      <trkpt lat="47.35161" lon="-0.25233">
        <ele>62</ele>
        <time>2024-10-16T11:45:12Z</time>
      </trkpt>
      <trkpt lat="47.35282" lon="-0.25489">
        <ele>57</ele>
        <time>2024-10-16T11:46:01Z</time>
      </trkpt>
      <trkpt lat="47.3532" lon="-0.25559">
        <ele>57</ele>
        <time>2024-10-16T11:46:16Z</time>
      </trkpt>
      <trkpt lat="47.35319" lon="-0.25574">
        <ele>58</ele>
        <time>2024-10-16T11:46:18Z</time>
      </trkpt>
      <trkpt lat="47.35296" lon="-0.25593">
        <ele>59</ele>
        <time>2024-10-16T11:46:24Z</time>
      </trkpt>
      <trkpt lat="47.35265" lon="-0.25669">
        <ele>63</ele>
        <time>2024-10-16T11:46:38Z</time>
      </trkpt>
      <trkpt lat="47.35217" lon="-0.25739">
        <ele>68</ele>
        <time>2024-10-16T11:46:54Z</time>
      </trkpt>
      <trkpt lat="47.35216" lon="-0.25757">
        <ele>67</ele>
        <time>2024-10-16T11:46:57Z</time>
      </trkpt>
      <trkpt lat="47.35224" lon="-0.25795">
        <ele>65</ele>
        <time>2024-10-16T11:47:03Z</time>
      </trkpt>
      <trkpt lat="47.35222" lon="-0.2581">
        <ele>64</ele>
        <time>2024-10-16T11:47:06Z</time>
      </trkpt>
      <trkpt lat="47.35203" lon="-0.25866">
        <ele>62</ele>
        <time>2024-10-16T11:47:15Z</time>
      </trkpt>
      <trkpt lat="47.35197" lon="-0.2592">
        <ele>60</ele>
        <time>2024-10-16T11:47:24Z</time>
      </trkpt>
      <trkpt lat="47.35198" lon="-0.25981">
        <ele>61</ele>
        <time>2024-10-16T11:47:34Z</time>
      </trkpt>
      <trkpt lat="47.35201" lon="-0.26006">
        <ele>62</ele>
        <time>2024-10-16T11:47:38Z</time>
      </trkpt>
      <trkpt lat="47.35207" lon="-0.26026">
        <ele>63</ele>
        <time>2024-10-16T11:47:41Z</time>
      </trkpt>
      <trkpt lat="47.35207" lon="-0.2604">
        <ele>64</ele>
        <time>2024-10-16T11:47:44Z</time>
      </trkpt>
      <trkpt lat="47.35205" lon="-0.26053">
        <ele>65</ele>
        <time>2024-10-16T11:47:46Z</time>
      </trkpt>
      <trkpt lat="47.35191" lon="-0.26084">
        <ele>69</ele>
        <time>2024-10-16T11:47:52Z</time>
      </trkpt>
      <trkpt lat="47.35186" lon="-0.26105">
        <ele>70</ele>
        <time>2024-10-16T11:47:55Z</time>
      </trkpt>
      <trkpt lat="47.35188" lon="-0.26145">
        <ele>70</ele>
        <time>2024-10-16T11:48:01Z</time>
      </trkpt>
      <trkpt lat="47.35198" lon="-0.26198">
        <ele>72</ele>
        <time>2024-10-16T11:48:10Z</time>
      </trkpt>
      <trkpt lat="47.35217" lon="-0.26264">
        <ele>72</ele>
        <time>2024-10-16T11:48:21Z</time>
      </trkpt>
      <trkpt lat="47.35233" lon="-0.26346">
        <ele>70</ele>
        <time>2024-10-16T11:48:35Z</time>
      </trkpt>
      <trkpt lat="47.35255" lon="-0.26403">
        <ele>68</ele>
        <time>2024-10-16T11:48:45Z</time>
      </trkpt>
      <trkpt lat="47.35289" lon="-0.26472">
        <ele>70</ele>
        <time>2024-10-16T11:48:59Z</time>
      </trkpt>
      <trkpt lat="47.35297" lon="-0.26498">
        <ele>71</ele>
        <time>2024-10-16T11:49:03Z</time>
      </trkpt>
      <trkpt lat="47.353" lon="-0.2652">
        <ele>72</ele>
        <time>2024-10-16T11:49:07Z</time>
      </trkpt>
      <trkpt lat="47.35292" lon="-0.26615">
        <ele>73</ele>
        <time>2024-10-16T11:49:22Z</time>
      </trkpt>
      <trkpt lat="47.35293" lon="-0.26629">
        <ele>74</ele>
        <time>2024-10-16T11:49:24Z</time>
      </trkpt>
      <trkpt lat="47.35296" lon="-0.26635">
        <ele>74</ele>
        <time>2024-10-16T11:49:25Z</time>
      </trkpt>
      <trkpt lat="47.35308" lon="-0.26622">
        <ele>74</ele>
        <time>2024-10-16T11:49:29Z</time>
      </trkpt>
      <trkpt lat="47.3532" lon="-0.26602">
        <ele>74</ele>
        <time>2024-10-16T11:49:33Z</time>
      </trkpt>
      <trkpt lat="47.35322" lon="-0.2661">
        <ele>75</ele>
        <time>2024-10-16T11:49:34Z</time>
      </trkpt>
      <trkpt lat="47.35326" lon="-0.26602">
        <ele>75</ele>
        <time>2024-10-16T11:49:36Z</time>
      </trkpt>
      <trkpt lat="47.35365" lon="-0.26571">
        <ele>74</ele>
        <time>2024-10-16T11:49:46Z</time>
      </trkpt>
      <trkpt lat="47.35409" lon="-0.26528">
        <ele>73</ele>
        <time>2024-10-16T11:49:59Z</time>
      </trkpt>
      <trkpt lat="47.35426" lon="-0.26504">
        <ele>71</ele>
        <time>2024-10-16T11:50:04Z</time>
      </trkpt>
      <trkpt lat="47.35455" lon="-0.26482">
        <ele>66</ele>
        <time>2024-10-16T11:50:12Z</time>
      </trkpt>
      <trkpt lat="47.3547" lon="-0.26458">
        <ele>62</ele>
        <time>2024-10-16T11:50:17Z</time>
      </trkpt>
      <trkpt lat="47.35493" lon="-0.26413">
        <ele>58</ele>
        <time>2024-10-16T11:50:26Z</time>
      </trkpt>
      <trkpt lat="47.3553" lon="-0.26369">
        <ele>53</ele>
        <time>2024-10-16T11:50:37Z</time>
      </trkpt>
      <trkpt lat="47.35532" lon="-0.26358">
        <ele>52</ele>
        <time>2024-10-16T11:50:39Z</time>
      </trkpt>
      <trkpt lat="47.35573" lon="-0.26268">
        <ele>47</ele>
        <time>2024-10-16T11:50:56Z</time>
      </trkpt>
      <trkpt lat="47.3565" lon="-0.2612">
        <ele>39</ele>
        <time>2024-10-16T11:51:25Z</time>
      </trkpt>
      <trkpt lat="47.35728" lon="-0.26008">
        <ele>35</ele>
        <time>2024-10-16T11:51:51Z</time>
      </trkpt>
      <trkpt lat="47.35742" lon="-0.25986">
        <ele>34</ele>
        <time>2024-10-16T11:51:56Z</time>
      </trkpt>
      <trkpt lat="47.35764" lon="-0.25941">
        <ele>31</ele>
        <time>2024-10-16T11:52:04Z</time>
      </trkpt>
      <trkpt lat="47.35778" lon="-0.25942">
        <ele>31</ele>
        <time>2024-10-16T11:52:59Z</time>
      </trkpt>
      <trkpt lat="47.35818" lon="-0.26018">
        <ele>34</ele>
        <time>2024-10-16T11:53:14Z</time>
      </trkpt>
      <trkpt lat="47.35828" lon="-0.26042">
        <ele>35</ele>
        <time>2024-10-16T11:53:19Z</time>
      </trkpt>
      <trkpt lat="47.3583" lon="-0.26085">
        <ele>37</ele>
        <time>2024-10-16T11:53:26Z</time>
      </trkpt>
      <trkpt lat="47.35824" lon="-0.2612">
        <ele>40</ele>
        <time>2024-10-16T11:53:31Z</time>
      </trkpt>
      <trkpt lat="47.35817" lon="-0.26139">
        <ele>42</ele>
        <time>2024-10-16T11:53:35Z</time>
      </trkpt>
      <trkpt lat="47.35808" lon="-0.26153">
        <ele>43</ele>
        <time>2024-10-16T11:53:38Z</time>
      </trkpt>
      <trkpt lat="47.35783" lon="-0.26177">
        <ele>45</ele>
        <time>2024-10-16T11:53:45Z</time>
      </trkpt>
      <trkpt lat="47.35763" lon="-0.26189">
        <ele>47</ele>
        <time>2024-10-16T11:53:50Z</time>
      </trkpt>
      <trkpt lat="47.35736" lon="-0.26221">
        <ele>50</ele>
        <time>2024-10-16T11:53:58Z</time>
      </trkpt>
      <trkpt lat="47.35722" lon="-0.26247">
        <ele>52</ele>
        <time>2024-10-16T11:54:03Z</time>
      </trkpt>
      <trkpt lat="47.35715" lon="-0.26276">
        <ele>52</ele>
        <time>2024-10-16T11:54:08Z</time>
      </trkpt>
      <trkpt lat="47.35702" lon="-0.26304">
        <ele>50</ele>
        <time>2024-10-16T11:54:14Z</time>
      </trkpt>
      <trkpt lat="47.35705" lon="-0.26324">
        <ele>51</ele>
        <time>2024-10-16T11:54:17Z</time>
      </trkpt>
      <trkpt lat="47.35717" lon="-0.2634">
        <ele>52</ele>
        <time>2024-10-16T11:54:21Z</time>
      </trkpt>
      <trkpt lat="47.35742" lon="-0.26366">
        <ele>52</ele>
        <time>2024-10-16T11:54:28Z</time>
      </trkpt>
      <trkpt lat="47.35745" lon="-0.26378">
        <ele>52</ele>
        <time>2024-10-16T11:54:30Z</time>
      </trkpt>
      <trkpt lat="47.35742" lon="-0.26391">
        <ele>52</ele>
        <time>2024-10-16T11:54:32Z</time>
      </trkpt>
      <trkpt lat="47.35665" lon="-0.26549">
        <ele>55</ele>
        <time>2024-10-16T11:55:03Z</time>
      </trkpt>
      <trkpt lat="47.35653" lon="-0.26579">
        <ele>56</ele>
        <time>2024-10-16T11:55:08Z</time>
      </trkpt>
      <trkpt lat="47.35655" lon="-0.26594">
        <ele>56</ele>
        <time>2024-10-16T11:55:11Z</time>
      </trkpt>
      <trkpt lat="47.35679" lon="-0.26655">
        <ele>58</ele>
        <time>2024-10-16T11:55:22Z</time>
      </trkpt>
      <trkpt lat="47.35688" lon="-0.26698">
        <ele>60</ele>
        <time>2024-10-16T11:55:29Z</time>
      </trkpt>
      <trkpt lat="47.35686" lon="-0.26729">
        <ele>61</ele>
        <time>2024-10-16T11:55:34Z</time>
      </trkpt>
      <trkpt lat="47.35681" lon="-0.26751">
        <ele>62</ele>
        <time>2024-10-16T11:55:37Z</time>
      </trkpt>
      <trkpt lat="47.35659" lon="-0.26797">
        <ele>61</ele>
        <time>2024-10-16T11:55:46Z</time>
      </trkpt>
      <trkpt lat="47.35656" lon="-0.2683">
        <ele>62</ele>
        <time>2024-10-16T11:55:52Z</time>
      </trkpt>
      <trkpt lat="47.35659" lon="-0.26882">
        <ele>62</ele>
        <time>2024-10-16T11:56:00Z</time>
      </trkpt>
      <trkpt lat="47.35653" lon="-0.26918">
        <ele>63</ele>
        <time>2024-10-16T11:56:06Z</time>
      </trkpt>
      <trkpt lat="47.35645" lon="-0.26939">
        <ele>63</ele>
        <time>2024-10-16T11:56:10Z</time>
      </trkpt>
      <trkpt lat="47.35618" lon="-0.26986">
        <ele>64</ele>
        <time>2024-10-16T11:56:19Z</time>
      </trkpt>
      <trkpt lat="47.35617" lon="-0.26997">
        <ele>64</ele>
        <time>2024-10-16T11:56:21Z</time>
      </trkpt>
      <trkpt lat="47.3562" lon="-0.27021">
        <ele>65</ele>
        <time>2024-10-16T11:56:25Z</time>
      </trkpt>
      <trkpt lat="47.35618" lon="-0.27031">
        <ele>65</ele>
        <time>2024-10-16T11:56:27Z</time>
      </trkpt>
      <trkpt lat="47.35592" lon="-0.27058">
        <ele>68</ele>
        <time>2024-10-16T11:56:34Z</time>
      </trkpt>
      <trkpt lat="47.35596" lon="-0.27066">
        <ele>68</ele>
        <time>2024-10-16T11:56:36Z</time>
      </trkpt>
      <trkpt lat="47.35608" lon="-0.27071">
        <ele>67</ele>
        <time>2024-10-16T11:56:39Z</time>
      </trkpt>
      <trkpt lat="47.35619" lon="-0.27083">
        <ele>67</ele>
        <time>2024-10-16T11:56:42Z</time>
      </trkpt>
      <trkpt lat="47.35627" lon="-0.2711">
        <ele>67</ele>
        <time>2024-10-16T11:56:46Z</time>
      </trkpt>
      <trkpt lat="47.35633" lon="-0.27121">
        <ele>66</ele>
        <time>2024-10-16T11:56:49Z</time>
      </trkpt>
      <trkpt lat="47.35643" lon="-0.27224">
        <ele>65</ele>
        <time>2024-10-16T11:57:05Z</time>
      </trkpt>
      <trkpt lat="47.35652" lon="-0.27247">
        <ele>64</ele>
        <time>2024-10-16T11:57:09Z</time>
      </trkpt>
      <trkpt lat="47.35676" lon="-0.27281">
        <ele>61</ele>
        <time>2024-10-16T11:57:17Z</time>
      </trkpt>
      <trkpt lat="47.35678" lon="-0.27292">
        <ele>60</ele>
        <time>2024-10-16T11:57:19Z</time>
      </trkpt>
      <trkpt lat="47.35677" lon="-0.27319">
        <ele>58</ele>
        <time>2024-10-16T11:57:23Z</time>
      </trkpt>
      <trkpt lat="47.35686" lon="-0.27359">
        <ele>53</ele>
        <time>2024-10-16T11:57:30Z</time>
      </trkpt>
      <trkpt lat="47.35696" lon="-0.27384">
        <ele>49</ele>
        <time>2024-10-16T11:57:34Z</time>
      </trkpt>
      <trkpt lat="47.35725" lon="-0.27398">
        <ele>46</ele>
        <time>2024-10-16T11:57:42Z</time>
      </trkpt>
      <trkpt lat="47.35809" lon="-0.27449">
        <ele>43</ele>
        <time>2024-10-16T11:58:03Z</time>
      </trkpt>
      <trkpt lat="47.35847" lon="-0.27459">
        <ele>42</ele>
        <time>2024-10-16T11:58:12Z</time>
      </trkpt>
      <trkpt lat="47.35881" lon="-0.27481">
        <ele>42</ele>
        <time>2024-10-16T11:58:20Z</time>
      </trkpt>
      <trkpt lat="47.35895" lon="-0.27483">
        <ele>42</ele>
        <time>2024-10-16T11:58:24Z</time>
      </trkpt>
      <trkpt lat="47.35901" lon="-0.27481">
        <ele>43</ele>
        <time>2024-10-16T11:58:25Z</time>
      </trkpt>
      <trkpt lat="47.35912" lon="-0.2747">
        <ele>43</ele>
        <time>2024-10-16T11:58:28Z</time>
      </trkpt>
      <trkpt lat="47.3594" lon="-0.27408">
        <ele>43</ele>
        <time>2024-10-16T11:58:40Z</time>
      </trkpt>
      <trkpt lat="47.3595" lon="-0.27393">
        <ele>43</ele>
        <time>2024-10-16T11:58:43Z</time>
      </trkpt>
      <trkpt lat="47.35973" lon="-0.27377">
        <ele>42</ele>
        <time>2024-10-16T11:58:49Z</time>
      </trkpt>
      <trkpt lat="47.35985" lon="-0.27372">
        <ele>42</ele>
        <time>2024-10-16T11:58:52Z</time>
      </trkpt>
      <trkpt lat="47.36014" lon="-0.27377">
        <ele>43</ele>
        <time>2024-10-16T11:58:59Z</time>
      </trkpt>
      <trkpt lat="47.36025" lon="-0.27376">
        <ele>43</ele>
        <time>2024-10-16T11:59:02Z</time>
      </trkpt>
      <trkpt lat="47.36061" lon="-0.27361">
        <ele>43</ele>
        <time>2024-10-16T11:59:10Z</time>
      </trkpt>
      <trkpt lat="47.36093" lon="-0.27355">
        <ele>44</ele>
        <time>2024-10-16T11:59:18Z</time>
      </trkpt>
      <trkpt lat="47.36104" lon="-0.27355">
        <ele>44</ele>
        <time>2024-10-16T11:59:20Z</time>
      </trkpt>
      <trkpt lat="47.36134" lon="-0.27361">
        <ele>44</ele>
        <time>2024-10-16T11:59:27Z</time>
      </trkpt>
      <trkpt lat="47.36137" lon="-0.27367">
        <ele>45</ele>
        <time>2024-10-16T11:59:29Z</time>
      </trkpt>
      <trkpt lat="47.36131" lon="-0.27402">
        <ele>49</ele>
        <time>2024-10-16T11:59:34Z</time>
      </trkpt>
      <trkpt lat="47.36117" lon="-0.2746">
        <ele>57</ele>
        <time>2024-10-16T11:59:44Z</time>
      </trkpt>
      <trkpt lat="47.36132" lon="-0.27506">
        <ele>62</ele>
        <time>2024-10-16T11:59:52Z</time>
      </trkpt>
      <trkpt lat="47.36131" lon="-0.27529">
        <ele>63</ele>
        <time>2024-10-16T11:59:56Z</time>
      </trkpt>
      <trkpt lat="47.36127" lon="-0.27541">
        <ele>63</ele>
        <time>2024-10-16T11:59:58Z</time>
      </trkpt>
      <trkpt lat="47.36127" lon="-0.2755">
        <ele>63</ele>
        <time>2024-10-16T11:59:59Z</time>
      </trkpt>
      <trkpt lat="47.36116" lon="-0.27562">
        <ele>64</ele>
        <time>2024-10-16T12:00:03Z</time>
      </trkpt>
      <trkpt lat="47.36112" lon="-0.27576">
        <ele>64</ele>
        <time>2024-10-16T12:00:05Z</time>
      </trkpt>
      <trkpt lat="47.361" lon="-0.27589">
        <ele>64</ele>
        <time>2024-10-16T12:00:08Z</time>
      </trkpt>
      <trkpt lat="47.36084" lon="-0.27623">
        <ele>64</ele>
        <time>2024-10-16T12:00:15Z</time>
      </trkpt>
      <trkpt lat="47.36069" lon="-0.27647">
        <ele>63</ele>
        <time>2024-10-16T12:00:20Z</time>
      </trkpt>
      <trkpt lat="47.36064" lon="-0.27661">
        <ele>63</ele>
        <time>2024-10-16T12:00:23Z</time>
      </trkpt>
      <trkpt lat="47.36064" lon="-0.27669">
        <ele>63</ele>
        <time>2024-10-16T12:00:24Z</time>
      </trkpt>
      <trkpt lat="47.36068" lon="-0.27675">
        <ele>64</ele>
        <time>2024-10-16T12:00:25Z</time>
      </trkpt>
      <trkpt lat="47.36079" lon="-0.27683">
        <ele>65</ele>
        <time>2024-10-16T12:00:28Z</time>
      </trkpt>
      <trkpt lat="47.36114" lon="-0.27702">
        <ele>66</ele>
        <time>2024-10-16T12:00:37Z</time>
      </trkpt>
      <trkpt lat="47.36165" lon="-0.27735">
        <ele>68</ele>
        <time>2024-10-16T12:00:50Z</time>
      </trkpt>
      <trkpt lat="47.36237" lon="-0.27796">
        <ele>70</ele>
        <time>2024-10-16T12:01:09Z</time>
      </trkpt>
      <trkpt lat="47.36241" lon="-0.27794">
        <ele>70</ele>
        <time>2024-10-16T12:01:10Z</time>
      </trkpt>
      <trkpt lat="47.36242" lon="-0.27777">
        <ele>70</ele>
        <time>2024-10-16T12:01:13Z</time>
      </trkpt>
      <trkpt lat="47.36245" lon="-0.27769">
        <ele>70</ele>
        <time>2024-10-16T12:01:14Z</time>
      </trkpt>
      <trkpt lat="47.36268" lon="-0.27797">
        <ele>70</ele>
        <time>2024-10-16T12:01:21Z</time>
      </trkpt>
      <trkpt lat="47.36278" lon="-0.27803">
        <ele>70</ele>
        <time>2024-10-16T12:01:24Z</time>
      </trkpt>
      <trkpt lat="47.3629" lon="-0.2782">
        <ele>70</ele>
        <time>2024-10-16T12:01:28Z</time>
      </trkpt>
      <trkpt lat="47.36304" lon="-0.2783">
        <ele>71</ele>
        <time>2024-10-16T12:01:31Z</time>
      </trkpt>
      <trkpt lat="47.36315" lon="-0.27845">
        <ele>70</ele>
        <time>2024-10-16T12:01:35Z</time>
      </trkpt>
      <trkpt lat="47.36316" lon="-0.27848">
        <ele>70</ele>
        <time>2024-10-16T12:01:35Z</time>
      </trkpt>
      <trkpt lat="47.3631" lon="-0.27854">
        <ele>71</ele>
        <time>2024-10-16T12:01:37Z</time>
      </trkpt>
      <trkpt lat="47.36308" lon="-0.27867">
        <ele>71</ele>
        <time>2024-10-16T12:01:39Z</time>
      </trkpt>
      <trkpt lat="47.36304" lon="-0.27874">
        <ele>71</ele>
        <time>2024-10-16T12:01:41Z</time>
      </trkpt>
      <trkpt lat="47.36305" lon="-0.27887">
        <ele>71</ele>
        <time>2024-10-16T12:01:43Z</time>
      </trkpt>
      <trkpt lat="47.36327" lon="-0.27946">
        <ele>69</ele>
        <time>2024-10-16T12:01:53Z</time>
      </trkpt>
      <trkpt lat="47.36364" lon="-0.28017">
        <ele>65</ele>
        <time>2024-10-16T12:02:08Z</time>
      </trkpt>
      <trkpt lat="47.36414" lon="-0.28086">
        <ele>64</ele>
        <time>2024-10-16T12:02:24Z</time>
      </trkpt>
      <trkpt lat="47.3644" lon="-0.28139">
        <ele>67</ele>
        <time>2024-10-16T12:02:34Z</time>
      </trkpt>
      <trkpt lat="47.36446" lon="-0.28165">
        <ele>68</ele>
        <time>2024-10-16T12:02:38Z</time>
      </trkpt>
      <trkpt lat="47.36456" lon="-0.28192">
        <ele>69</ele>
        <time>2024-10-16T12:02:43Z</time>
      </trkpt>
      <trkpt lat="47.36461" lon="-0.28203">
        <ele>70</ele>
        <time>2024-10-16T12:02:45Z</time>
      </trkpt>
      <trkpt lat="47.36483" lon="-0.28234">
        <ele>73</ele>
        <time>2024-10-16T12:02:52Z</time>
      </trkpt>
      <trkpt lat="47.3649" lon="-0.28258">
        <ele>73</ele>
        <time>2024-10-16T12:02:56Z</time>
      </trkpt>
      <trkpt lat="47.36494" lon="-0.28264">
        <ele>74</ele>
        <time>2024-10-16T12:02:58Z</time>
      </trkpt>
      <trkpt lat="47.36494" lon="-0.28287">
        <ele>74</ele>
        <time>2024-10-16T12:03:01Z</time>
      </trkpt>
      <trkpt lat="47.36489" lon="-0.2831">
        <ele>74</ele>
        <time>2024-10-16T12:03:05Z</time>
      </trkpt>
      <trkpt lat="47.36489" lon="-0.28334">
        <ele>74</ele>
        <time>2024-10-16T12:03:09Z</time>
      </trkpt>
      <trkpt lat="47.36486" lon="-0.28355">
        <ele>74</ele>
        <time>2024-10-16T12:03:12Z</time>
      </trkpt>
      <trkpt lat="47.36489" lon="-0.28368">
        <ele>74</ele>
        <time>2024-10-16T12:03:15Z</time>
      </trkpt>
      <trkpt lat="47.36485" lon="-0.28392">
        <ele>75</ele>
        <time>2024-10-16T12:03:18Z</time>
      </trkpt>
      <trkpt lat="47.36477" lon="-0.284">
        <ele>75</ele>
        <time>2024-10-16T12:03:21Z</time>
      </trkpt>
      <trkpt lat="47.36474" lon="-0.28415">
        <ele>75</ele>
        <time>2024-10-16T12:03:23Z</time>
      </trkpt>
      <trkpt lat="47.3648" lon="-0.28446">
        <ele>76</ele>
        <time>2024-10-16T12:03:28Z</time>
      </trkpt>
      <trkpt lat="47.36477" lon="-0.28471">
        <ele>76</ele>
        <time>2024-10-16T12:03:32Z</time>
      </trkpt>
      <trkpt lat="47.36488" lon="-0.28523">
        <ele>76</ele>
        <time>2024-10-16T12:03:41Z</time>
      </trkpt>
      <trkpt lat="47.36503" lon="-0.28576">
        <ele>76</ele>
        <time>2024-10-16T12:03:50Z</time>
      </trkpt>
      <trkpt lat="47.36504" lon="-0.28602">
        <ele>76</ele>
        <time>2024-10-16T12:03:54Z</time>
      </trkpt>
      <trkpt lat="47.36512" lon="-0.28613">
        <ele>77</ele>
        <time>2024-10-16T12:03:57Z</time>
      </trkpt>
      <trkpt lat="47.36525" lon="-0.2864">
        <ele>77</ele>
        <time>2024-10-16T12:04:02Z</time>
      </trkpt>
      <trkpt lat="47.36532" lon="-0.28647">
        <ele>78</ele>
        <time>2024-10-16T12:04:04Z</time>
      </trkpt>
      <trkpt lat="47.36532" lon="-0.28667">
        <ele>78</ele>
        <time>2024-10-16T12:04:07Z</time>
      </trkpt>
      <trkpt lat="47.3654" lon="-0.28685">
        <ele>79</ele>
        <time>2024-10-16T12:04:10Z</time>
      </trkpt>
      <trkpt lat="47.36548" lon="-0.28712">
        <ele>79</ele>
        <time>2024-10-16T12:04:15Z</time>
      </trkpt>
      <trkpt lat="47.36551" lon="-0.28755">
        <ele>79</ele>
        <time>2024-10-16T12:04:22Z</time>
      </trkpt>
      <trkpt lat="47.36565" lon="-0.28784">
        <ele>79</ele>
        <time>2024-10-16T12:04:28Z</time>
      </trkpt>
      <trkpt lat="47.36569" lon="-0.28814">
        <ele>78</ele>
        <time>2024-10-16T12:04:32Z</time>
      </trkpt>
      <trkpt lat="47.36584" lon="-0.28806">
        <ele>78</ele>
        <time>2024-10-16T12:04:36Z</time>
      </trkpt>
      <trkpt lat="47.36613" lon="-0.28782">
        <ele>78</ele>
        <time>2024-10-16T12:04:44Z</time>
      </trkpt>
      <trkpt lat="47.36625" lon="-0.28778">
        <ele>78</ele>
        <time>2024-10-16T12:04:47Z</time>
      </trkpt>
      <trkpt lat="47.36651" lon="-0.28764">
        <ele>78</ele>
        <time>2024-10-16T12:04:53Z</time>
      </trkpt>
      <trkpt lat="47.36669" lon="-0.28762">
        <ele>78</ele>
        <time>2024-10-16T12:04:57Z</time>
      </trkpt>
      <trkpt lat="47.36688" lon="-0.28756">
        <ele>78</ele>
        <time>2024-10-16T12:05:02Z</time>
      </trkpt>
      <trkpt lat="47.36721" lon="-0.28752">
        <ele>78</ele>
        <time>2024-10-16T12:05:10Z</time>
      </trkpt>
      <trkpt lat="47.36737" lon="-0.28752">
        <ele>78</ele>
        <time>2024-10-16T12:05:13Z</time>
      </trkpt>
      <trkpt lat="47.36747" lon="-0.28764">
        <ele>78</ele>
        <time>2024-10-16T12:05:17Z</time>
      </trkpt>
      <trkpt lat="47.36752" lon="-0.28792">
        <ele>78</ele>
        <time>2024-10-16T12:05:21Z</time>
      </trkpt>
      <trkpt lat="47.36746" lon="-0.28828">
        <ele>77</ele>
        <time>2024-10-16T12:05:27Z</time>
      </trkpt>
      <trkpt lat="47.36746" lon="-0.28843">
        <ele>77</ele>
        <time>2024-10-16T12:05:29Z</time>
      </trkpt>
      <trkpt lat="47.3674" lon="-0.28864">
        <ele>76</ele>
        <time>2024-10-16T12:05:33Z</time>
      </trkpt>
      <trkpt lat="47.36741" lon="-0.28889">
        <ele>75</ele>
        <time>2024-10-16T12:05:37Z</time>
      </trkpt>
      <trkpt lat="47.36738" lon="-0.28925">
        <ele>73</ele>
        <time>2024-10-16T12:05:43Z</time>
      </trkpt>
      <trkpt lat="47.3675" lon="-0.2906">
        <ele>71</ele>
        <time>2024-10-16T12:06:04Z</time>
      </trkpt>
      <trkpt lat="47.36741" lon="-0.29126">
        <ele>71</ele>
        <time>2024-10-16T12:06:15Z</time>
      </trkpt>
      <trkpt lat="47.36748" lon="-0.29251">
        <ele>68</ele>
        <time>2024-10-16T12:06:35Z</time>
      </trkpt>
      <trkpt lat="47.36745" lon="-0.29277">
        <ele>67</ele>
        <time>2024-10-16T12:06:39Z</time>
      </trkpt>
      <trkpt lat="47.36746" lon="-0.29303">
        <ele>66</ele>
        <time>2024-10-16T12:06:43Z</time>
      </trkpt>
      <trkpt lat="47.36739" lon="-0.29326">
        <ele>66</ele>
        <time>2024-10-16T12:06:47Z</time>
      </trkpt>
      <trkpt lat="47.36715" lon="-0.2936">
        <ele>69</ele>
        <time>2024-10-16T12:06:55Z</time>
      </trkpt>
      <trkpt lat="47.36705" lon="-0.29382">
        <ele>69</ele>
        <time>2024-10-16T12:06:59Z</time>
      </trkpt>
      <trkpt lat="47.3669" lon="-0.29428">
        <ele>68</ele>
        <time>2024-10-16T12:07:07Z</time>
      </trkpt>
      <trkpt lat="47.36679" lon="-0.29487">
        <ele>64</ele>
        <time>2024-10-16T12:07:17Z</time>
      </trkpt>
      <trkpt lat="47.36666" lon="-0.29531">
        <ele>61</ele>
        <time>2024-10-16T12:07:24Z</time>
      </trkpt>
      <trkpt lat="47.36664" lon="-0.29567">
        <ele>59</ele>
        <time>2024-10-16T12:07:30Z</time>
      </trkpt>
      <trkpt lat="47.36659" lon="-0.29578">
        <ele>59</ele>
        <time>2024-10-16T12:07:32Z</time>
      </trkpt>
      <trkpt lat="47.36645" lon="-0.29597">
        <ele>59</ele>
        <time>2024-10-16T12:07:36Z</time>
      </trkpt>
      <trkpt lat="47.3662" lon="-0.29616">
        <ele>60</ele>
        <time>2024-10-16T12:07:43Z</time>
      </trkpt>
      <trkpt lat="47.36588" lon="-0.29651">
        <ele>60</ele>
        <time>2024-10-16T12:07:52Z</time>
      </trkpt>
      <trkpt lat="47.36552" lon="-0.29658">
        <ele>59</ele>
        <time>2024-10-16T12:08:01Z</time>
      </trkpt>
      <trkpt lat="47.36523" lon="-0.29667">
        <ele>58</ele>
        <time>2024-10-16T12:08:08Z</time>
      </trkpt>
      <trkpt lat="47.36517" lon="-0.29665">
        <ele>58</ele>
        <time>2024-10-16T12:08:09Z</time>
      </trkpt>
      <trkpt lat="47.3648" lon="-0.29633">
        <ele>60</ele>
        <time>2024-10-16T12:08:19Z</time>
      </trkpt>
      <trkpt lat="47.36471" lon="-0.29621">
        <ele>60</ele>
        <time>2024-10-16T12:08:22Z</time>
      </trkpt>
      <trkpt lat="47.36451" lon="-0.29539">
        <ele>63</ele>
        <time>2024-10-16T12:08:36Z</time>
      </trkpt>
      <trkpt lat="47.3645" lon="-0.29523">
        <ele>64</ele>
        <time>2024-10-16T12:08:38Z</time>
      </trkpt>
      <trkpt lat="47.36461" lon="-0.29472">
        <ele>64</ele>
        <time>2024-10-16T12:08:47Z</time>
      </trkpt>
      <trkpt lat="47.36469" lon="-0.29452">
        <ele>64</ele>
        <time>2024-10-16T12:08:50Z</time>
      </trkpt>
      <trkpt lat="47.36494" lon="-0.2941">
        <ele>65</ele>
        <time>2024-10-16T12:08:59Z</time>
      </trkpt>
      <trkpt lat="47.36503" lon="-0.29387">
        <ele>67</ele>
        <time>2024-10-16T12:09:04Z</time>
      </trkpt>
      <trkpt lat="47.36525" lon="-0.293">
        <ele>75</ele>
        <time>2024-10-16T12:09:18Z</time>
      </trkpt>
      <trkpt lat="47.36531" lon="-0.29254">
        <ele>78</ele>
        <time>2024-10-16T12:09:26Z</time>
      </trkpt>
      <trkpt lat="47.36548" lon="-0.29195">
        <ele>79</ele>
        <time>2024-10-16T12:09:36Z</time>
      </trkpt>
      <trkpt lat="47.36567" lon="-0.29164">
        <ele>79</ele>
        <time>2024-10-16T12:09:42Z</time>
      </trkpt>
      <trkpt lat="47.3659" lon="-0.29063">
        <ele>79</ele>
        <time>2024-10-16T12:09:59Z</time>
      </trkpt>
      <trkpt lat="47.36592" lon="-0.29036">
        <ele>78</ele>
        <time>2024-10-16T12:10:04Z</time>
      </trkpt>
      <trkpt lat="47.366" lon="-0.28989">
        <ele>78</ele>
        <time>2024-10-16T12:10:11Z</time>
      </trkpt>
      <trkpt lat="47.36596" lon="-0.28961">
        <ele>77</ele>
        <time>2024-10-16T12:10:16Z</time>
      </trkpt>
      <trkpt lat="47.36585" lon="-0.28934">
        <ele>76</ele>
        <time>2024-10-16T12:10:21Z</time>
      </trkpt>
      <trkpt lat="47.36583" lon="-0.28917">
        <ele>76</ele>
        <time>2024-10-16T12:10:23Z</time>
      </trkpt>
      <trkpt lat="47.36584" lon="-0.28897">
        <ele>76</ele>
        <time>2024-10-16T12:10:27Z</time>
      </trkpt>
      <trkpt lat="47.36575" lon="-0.28859">
        <ele>77</ele>
        <time>2024-10-16T12:10:33Z</time>
      </trkpt>
      <trkpt lat="47.36566" lon="-0.28846">
        <ele>77</ele>
        <time>2024-10-16T12:10:36Z</time>
      </trkpt>
      <trkpt lat="47.3655" lon="-0.28839">
        <ele>77</ele>
        <time>2024-10-16T12:10:40Z</time>
      </trkpt>
      <trkpt lat="47.3651" lon="-0.28835">
        <ele>77</ele>
        <time>2024-10-16T12:10:49Z</time>
      </trkpt>
      <trkpt lat="47.36423" lon="-0.28811">
        <ele>75</ele>
        <time>2024-10-16T12:11:10Z</time>
      </trkpt>
      <trkpt lat="47.36409" lon="-0.28809">
        <ele>75</ele>
        <time>2024-10-16T12:11:13Z</time>
      </trkpt>
      <trkpt lat="47.3638" lon="-0.28812">
        <ele>74</ele>
        <time>2024-10-16T12:11:20Z</time>
      </trkpt>
      <trkpt lat="47.36351" lon="-0.28823">
        <ele>74</ele>
        <time>2024-10-16T12:11:27Z</time>
      </trkpt>
      <trkpt lat="47.36336" lon="-0.28826">
        <ele>74</ele>
        <time>2024-10-16T12:11:30Z</time>
      </trkpt>
      <trkpt lat="47.36316" lon="-0.28838">
        <ele>74</ele>
        <time>2024-10-16T12:11:36Z</time>
      </trkpt>
      <trkpt lat="47.36299" lon="-0.28844">
        <ele>75</ele>
        <time>2024-10-16T12:11:40Z</time>
      </trkpt>
      <trkpt lat="47.36262" lon="-0.28844">
        <ele>75</ele>
        <time>2024-10-16T12:11:48Z</time>
      </trkpt>
      <trkpt lat="47.3623" lon="-0.28835">
        <ele>75</ele>
        <time>2024-10-16T12:11:56Z</time>
      </trkpt>
      <trkpt lat="47.3621" lon="-0.28832">
        <ele>74</ele>
        <time>2024-10-16T12:12:01Z</time>
      </trkpt>
      <trkpt lat="47.36186" lon="-0.28835">
        <ele>74</ele>
        <time>2024-10-16T12:12:06Z</time>
      </trkpt>
      <trkpt lat="47.36145" lon="-0.28858">
        <ele>73</ele>
        <time>2024-10-16T12:12:16Z</time>
      </trkpt>
      <trkpt lat="47.36123" lon="-0.2888">
        <ele>73</ele>
        <time>2024-10-16T12:12:23Z</time>
      </trkpt>
      <trkpt lat="47.36051" lon="-0.2891">
        <ele>70</ele>
        <time>2024-10-16T12:12:40Z</time>
      </trkpt>
      <trkpt lat="47.36012" lon="-0.28914">
        <ele>67</ele>
        <time>2024-10-16T12:12:49Z</time>
      </trkpt>
      <trkpt lat="47.35927" lon="-0.28935">
        <ele>61</ele>
        <time>2024-10-16T12:13:09Z</time>
      </trkpt>
      <trkpt lat="47.35921" lon="-0.28939">
        <ele>60</ele>
        <time>2024-10-16T12:13:11Z</time>
      </trkpt>
      <trkpt lat="47.35912" lon="-0.28951">
        <ele>59</ele>
        <time>2024-10-16T12:13:14Z</time>
      </trkpt>
      <trkpt lat="47.35878" lon="-0.29014">
        <ele>57</ele>
        <time>2024-10-16T12:13:26Z</time>
      </trkpt>
      <trkpt lat="47.3587" lon="-0.29019">
        <ele>57</ele>
        <time>2024-10-16T12:13:28Z</time>
      </trkpt>
      <trkpt lat="47.35865" lon="-0.29018">
        <ele>57</ele>
        <time>2024-10-16T12:13:30Z</time>
      </trkpt>
      <trkpt lat="47.35861" lon="-0.29014">
        <ele>57</ele>
        <time>2024-10-16T12:13:31Z</time>
      </trkpt>
      <trkpt lat="47.35818" lon="-0.28946">
        <ele>56</ele>
        <time>2024-10-16T12:13:45Z</time>
      </trkpt>
      <trkpt lat="47.35806" lon="-0.28937">
        <ele>56</ele>
        <time>2024-10-16T12:13:49Z</time>
      </trkpt>
      <trkpt lat="47.35793" lon="-0.28932">
        <ele>56</ele>
        <time>2024-10-16T12:13:52Z</time>
      </trkpt>
      <trkpt lat="47.35756" lon="-0.28928">
        <ele>56</ele>
        <time>2024-10-16T12:14:00Z</time>
      </trkpt>
      <trkpt lat="47.35733" lon="-0.28928">
        <ele>56</ele>
        <time>2024-10-16T12:14:06Z</time>
      </trkpt>
      <trkpt lat="47.35626" lon="-0.28935">
        <ele>59</ele>
        <time>2024-10-16T12:14:31Z</time>
      </trkpt>
      <trkpt lat="47.35509" lon="-0.28929">
        <ele>70</ele>
        <time>2024-10-16T12:14:58Z</time>
      </trkpt>
      <trkpt lat="47.35455" lon="-0.28918">
        <ele>75</ele>
        <time>2024-10-16T12:15:11Z</time>
      </trkpt>
      <trkpt lat="47.35417" lon="-0.28897">
        <ele>77</ele>
        <time>2024-10-16T12:15:20Z</time>
      </trkpt>
      <trkpt lat="47.35398" lon="-0.28894">
        <ele>78</ele>
        <time>2024-10-16T12:15:25Z</time>
      </trkpt>
      <trkpt lat="47.35388" lon="-0.28883">
        <ele>78</ele>
        <time>2024-10-16T12:15:28Z</time>
      </trkpt>
      <trkpt lat="47.35373" lon="-0.28874">
        <ele>79</ele>
        <time>2024-10-16T12:15:32Z</time>
      </trkpt>
      <trkpt lat="47.3535" lon="-0.28894">
        <ele>81</ele>
        <time>2024-10-16T12:15:38Z</time>
      </trkpt>
      <trkpt lat="47.3534" lon="-0.28896">
        <ele>82</ele>
        <time>2024-10-16T12:15:40Z</time>
      </trkpt>
      <trkpt lat="47.3531" lon="-0.28887">
        <ele>81</ele>
        <time>2024-10-16T12:15:47Z</time>
      </trkpt>
      <trkpt lat="47.3529" lon="-0.28872">
        <ele>80</ele>
        <time>2024-10-16T12:15:52Z</time>
      </trkpt>
      <trkpt lat="47.35257" lon="-0.28868">
        <ele>80</ele>
        <time>2024-10-16T12:16:00Z</time>
      </trkpt>
      <trkpt lat="47.35191" lon="-0.28869">
        <ele>78</ele>
        <time>2024-10-16T12:16:16Z</time>
      </trkpt>
      <trkpt lat="47.35142" lon="-0.28878">
        <ele>75</ele>
        <time>2024-10-16T12:16:27Z</time>
      </trkpt>
      <trkpt lat="47.35107" lon="-0.28876">
        <ele>73</ele>
        <time>2024-10-16T12:16:35Z</time>
      </trkpt>
      <trkpt lat="47.35082" lon="-0.2887">
        <ele>71</ele>
        <time>2024-10-16T12:16:41Z</time>
      </trkpt>
      <trkpt lat="47.35045" lon="-0.28852">
        <ele>70</ele>
        <time>2024-10-16T12:16:50Z</time>
      </trkpt>
      <trkpt lat="47.35038" lon="-0.28851">
        <ele>70</ele>
        <time>2024-10-16T12:16:52Z</time>
      </trkpt>
      <trkpt lat="47.34993" lon="-0.28864">
        <ele>69</ele>
        <time>2024-10-16T12:17:03Z</time>
      </trkpt>
      <trkpt lat="47.34887" lon="-0.28888">
        <ele>72</ele>
        <time>2024-10-16T12:17:28Z</time>
      </trkpt>
      <trkpt lat="47.34842" lon="-0.28896">
        <ele>75</ele>
        <time>2024-10-16T12:17:38Z</time>
      </trkpt>
      <trkpt lat="47.3479" lon="-0.289">
        <ele>78</ele>
        <time>2024-10-16T12:17:51Z</time>
      </trkpt>
      <trkpt lat="47.3475" lon="-0.289">
        <ele>79</ele>
        <time>2024-10-16T12:18:00Z</time>
      </trkpt>
      <trkpt lat="47.34726" lon="-0.28895">
        <ele>80</ele>
        <time>2024-10-16T12:18:06Z</time>
      </trkpt>
      <trkpt lat="47.34705" lon="-0.28887">
        <ele>80</ele>
        <time>2024-10-16T12:18:11Z</time>
      </trkpt>
      <trkpt lat="47.34699" lon="-0.28882">
        <ele>80</ele>
        <time>2024-10-16T12:18:12Z</time>
      </trkpt>
      <trkpt lat="47.34694" lon="-0.28874">
        <ele>80</ele>
        <time>2024-10-16T12:18:14Z</time>
      </trkpt>
      <trkpt lat="47.34681" lon="-0.28811">
        <ele>80</ele>
        <time>2024-10-16T12:18:24Z</time>
      </trkpt>
      <trkpt lat="47.34657" lon="-0.28718">
        <ele>78</ele>
        <time>2024-10-16T12:18:40Z</time>
      </trkpt>
      <trkpt lat="47.34653" lon="-0.28698">
        <ele>77</ele>
        <time>2024-10-16T12:18:43Z</time>
      </trkpt>
      <trkpt lat="47.34654" lon="-0.28688">
        <ele>77</ele>
        <time>2024-10-16T12:18:45Z</time>
      </trkpt>
      <trkpt lat="47.34664" lon="-0.28672">
        <ele>76</ele>
        <time>2024-10-16T12:18:48Z</time>
      </trkpt>
      <trkpt lat="47.34743" lon="-0.28604">
        <ele>73</ele>
        <time>2024-10-16T12:19:10Z</time>
      </trkpt>
      <trkpt lat="47.34749" lon="-0.28596">
        <ele>73</ele>
        <time>2024-10-16T12:19:12Z</time>
      </trkpt>
      <trkpt lat="47.34751" lon="-0.28577">
        <ele>72</ele>
        <time>2024-10-16T12:19:15Z</time>
      </trkpt>
      <trkpt lat="47.34716" lon="-0.28482">
        <ele>70</ele>
        <time>2024-10-16T12:19:32Z</time>
      </trkpt>
      <trkpt lat="47.34717" lon="-0.28468">
        <ele>70</ele>
        <time>2024-10-16T12:19:34Z</time>
      </trkpt>
      <trkpt lat="47.34729" lon="-0.28448">
        <ele>70</ele>
        <time>2024-10-16T12:19:38Z</time>
      </trkpt>
      <trkpt lat="47.34763" lon="-0.28402">
        <ele>68</ele>
        <time>2024-10-16T12:19:49Z</time>
      </trkpt>
      <trkpt lat="47.3482" lon="-0.28304">
        <ele>64</ele>
        <time>2024-10-16T12:20:09Z</time>
      </trkpt>
      <trkpt lat="47.34824" lon="-0.28287">
        <ele>63</ele>
        <time>2024-10-16T12:20:12Z</time>
      </trkpt>
      <trkpt lat="47.34821" lon="-0.28284">
        <ele>64</ele>
        <time>2024-10-16T12:20:13Z</time>
      </trkpt>
      <trkpt lat="47.34799" lon="-0.28279">
        <ele>66</ele>
        <time>2024-10-16T12:20:18Z</time>
      </trkpt>
      <trkpt lat="47.34698" lon="-0.28262">
        <ele>75</ele>
        <time>2024-10-16T12:20:42Z</time>
      </trkpt>
      <trkpt lat="47.34655" lon="-0.28252">
        <ele>78</ele>
        <time>2024-10-16T12:20:52Z</time>
      </trkpt>
      <trkpt lat="47.34646" lon="-0.28249">
        <ele>78</ele>
        <time>2024-10-16T12:20:54Z</time>
      </trkpt>
      <trkpt lat="47.34641" lon="-0.2824">
        <ele>78</ele>
        <time>2024-10-16T12:20:56Z</time>
      </trkpt>
      <trkpt lat="47.34631" lon="-0.28149">
        <ele>79</ele>
        <time>2024-10-16T12:21:11Z</time>
      </trkpt>
      <trkpt lat="47.34592" lon="-0.27981">
        <ele>80</ele>
        <time>2024-10-16T12:21:39Z</time>
      </trkpt>
      <trkpt lat="47.3459" lon="-0.27962">
        <ele>79</ele>
        <time>2024-10-16T12:21:42Z</time>
      </trkpt>
      <trkpt lat="47.34614" lon="-0.27916">
        <ele>79</ele>
        <time>2024-10-16T12:21:51Z</time>
      </trkpt>
      <trkpt lat="47.34704" lon="-0.27721">
        <ele>77</ele>
        <time>2024-10-16T12:22:29Z</time>
      </trkpt>
      <trkpt lat="47.34709" lon="-0.27704">
        <ele>77</ele>
        <time>2024-10-16T12:22:31Z</time>
      </trkpt>
      <trkpt lat="47.34709" lon="-0.27695">
        <ele>77</ele>
        <time>2024-10-16T12:22:33Z</time>
      </trkpt>
      <trkpt lat="47.34706" lon="-0.27682">
        <ele>78</ele>
        <time>2024-10-16T12:22:35Z</time>
      </trkpt>
      <trkpt lat="47.34669" lon="-0.27582">
        <ele>79</ele>
        <time>2024-10-16T12:22:53Z</time>
      </trkpt>
      <trkpt lat="47.34596" lon="-0.27401">
        <ele>78</ele>
        <time>2024-10-16T12:23:26Z</time>
      </trkpt>
      <trkpt lat="47.34572" lon="-0.2733">
        <ele>77</ele>
        <time>2024-10-16T12:23:39Z</time>
      </trkpt>
      <trkpt lat="47.34549" lon="-0.27247">
        <ele>77</ele>
        <time>2024-10-16T12:23:53Z</time>
      </trkpt>
      <trkpt lat="47.34546" lon="-0.2721">
        <ele>77</ele>
        <time>2024-10-16T12:23:59Z</time>
      </trkpt>
      <trkpt lat="47.34547" lon="-0.27165">
        <ele>77</ele>
        <time>2024-10-16T12:24:06Z</time>
      </trkpt>
      <trkpt lat="47.34546" lon="-0.27161">
        <ele>77</ele>
        <time>2024-10-16T12:24:07Z</time>
      </trkpt>
      <trkpt lat="47.34543" lon="-0.2716">
        <ele>77</ele>
        <time>2024-10-16T12:24:08Z</time>
      </trkpt>
      <trkpt lat="47.34465" lon="-0.27222">
        <ele>77</ele>
        <time>2024-10-16T12:24:28Z</time>
      </trkpt>
      <trkpt lat="47.34385" lon="-0.2728">
        <ele>79</ele>
        <time>2024-10-16T12:24:49Z</time>
      </trkpt>
      <trkpt lat="47.34316" lon="-0.27325">
        <ele>79</ele>
        <time>2024-10-16T12:25:07Z</time>
      </trkpt>
      <trkpt lat="47.34281" lon="-0.27352">
        <ele>77</ele>
        <time>2024-10-16T12:25:16Z</time>
      </trkpt>
      <trkpt lat="47.34267" lon="-0.27367">
        <ele>77</ele>
        <time>2024-10-16T12:25:20Z</time>
      </trkpt>
      <trkpt lat="47.34244" lon="-0.2738">
        <ele>76</ele>
        <time>2024-10-16T12:25:26Z</time>
      </trkpt>
      <trkpt lat="47.34229" lon="-0.27384">
        <ele>75</ele>
        <time>2024-10-16T12:25:29Z</time>
      </trkpt>
      <trkpt lat="47.34162" lon="-0.27384">
        <ele>73</ele>
        <time>2024-10-16T12:25:45Z</time>
      </trkpt>
      <trkpt lat="47.34057" lon="-0.2739">
        <ele>71</ele>
        <time>2024-10-16T12:26:09Z</time>
      </trkpt>
      <trkpt lat="47.3398" lon="-0.27382">
        <ele>70</ele>
        <time>2024-10-16T12:26:27Z</time>
      </trkpt>
      <trkpt lat="47.33968" lon="-0.2739">
        <ele>69</ele>
        <time>2024-10-16T12:26:31Z</time>
      </trkpt>
      <trkpt lat="47.33964" lon="-0.27398">
        <ele>68</ele>
        <time>2024-10-16T12:26:32Z</time>
      </trkpt>
      <trkpt lat="47.33961" lon="-0.2743">
        <ele>65</ele>
        <time>2024-10-16T12:26:37Z</time>
      </trkpt>
      <trkpt lat="47.33957" lon="-0.27437">
        <ele>65</ele>
        <time>2024-10-16T12:26:39Z</time>
      </trkpt>
      <trkpt lat="47.33945" lon="-0.27446">
        <ele>64</ele>
        <time>2024-10-16T12:26:42Z</time>
      </trkpt>
      <trkpt lat="47.33914" lon="-0.27455">
        <ele>64</ele>
        <time>2024-10-16T12:26:49Z</time>
      </trkpt>
      <trkpt lat="47.33907" lon="-0.27461">
        <ele>63</ele>
        <time>2024-10-16T12:26:51Z</time>
      </trkpt>
      <trkpt lat="47.33908" lon="-0.27482">
        <ele>63</ele>
        <time>2024-10-16T12:26:54Z</time>
      </trkpt>
      <trkpt lat="47.3393" lon="-0.27552">
        <ele>63</ele>
        <time>2024-10-16T12:27:07Z</time>
      </trkpt>
      <trkpt lat="47.33934" lon="-0.27557">
        <ele>64</ele>
        <time>2024-10-16T12:27:08Z</time>
      </trkpt>
      <trkpt lat="47.34126" lon="-0.27552">
        <ele>68</ele>
        <time>2024-10-16T12:27:53Z</time>
      </trkpt>
      <trkpt lat="47.34134" lon="-0.27557">
        <ele>68</ele>
        <time>2024-10-16T12:27:55Z</time>
      </trkpt>
      <trkpt lat="47.34164" lon="-0.27832">
        <ele>73</ele>
        <time>2024-10-16T12:28:39Z</time>
      </trkpt>
      <trkpt lat="47.34177" lon="-0.27909">
        <ele>75</ele>
        <time>2024-10-16T12:28:51Z</time>
      </trkpt>
      <trkpt lat="47.34174" lon="-0.27916">
        <ele>75</ele>
        <time>2024-10-16T12:28:53Z</time>
      </trkpt>
      <trkpt lat="47.34161" lon="-0.27921">
        <ele>75</ele>
        <time>2024-10-16T12:28:56Z</time>
      </trkpt>
      <trkpt lat="47.34014" lon="-0.28018">
        <ele>81</ele>
        <time>2024-10-16T12:29:33Z</time>
      </trkpt>
      <trkpt lat="47.33996" lon="-0.28036">
        <ele>81</ele>
        <time>2024-10-16T12:29:39Z</time>
      </trkpt>
      <trkpt lat="47.33973" lon="-0.28052">
        <ele>81</ele>
        <time>2024-10-16T12:29:44Z</time>
      </trkpt>
      <trkpt lat="47.33931" lon="-0.28062">
        <ele>82</ele>
        <time>2024-10-16T12:29:54Z</time>
      </trkpt>
      <trkpt lat="47.33875" lon="-0.28086">
        <ele>82</ele>
        <time>2024-10-16T12:30:08Z</time>
      </trkpt>
      <trkpt lat="47.33856" lon="-0.28099">
        <ele>82</ele>
        <time>2024-10-16T12:30:13Z</time>
      </trkpt>
      <trkpt lat="47.33811" lon="-0.28144">
        <ele>83</ele>
        <time>2024-10-16T12:30:26Z</time>
      </trkpt>
      <trkpt lat="47.33796" lon="-0.28156">
        <ele>83</ele>
        <time>2024-10-16T12:30:30Z</time>
      </trkpt>
      <trkpt lat="47.33782" lon="-0.28164">
        <ele>84</ele>
        <time>2024-10-16T12:30:33Z</time>
      </trkpt>
      <trkpt lat="47.33757" lon="-0.28172">
        <ele>85</ele>
        <time>2024-10-16T12:30:39Z</time>
      </trkpt>
      <trkpt lat="47.33752" lon="-0.28176">
        <ele>85</ele>
        <time>2024-10-16T12:30:40Z</time>
      </trkpt>
      <trkpt lat="47.3375" lon="-0.28182">
        <ele>85</ele>
        <time>2024-10-16T12:30:41Z</time>
      </trkpt>
      <trkpt lat="47.33752" lon="-0.28204">
        <ele>85</ele>
        <time>2024-10-16T12:30:45Z</time>
      </trkpt>
      <trkpt lat="47.33763" lon="-0.28289">
        <ele>83</ele>
        <time>2024-10-16T12:30:59Z</time>
      </trkpt>
      <trkpt lat="47.33753" lon="-0.28351">
        <ele>83</ele>
        <time>2024-10-16T12:31:09Z</time>
      </trkpt>
      <trkpt lat="47.33716" lon="-0.28421">
        <ele>84</ele>
        <time>2024-10-16T12:31:23Z</time>
      </trkpt>
      <trkpt lat="47.33706" lon="-0.28451">
        <ele>86</ele>
        <time>2024-10-16T12:31:28Z</time>
      </trkpt>
      <trkpt lat="47.33696" lon="-0.28463">
        <ele>86</ele>
        <time>2024-10-16T12:31:31Z</time>
      </trkpt>
      <trkpt lat="47.33634" lon="-0.28479">
        <ele>88</ele>
        <time>2024-10-16T12:31:46Z</time>
      </trkpt>
      <trkpt lat="47.33598" lon="-0.28496">
        <ele>88</ele>
        <time>2024-10-16T12:31:55Z</time>
      </trkpt>
      <trkpt lat="47.33556" lon="-0.28523">
        <ele>86</ele>
        <time>2024-10-16T12:32:05Z</time>
      </trkpt>
      <trkpt lat="47.33521" lon="-0.28539">
        <ele>83</ele>
        <time>2024-10-16T12:32:14Z</time>
      </trkpt>
      <trkpt lat="47.33511" lon="-0.28534">
        <ele>82</ele>
        <time>2024-10-16T12:32:16Z</time>
      </trkpt>
      <trkpt lat="47.33506" lon="-0.28519">
        <ele>83</ele>
        <time>2024-10-16T12:32:19Z</time>
      </trkpt>
      <trkpt lat="47.33451" lon="-0.28447">
        <ele>76</ele>
        <time>2024-10-16T12:32:36Z</time>
      </trkpt>
      <trkpt lat="47.33429" lon="-0.28435">
        <ele>74</ele>
        <time>2024-10-16T12:32:42Z</time>
      </trkpt>
      <trkpt lat="47.33411" lon="-0.28431">
        <ele>71</ele>
        <time>2024-10-16T12:32:46Z</time>
      </trkpt>
      <trkpt lat="47.33409" lon="-0.28435">
        <ele>70</ele>
        <time>2024-10-16T12:32:47Z</time>
      </trkpt>
      <trkpt lat="47.33401" lon="-0.28431">
        <ele>69</ele>
        <time>2024-10-16T12:32:49Z</time>
      </trkpt>
      <trkpt lat="47.33389" lon="-0.2844">
        <ele>67</ele>
        <time>2024-10-16T12:32:52Z</time>
      </trkpt>
      <trkpt lat="47.33385" lon="-0.28446">
        <ele>66</ele>
        <time>2024-10-16T12:32:53Z</time>
      </trkpt>
      <trkpt lat="47.33381" lon="-0.28446">
        <ele>65</ele>
        <time>2024-10-16T12:32:54Z</time>
      </trkpt>
      <trkpt lat="47.33377" lon="-0.28441">
        <ele>64</ele>
        <time>2024-10-16T12:32:55Z</time>
      </trkpt>
      <trkpt lat="47.33365" lon="-0.28409">
        <ele>63</ele>
        <time>2024-10-16T12:33:01Z</time>
      </trkpt>
      <trkpt lat="47.33361" lon="-0.28403">
        <ele>62</ele>
        <time>2024-10-16T12:33:02Z</time>
      </trkpt>
      <trkpt lat="47.33353" lon="-0.28398">
        <ele>60</ele>
        <time>2024-10-16T12:33:04Z</time>
      </trkpt>
      <trkpt lat="47.33341" lon="-0.28393">
        <ele>58</ele>
        <time>2024-10-16T12:33:07Z</time>
      </trkpt>
      <trkpt lat="47.33326" lon="-0.28395">
        <ele>56</ele>
        <time>2024-10-16T12:33:11Z</time>
      </trkpt>
      <trkpt lat="47.33299" lon="-0.28405">
        <ele>55</ele>
        <time>2024-10-16T12:33:17Z</time>
      </trkpt>
      <trkpt lat="47.33287" lon="-0.28412">
        <ele>55</ele>
        <time>2024-10-16T12:33:20Z</time>
      </trkpt>
      <trkpt lat="47.33282" lon="-0.28412">
        <ele>55</ele>
        <time>2024-10-16T12:33:22Z</time>
      </trkpt>
      <trkpt lat="47.33275" lon="-0.28408">
        <ele>55</ele>
        <time>2024-10-16T12:33:23Z</time>
      </trkpt>
      <trkpt lat="47.33258" lon="-0.28383">
        <ele>54</ele>
        <time>2024-10-16T12:33:29Z</time>
      </trkpt>
      <trkpt lat="47.33251" lon="-0.28379">
        <ele>54</ele>
        <time>2024-10-16T12:33:31Z</time>
      </trkpt>
      <trkpt lat="47.33248" lon="-0.2838">
        <ele>54</ele>
        <time>2024-10-16T12:33:31Z</time>
      </trkpt>
      <trkpt lat="47.33243" lon="-0.28389">
        <ele>55</ele>
        <time>2024-10-16T12:33:33Z</time>
      </trkpt>
      <trkpt lat="47.33219" lon="-0.28461">
        <ele>56</ele>
        <time>2024-10-16T12:33:46Z</time>
      </trkpt>
      <trkpt lat="47.33205" lon="-0.2852">
        <ele>57</ele>
        <time>2024-10-16T12:33:56Z</time>
      </trkpt>
      <trkpt lat="47.33198" lon="-0.28528">
        <ele>57</ele>
        <time>2024-10-16T12:33:58Z</time>
      </trkpt>
      <trkpt lat="47.33189" lon="-0.2853">
        <ele>57</ele>
        <time>2024-10-16T12:34:00Z</time>
      </trkpt>
      <trkpt lat="47.33174" lon="-0.28525">
        <ele>58</ele>
        <time>2024-10-16T12:34:04Z</time>
      </trkpt>
      <trkpt lat="47.33127" lon="-0.28491">
        <ele>63</ele>
        <time>2024-10-16T12:34:16Z</time>
      </trkpt>
      <trkpt lat="47.3311" lon="-0.28487">
        <ele>65</ele>
        <time>2024-10-16T12:34:20Z</time>
      </trkpt>
      <trkpt lat="47.33097" lon="-0.28491">
        <ele>66</ele>
        <time>2024-10-16T12:34:23Z</time>
      </trkpt>
      <trkpt lat="47.3309" lon="-0.28496">
        <ele>67</ele>
        <time>2024-10-16T12:34:25Z</time>
      </trkpt>
      <trkpt lat="47.33078" lon="-0.28509">
        <ele>68</ele>
        <time>2024-10-16T12:34:28Z</time>
      </trkpt>
      <trkpt lat="47.33056" lon="-0.28543">
        <ele>70</ele>
        <time>2024-10-16T12:34:36Z</time>
      </trkpt>
      <trkpt lat="47.33048" lon="-0.2855">
        <ele>71</ele>
        <time>2024-10-16T12:34:38Z</time>
      </trkpt>
      <trkpt lat="47.33039" lon="-0.28544">
        <ele>72</ele>
        <time>2024-10-16T12:34:40Z</time>
      </trkpt>
      <trkpt lat="47.33028" lon="-0.28527">
        <ele>73</ele>
        <time>2024-10-16T12:34:44Z</time>
      </trkpt>
      <trkpt lat="47.33004" lon="-0.28498">
        <ele>74</ele>
        <time>2024-10-16T12:34:51Z</time>
      </trkpt>
      <trkpt lat="47.32921" lon="-0.28408">
        <ele>75</ele>
        <time>2024-10-16T12:35:15Z</time>
      </trkpt>
      <trkpt lat="47.32915" lon="-0.28404">
        <ele>75</ele>
        <time>2024-10-16T12:35:17Z</time>
      </trkpt>
      <trkpt lat="47.32899" lon="-0.28406">
        <ele>75</ele>
        <time>2024-10-16T12:35:20Z</time>
      </trkpt>
      <trkpt lat="47.32843" lon="-0.28406">
        <ele>77</ele>
        <time>2024-10-16T12:35:34Z</time>
      </trkpt>
      <trkpt lat="47.32791" lon="-0.28421">
        <ele>77</ele>
        <time>2024-10-16T12:35:46Z</time>
      </trkpt>
      <trkpt lat="47.32787" lon="-0.28434">
        <ele>77</ele>
        <time>2024-10-16T12:35:48Z</time>
      </trkpt>
      <trkpt lat="47.32826" lon="-0.28637">
        <ele>81</ele>
        <time>2024-10-16T12:36:22Z</time>
      </trkpt>
      <trkpt lat="47.32828" lon="-0.28657">
        <ele>82</ele>
        <time>2024-10-16T12:36:25Z</time>
      </trkpt>
      <trkpt lat="47.32827" lon="-0.28683">
        <ele>82</ele>
        <time>2024-10-16T12:36:29Z</time>
      </trkpt>
      <trkpt lat="47.32819" lon="-0.28753">
        <ele>85</ele>
        <time>2024-10-16T12:36:40Z</time>
      </trkpt>
      <trkpt lat="47.32794" lon="-0.28841">
        <ele>86</ele>
        <time>2024-10-16T12:36:55Z</time>
      </trkpt>
      <trkpt lat="47.32789" lon="-0.28848">
        <ele>86</ele>
        <time>2024-10-16T12:36:57Z</time>
      </trkpt>
      <trkpt lat="47.32777" lon="-0.28897">
        <ele>87</ele>
        <time>2024-10-16T12:37:05Z</time>
      </trkpt>
      <trkpt lat="47.32761" lon="-0.28933">
        <ele>86</ele>
        <time>2024-10-16T12:37:12Z</time>
      </trkpt>
      <trkpt lat="47.32749" lon="-0.28946">
        <ele>86</ele>
        <time>2024-10-16T12:37:15Z</time>
      </trkpt>
      <trkpt lat="47.3274" lon="-0.28965">
        <ele>85</ele>
        <time>2024-10-16T12:37:19Z</time>
      </trkpt>
      <trkpt lat="47.32733" lon="-0.29104">
        <ele>88</ele>
        <time>2024-10-16T12:37:41Z</time>
      </trkpt>
      <trkpt lat="47.32721" lon="-0.2914">
        <ele>89</ele>
        <time>2024-10-16T12:37:47Z</time>
      </trkpt>
      <trkpt lat="47.32701" lon="-0.29176">
        <ele>90</ele>
        <time>2024-10-16T12:37:55Z</time>
      </trkpt>
      <trkpt lat="47.32668" lon="-0.29221">
        <ele>92</ele>
        <time>2024-10-16T12:38:05Z</time>
      </trkpt>
      <trkpt lat="47.32632" lon="-0.29291">
        <ele>93</ele>
        <time>2024-10-16T12:38:19Z</time>
      </trkpt>
      <trkpt lat="47.32626" lon="-0.29305">
        <ele>93</ele>
        <time>2024-10-16T12:38:22Z</time>
      </trkpt>
      <trkpt lat="47.32617" lon="-0.29349">
        <ele>92</ele>
        <time>2024-10-16T12:38:29Z</time>
      </trkpt>
      <trkpt lat="47.32576" lon="-0.29416">
        <ele>92</ele>
        <time>2024-10-16T12:38:43Z</time>
      </trkpt>
      <trkpt lat="47.32551" lon="-0.2949">
        <ele>95</ele>
        <time>2024-10-16T12:38:56Z</time>
      </trkpt>
      <trkpt lat="47.32528" lon="-0.29534">
        <ele>96</ele>
        <time>2024-10-16T12:39:05Z</time>
      </trkpt>
      <trkpt lat="47.32511" lon="-0.29582">
        <ele>96</ele>
        <time>2024-10-16T12:39:14Z</time>
      </trkpt>
      <trkpt lat="47.32482" lon="-0.29649">
        <ele>94</ele>
        <time>2024-10-16T12:39:26Z</time>
      </trkpt>
      <trkpt lat="47.32453" lon="-0.29694">
        <ele>93</ele>
        <time>2024-10-16T12:39:36Z</time>
      </trkpt>
      <trkpt lat="47.32445" lon="-0.29702">
        <ele>93</ele>
        <time>2024-10-16T12:39:39Z</time>
      </trkpt>
      <trkpt lat="47.32426" lon="-0.29714">
        <ele>93</ele>
        <time>2024-10-16T12:39:43Z</time>
      </trkpt>
      <trkpt lat="47.32409" lon="-0.29721">
        <ele>93</ele>
        <time>2024-10-16T12:39:47Z</time>
      </trkpt>
      <trkpt lat="47.32364" lon="-0.2973">
        <ele>94</ele>
        <time>2024-10-16T12:39:58Z</time>
      </trkpt>
      <trkpt lat="47.32344" lon="-0.29739">
        <ele>95</ele>
        <time>2024-10-16T12:40:03Z</time>
      </trkpt>
      <trkpt lat="47.32328" lon="-0.29754">
        <ele>95</ele>
        <time>2024-10-16T12:40:07Z</time>
      </trkpt>
      <trkpt lat="47.32311" lon="-0.29776">
        <ele>94</ele>
        <time>2024-10-16T12:40:13Z</time>
      </trkpt>
      <trkpt lat="47.32302" lon="-0.29794">
        <ele>94</ele>
        <time>2024-10-16T12:40:16Z</time>
      </trkpt>
      <trkpt lat="47.32279" lon="-0.29872">
        <ele>96</ele>
        <time>2024-10-16T12:40:30Z</time>
      </trkpt>
      <trkpt lat="47.32277" lon="-0.29899">
        <ele>97</ele>
        <time>2024-10-16T12:40:34Z</time>
      </trkpt>
      <trkpt lat="47.3227" lon="-0.29937">
        <ele>98</ele>
        <time>2024-10-16T12:40:40Z</time>
      </trkpt>
      <trkpt lat="47.32259" lon="-0.29974">
        <ele>99</ele>
        <time>2024-10-16T12:40:47Z</time>
      </trkpt>
      <trkpt lat="47.32235" lon="-0.30033">
        <ele>98</ele>
        <time>2024-10-16T12:40:57Z</time>
      </trkpt>
      <trkpt lat="47.32225" lon="-0.30072">
        <ele>97</ele>
        <time>2024-10-16T12:41:04Z</time>
      </trkpt>
      <trkpt lat="47.32223" lon="-0.3011">
        <ele>96</ele>
        <time>2024-10-16T12:41:10Z</time>
      </trkpt>
      <trkpt lat="47.32231" lon="-0.30148">
        <ele>95</ele>
        <time>2024-10-16T12:41:16Z</time>
      </trkpt>
      <trkpt lat="47.32228" lon="-0.3017">
        <ele>95</ele>
        <time>2024-10-16T12:41:20Z</time>
      </trkpt>
      <trkpt lat="47.32229" lon="-0.30202">
        <ele>94</ele>
        <time>2024-10-16T12:41:25Z</time>
      </trkpt>
      <trkpt lat="47.32222" lon="-0.30249">
        <ele>94</ele>
        <time>2024-10-16T12:41:33Z</time>
      </trkpt>
      <trkpt lat="47.32225" lon="-0.30263">
        <ele>94</ele>
        <time>2024-10-16T12:41:35Z</time>
      </trkpt>
      <trkpt lat="47.3221" lon="-0.30323">
        <ele>94</ele>
        <time>2024-10-16T12:41:45Z</time>
      </trkpt>
      <trkpt lat="47.32206" lon="-0.3035">
        <ele>94</ele>
        <time>2024-10-16T12:41:49Z</time>
      </trkpt>
      <trkpt lat="47.32208" lon="-0.30368">
        <ele>94</ele>
        <time>2024-10-16T12:41:52Z</time>
      </trkpt>
      <trkpt lat="47.3222" lon="-0.30412">
        <ele>95</ele>
        <time>2024-10-16T12:42:00Z</time>
      </trkpt>
      <trkpt lat="47.32216" lon="-0.30423">
        <ele>95</ele>
        <time>2024-10-16T12:42:02Z</time>
      </trkpt>
      <trkpt lat="47.32218" lon="-0.305">
        <ele>94</ele>
        <time>2024-10-16T12:42:14Z</time>
      </trkpt>
      <trkpt lat="47.32216" lon="-0.30515">
        <ele>93</ele>
        <time>2024-10-16T12:42:16Z</time>
      </trkpt>
      <trkpt lat="47.32209" lon="-0.30537">
        <ele>93</ele>
        <time>2024-10-16T12:42:20Z</time>
      </trkpt>
      <trkpt lat="47.32207" lon="-0.30556">
        <ele>92</ele>
        <time>2024-10-16T12:42:23Z</time>
      </trkpt>
      <trkpt lat="47.32188" lon="-0.30587">
        <ele>91</ele>
        <time>2024-10-16T12:42:30Z</time>
      </trkpt>
      <trkpt lat="47.32183" lon="-0.306">
        <ele>91</ele>
        <time>2024-10-16T12:42:32Z</time>
      </trkpt>
      <trkpt lat="47.32176" lon="-0.30634">
        <ele>90</ele>
        <time>2024-10-16T12:42:38Z</time>
      </trkpt>
      <trkpt lat="47.32161" lon="-0.30643">
        <ele>90</ele>
        <time>2024-10-16T12:42:42Z</time>
      </trkpt>
      <trkpt lat="47.3215" lon="-0.30653">
        <ele>91</ele>
        <time>2024-10-16T12:42:45Z</time>
      </trkpt>
      <trkpt lat="47.32127" lon="-0.30648">
        <ele>92</ele>
        <time>2024-10-16T12:42:50Z</time>
      </trkpt>
      <trkpt lat="47.32107" lon="-0.30661">
        <ele>92</ele>
        <time>2024-10-16T12:42:55Z</time>
      </trkpt>
      <trkpt lat="47.32101" lon="-0.3066">
        <ele>92</ele>
        <time>2024-10-16T12:42:57Z</time>
      </trkpt>
      <trkpt lat="47.32086" lon="-0.30625">
        <ele>93</ele>
        <time>2024-10-16T12:43:03Z</time>
      </trkpt>
      <trkpt lat="47.32083" lon="-0.30593">
        <ele>93</ele>
        <time>2024-10-16T12:43:08Z</time>
      </trkpt>
      <trkpt lat="47.3208" lon="-0.30584">
        <ele>93</ele>
        <time>2024-10-16T12:43:10Z</time>
      </trkpt>
      <trkpt lat="47.32076" lon="-0.30579">
        <ele>93</ele>
        <time>2024-10-16T12:43:11Z</time>
      </trkpt>
      <trkpt lat="47.32057" lon="-0.30577">
        <ele>94</ele>
        <time>2024-10-16T12:43:16Z</time>
      </trkpt>
      <trkpt lat="47.3205" lon="-0.30573">
        <ele>94</ele>
        <time>2024-10-16T12:43:17Z</time>
      </trkpt>
      <trkpt lat="47.32044" lon="-0.30562">
        <ele>95</ele>
        <time>2024-10-16T12:43:20Z</time>
      </trkpt>
      <trkpt lat="47.32039" lon="-0.30545">
        <ele>95</ele>
        <time>2024-10-16T12:43:23Z</time>
      </trkpt>
      <trkpt lat="47.32024" lon="-0.30521">
        <ele>96</ele>
        <time>2024-10-16T12:43:28Z</time>
      </trkpt>
      <trkpt lat="47.32016" lon="-0.30498">
        <ele>96</ele>
        <time>2024-10-16T12:43:32Z</time>
      </trkpt>
      <trkpt lat="47.32005" lon="-0.30476">
        <ele>97</ele>
        <time>2024-10-16T12:43:36Z</time>
      </trkpt>
      <trkpt lat="47.31995" lon="-0.30423">
        <ele>97</ele>
        <time>2024-10-16T12:43:45Z</time>
      </trkpt>
      <trkpt lat="47.31983" lon="-0.30377">
        <ele>97</ele>
        <time>2024-10-16T12:43:53Z</time>
      </trkpt>
      <trkpt lat="47.31981" lon="-0.30357">
        <ele>97</ele>
        <time>2024-10-16T12:43:56Z</time>
      </trkpt>
      <trkpt lat="47.31967" lon="-0.30346">
        <ele>97</ele>
        <time>2024-10-16T12:44:00Z</time>
      </trkpt>
      <trkpt lat="47.31963" lon="-0.30337">
        <ele>97</ele>
        <time>2024-10-16T12:44:01Z</time>
      </trkpt>
      <trkpt lat="47.31963" lon="-0.30325">
        <ele>97</ele>
        <time>2024-10-16T12:44:03Z</time>
      </trkpt>
      <trkpt lat="47.3196" lon="-0.3032">
        <ele>97</ele>
        <time>2024-10-16T12:44:04Z</time>
      </trkpt>
      <trkpt lat="47.31926" lon="-0.30344">
        <ele>97</ele>
        <time>2024-10-16T12:44:13Z</time>
      </trkpt>
      <trkpt lat="47.31875" lon="-0.30405">
        <ele>95</ele>
        <time>2024-10-16T12:44:28Z</time>
      </trkpt>
      <trkpt lat="47.31802" lon="-0.30567">
        <ele>93</ele>
        <time>2024-10-16T12:44:59Z</time>
      </trkpt>
      <trkpt lat="47.31739" lon="-0.30684">
        <ele>94</ele>
        <time>2024-10-16T12:45:23Z</time>
      </trkpt>
      <trkpt lat="47.31715" lon="-0.30744">
        <ele>92</ele>
        <time>2024-10-16T12:45:34Z</time>
      </trkpt>
      <trkpt lat="47.3169" lon="-0.30792">
        <ele>91</ele>
        <time>2024-10-16T12:45:43Z</time>
      </trkpt>
      <trkpt lat="47.31686" lon="-0.30812">
        <ele>91</ele>
        <time>2024-10-16T12:45:47Z</time>
      </trkpt>
      <trkpt lat="47.31687" lon="-0.30826">
        <ele>91</ele>
        <time>2024-10-16T12:45:49Z</time>
      </trkpt>
      <trkpt lat="47.31727" lon="-0.30924">
        <ele>90</ele>
        <time>2024-10-16T12:46:07Z</time>
      </trkpt>
      <trkpt lat="47.31729" lon="-0.30931">
        <ele>90</ele>
        <time>2024-10-16T12:46:08Z</time>
      </trkpt>
      <trkpt lat="47.31726" lon="-0.30941">
        <ele>90</ele>
        <time>2024-10-16T12:46:10Z</time>
      </trkpt>
      <trkpt lat="47.31716" lon="-0.30944">
        <ele>90</ele>
        <time>2024-10-16T12:46:12Z</time>
      </trkpt>
      <trkpt lat="47.31692" lon="-0.30944">
        <ele>90</ele>
        <time>2024-10-16T12:46:18Z</time>
      </trkpt>
      <trkpt lat="47.3165" lon="-0.30949">
        <ele>91</ele>
        <time>2024-10-16T12:46:28Z</time>
      </trkpt>
      <trkpt lat="47.31483" lon="-0.30974">
        <ele>95</ele>
        <time>2024-10-16T12:47:07Z</time>
      </trkpt>
      <trkpt lat="47.31425" lon="-0.30981">
        <ele>95</ele>
        <time>2024-10-16T12:47:21Z</time>
      </trkpt>
      <trkpt lat="47.31413" lon="-0.3098">
        <ele>96</ele>
        <time>2024-10-16T12:47:23Z</time>
      </trkpt>
      <trkpt lat="47.31385" lon="-0.30985">
        <ele>97</ele>
        <time>2024-10-16T12:47:30Z</time>
      </trkpt>
      <trkpt lat="47.31378" lon="-0.30984">
        <ele>97</ele>
        <time>2024-10-16T12:47:32Z</time>
      </trkpt>
      <trkpt lat="47.31374" lon="-0.30979">
        <ele>97</ele>
        <time>2024-10-16T12:47:33Z</time>
      </trkpt>
      <trkpt lat="47.31373" lon="-0.30972">
        <ele>98</ele>
        <time>2024-10-16T12:47:34Z</time>
      </trkpt>
      <trkpt lat="47.31375" lon="-0.30934">
        <ele>99</ele>
        <time>2024-10-16T12:47:40Z</time>
      </trkpt>
      <trkpt lat="47.31373" lon="-0.30888">
        <ele>99</ele>
        <time>2024-10-16T12:47:47Z</time>
      </trkpt>
      <trkpt lat="47.31374" lon="-0.30815">
        <ele>99</ele>
        <time>2024-10-16T12:47:59Z</time>
      </trkpt>
      <trkpt lat="47.31378" lon="-0.30779">
        <ele>99</ele>
        <time>2024-10-16T12:48:05Z</time>
      </trkpt>
      <trkpt lat="47.31379" lon="-0.30732">
        <ele>100</ele>
        <time>2024-10-16T12:48:12Z</time>
      </trkpt>
      <trkpt lat="47.31377" lon="-0.3071">
        <ele>101</ele>
        <time>2024-10-16T12:48:16Z</time>
      </trkpt>
      <trkpt lat="47.31381" lon="-0.30649">
        <ele>102</ele>
        <time>2024-10-16T12:48:25Z</time>
      </trkpt>
      <trkpt lat="47.31377" lon="-0.30627">
        <ele>102</ele>
        <time>2024-10-16T12:48:29Z</time>
      </trkpt>
      <trkpt lat="47.31382" lon="-0.30595">
        <ele>101</ele>
        <time>2024-10-16T12:48:34Z</time>
      </trkpt>
      <trkpt lat="47.3138" lon="-0.30577">
        <ele>101</ele>
        <time>2024-10-16T12:48:37Z</time>
      </trkpt>
      <trkpt lat="47.31382" lon="-0.30546">
        <ele>100</ele>
        <time>2024-10-16T12:48:42Z</time>
      </trkpt>
      <trkpt lat="47.31381" lon="-0.30455">
        <ele>99</ele>
        <time>2024-10-16T12:48:56Z</time>
      </trkpt>
      <trkpt lat="47.31385" lon="-0.30437">
        <ele>98</ele>
        <time>2024-10-16T12:48:59Z</time>
      </trkpt>
      <trkpt lat="47.3138" lon="-0.30414">
        <ele>98</ele>
        <time>2024-10-16T12:49:03Z</time>
      </trkpt>
      <trkpt lat="47.31386" lon="-0.30382">
        <ele>97</ele>
        <time>2024-10-16T12:49:08Z</time>
      </trkpt>
      <trkpt lat="47.31392" lon="-0.30281">
        <ele>96</ele>
        <time>2024-10-16T12:49:25Z</time>
      </trkpt>
      <trkpt lat="47.31387" lon="-0.30263">
        <ele>96</ele>
        <time>2024-10-16T12:49:28Z</time>
      </trkpt>
      <trkpt lat="47.3138" lon="-0.3025">
        <ele>95</ele>
        <time>2024-10-16T12:49:30Z</time>
      </trkpt>
      <trkpt lat="47.31374" lon="-0.30245">
        <ele>95</ele>
        <time>2024-10-16T12:49:32Z</time>
      </trkpt>
      <trkpt lat="47.31347" lon="-0.3024">
        <ele>95</ele>
        <time>2024-10-16T12:49:38Z</time>
      </trkpt>
      <trkpt lat="47.31258" lon="-0.30232">
        <ele>93</ele>
        <time>2024-10-16T12:49:59Z</time>
      </trkpt>
      <trkpt lat="47.31226" lon="-0.30234">
        <ele>92</ele>
        <time>2024-10-16T12:50:06Z</time>
      </trkpt>
      <trkpt lat="47.31199" lon="-0.30228">
        <ele>91</ele>
        <time>2024-10-16T12:50:13Z</time>
      </trkpt>
      <trkpt lat="47.31183" lon="-0.30228">
        <ele>90</ele>
        <time>2024-10-16T12:50:17Z</time>
      </trkpt>
      <trkpt lat="47.3116" lon="-0.30218">
        <ele>89</ele>
        <time>2024-10-16T12:50:22Z</time>
      </trkpt>
      <trkpt lat="47.31139" lon="-0.302">
        <ele>89</ele>
        <time>2024-10-16T12:50:28Z</time>
      </trkpt>
      <trkpt lat="47.31122" lon="-0.30177">
        <ele>89</ele>
        <time>2024-10-16T12:50:33Z</time>
      </trkpt>
      <trkpt lat="47.31064" lon="-0.3017">
        <ele>85</ele>
        <time>2024-10-16T12:50:47Z</time>
      </trkpt>
      <trkpt lat="47.31049" lon="-0.30164">
        <ele>84</ele>
        <time>2024-10-16T12:50:50Z</time>
      </trkpt>
      <trkpt lat="47.3104" lon="-0.30153">
        <ele>84</ele>
        <time>2024-10-16T12:50:53Z</time>
      </trkpt>
      <trkpt lat="47.31028" lon="-0.30124">
        <ele>84</ele>
        <time>2024-10-16T12:50:59Z</time>
      </trkpt>
      <trkpt lat="47.31025" lon="-0.30085">
        <ele>84</ele>
        <time>2024-10-16T12:51:05Z</time>
      </trkpt>
      <trkpt lat="47.31018" lon="-0.30062">
        <ele>84</ele>
        <time>2024-10-16T12:51:09Z</time>
      </trkpt>
      <trkpt lat="47.31015" lon="-0.30026">
        <ele>84</ele>
        <time>2024-10-16T12:51:15Z</time>
      </trkpt>
      <trkpt lat="47.3102" lon="-0.30016">
        <ele>85</ele>
        <time>2024-10-16T12:51:17Z</time>
      </trkpt>
      <trkpt lat="47.31019" lon="-0.30002">
        <ele>85</ele>
        <time>2024-10-16T12:51:19Z</time>
      </trkpt>
      <trkpt lat="47.31024" lon="-0.29974">
        <ele>85</ele>
        <time>2024-10-16T12:51:23Z</time>
      </trkpt>
      <trkpt lat="47.31023" lon="-0.2995">
        <ele>84</ele>
        <time>2024-10-16T12:51:27Z</time>
      </trkpt>
      <trkpt lat="47.31027" lon="-0.29922">
        <ele>83</ele>
        <time>2024-10-16T12:51:32Z</time>
      </trkpt>
      <trkpt lat="47.31018" lon="-0.29869">
        <ele>81</ele>
        <time>2024-10-16T12:51:40Z</time>
      </trkpt>
      <trkpt lat="47.31036" lon="-0.29814">
        <ele>81</ele>
        <time>2024-10-16T12:51:50Z</time>
      </trkpt>
      <trkpt lat="47.31037" lon="-0.2979">
        <ele>81</ele>
        <time>2024-10-16T12:51:54Z</time>
      </trkpt>
      <trkpt lat="47.31053" lon="-0.2979">
        <ele>82</ele>
        <time>2024-10-16T12:51:58Z</time>
      </trkpt>
      <trkpt lat="47.31063" lon="-0.29781">
        <ele>83</ele>
        <time>2024-10-16T12:52:00Z</time>
      </trkpt>
      <trkpt lat="47.31089" lon="-0.2977">
        <ele>86</ele>
        <time>2024-10-16T12:52:07Z</time>
      </trkpt>
      <trkpt lat="47.31095" lon="-0.29759">
        <ele>87</ele>
        <time>2024-10-16T12:52:09Z</time>
      </trkpt>
      <trkpt lat="47.31102" lon="-0.29755">
        <ele>88</ele>
        <time>2024-10-16T12:52:11Z</time>
      </trkpt>
      <trkpt lat="47.31124" lon="-0.29751">
        <ele>91</ele>
        <time>2024-10-16T12:52:16Z</time>
      </trkpt>
      <trkpt lat="47.31173" lon="-0.29726">
        <ele>97</ele>
        <time>2024-10-16T12:52:28Z</time>
      </trkpt>
      <trkpt lat="47.31184" lon="-0.29725">
        <ele>97</ele>
        <time>2024-10-16T12:52:30Z</time>
      </trkpt>
      <trkpt lat="47.31198" lon="-0.2972">
        <ele>97</ele>
        <time>2024-10-16T12:52:34Z</time>
      </trkpt>
      <trkpt lat="47.31222" lon="-0.29707">
        <ele>97</ele>
        <time>2024-10-16T12:52:40Z</time>
      </trkpt>
      <trkpt lat="47.31251" lon="-0.29697">
        <ele>97</ele>
        <time>2024-10-16T12:52:47Z</time>
      </trkpt>
      <trkpt lat="47.31254" lon="-0.29687">
        <ele>97</ele>
        <time>2024-10-16T12:52:48Z</time>
      </trkpt>
      <trkpt lat="47.31222" lon="-0.29588">
        <ele>94</ele>
        <time>2024-10-16T12:53:06Z</time>
      </trkpt>
      <trkpt lat="47.31215" lon="-0.29575">
        <ele>93</ele>
        <time>2024-10-16T12:53:08Z</time>
      </trkpt>
      <trkpt lat="47.3121" lon="-0.29571">
        <ele>93</ele>
        <time>2024-10-16T12:53:10Z</time>
      </trkpt>
      <trkpt lat="47.31192" lon="-0.29567">
        <ele>92</ele>
        <time>2024-10-16T12:53:14Z</time>
      </trkpt>
      <trkpt lat="47.31147" lon="-0.29567">
        <ele>89</ele>
        <time>2024-10-16T12:53:25Z</time>
      </trkpt>
      <trkpt lat="47.31097" lon="-0.29579">
        <ele>84</ele>
        <time>2024-10-16T12:53:36Z</time>
      </trkpt>
      <trkpt lat="47.31079" lon="-0.2958">
        <ele>82</ele>
        <time>2024-10-16T12:53:41Z</time>
      </trkpt>
      <trkpt lat="47.31045" lon="-0.29574">
        <ele>79</ele>
        <time>2024-10-16T12:53:49Z</time>
      </trkpt>
      <trkpt lat="47.3102" lon="-0.29573">
        <ele>77</ele>
        <time>2024-10-16T12:53:54Z</time>
      </trkpt>
      <trkpt lat="47.30988" lon="-0.29558">
        <ele>77</ele>
        <time>2024-10-16T12:54:02Z</time>
      </trkpt>
      <trkpt lat="47.30968" lon="-0.29554">
        <ele>80</ele>
        <time>2024-10-16T12:54:07Z</time>
      </trkpt>
      <trkpt lat="47.30964" lon="-0.29549">
        <ele>80</ele>
        <time>2024-10-16T12:54:08Z</time>
      </trkpt>
      <trkpt lat="47.30956" lon="-0.29546">
        <ele>81</ele>
        <time>2024-10-16T12:54:10Z</time>
      </trkpt>
      <trkpt lat="47.30951" lon="-0.29547">
        <ele>82</ele>
        <time>2024-10-16T12:54:11Z</time>
      </trkpt>
      <trkpt lat="47.30952" lon="-0.29549">
        <ele>82</ele>
        <time>2024-10-16T12:54:12Z</time>
      </trkpt>
      <trkpt lat="47.30945" lon="-0.29552">
        <ele>83</ele>
        <time>2024-10-16T12:54:13Z</time>
      </trkpt>
      <trkpt lat="47.30914" lon="-0.29551">
        <ele>87</ele>
        <time>2024-10-16T12:54:21Z</time>
      </trkpt>
      <trkpt lat="47.30891" lon="-0.2954">
        <ele>89</ele>
        <time>2024-10-16T12:54:26Z</time>
      </trkpt>
      <trkpt lat="47.30882" lon="-0.29531">
        <ele>90</ele>
        <time>2024-10-16T12:54:29Z</time>
      </trkpt>
      <trkpt lat="47.30874" lon="-0.29528">
        <ele>90</ele>
        <time>2024-10-16T12:54:31Z</time>
      </trkpt>
      <trkpt lat="47.30861" lon="-0.29513">
        <ele>92</ele>
        <time>2024-10-16T12:54:35Z</time>
      </trkpt>
      <trkpt lat="47.30838" lon="-0.29495">
        <ele>93</ele>
        <time>2024-10-16T12:54:41Z</time>
      </trkpt>
      <trkpt lat="47.30823" lon="-0.29489">
        <ele>93</ele>
        <time>2024-10-16T12:54:44Z</time>
      </trkpt>
      <trkpt lat="47.30794" lon="-0.29507">
        <ele>92</ele>
        <time>2024-10-16T12:54:52Z</time>
      </trkpt>
      <trkpt lat="47.30772" lon="-0.29525">
        <ele>91</ele>
        <time>2024-10-16T12:54:58Z</time>
      </trkpt>
      <trkpt lat="47.30764" lon="-0.29524">
        <ele>91</ele>
        <time>2024-10-16T12:54:59Z</time>
      </trkpt>
      <trkpt lat="47.30756" lon="-0.29512">
        <ele>91</ele>
        <time>2024-10-16T12:55:02Z</time>
      </trkpt>
      <trkpt lat="47.30744" lon="-0.29502">
        <ele>90</ele>
        <time>2024-10-16T12:55:05Z</time>
      </trkpt>
      <trkpt lat="47.30711" lon="-0.29452">
        <ele>85</ele>
        <time>2024-10-16T12:55:16Z</time>
      </trkpt>
      <trkpt lat="47.30654" lon="-0.29373">
        <ele>79</ele>
        <time>2024-10-16T12:55:35Z</time>
      </trkpt>
      <trkpt lat="47.30617" lon="-0.29332">
        <ele>77</ele>
        <time>2024-10-16T12:55:45Z</time>
      </trkpt>
      <trkpt lat="47.30602" lon="-0.29306">
        <ele>76</ele>
        <time>2024-10-16T12:55:51Z</time>
      </trkpt>
      <trkpt lat="47.3059" lon="-0.29295">
        <ele>75</ele>
        <time>2024-10-16T12:55:54Z</time>
      </trkpt>
      <trkpt lat="47.30582" lon="-0.29277">
        <ele>75</ele>
        <time>2024-10-16T12:55:58Z</time>
      </trkpt>
      <trkpt lat="47.30571" lon="-0.2926">
        <ele>74</ele>
        <time>2024-10-16T12:56:01Z</time>
      </trkpt>
      <trkpt lat="47.30567" lon="-0.29256">
        <ele>74</ele>
        <time>2024-10-16T12:56:02Z</time>
      </trkpt>
      <trkpt lat="47.30561" lon="-0.29263">
        <ele>74</ele>
        <time>2024-10-16T12:56:04Z</time>
      </trkpt>
      <trkpt lat="47.30554" lon="-0.29265">
        <ele>74</ele>
        <time>2024-10-16T12:56:06Z</time>
      </trkpt>
      <trkpt lat="47.30541" lon="-0.29244">
        <ele>73</ele>
        <time>2024-10-16T12:56:10Z</time>
      </trkpt>
      <trkpt lat="47.30529" lon="-0.29231">
        <ele>73</ele>
        <time>2024-10-16T12:56:14Z</time>
      </trkpt>
      <trkpt lat="47.30515" lon="-0.29205">
        <ele>73</ele>
        <time>2024-10-16T12:56:19Z</time>
      </trkpt>
      <trkpt lat="47.305" lon="-0.29189">
        <ele>73</ele>
        <time>2024-10-16T12:56:23Z</time>
      </trkpt>
      <trkpt lat="47.30495" lon="-0.29172">
        <ele>74</ele>
        <time>2024-10-16T12:56:26Z</time>
      </trkpt>
      <trkpt lat="47.3045" lon="-0.29095">
        <ele>78</ele>
        <time>2024-10-16T12:56:42Z</time>
      </trkpt>
      <trkpt lat="47.30454" lon="-0.29086">
        <ele>79</ele>
        <time>2024-10-16T12:56:44Z</time>
      </trkpt>
      <trkpt lat="47.30463" lon="-0.29077">
        <ele>79</ele>
        <time>2024-10-16T12:56:47Z</time>
      </trkpt>
      <trkpt lat="47.30498" lon="-0.29003">
        <ele>85</ele>
        <time>2024-10-16T12:57:01Z</time>
      </trkpt>
      <trkpt lat="47.3051" lon="-0.28971">
        <ele>86</ele>
        <time>2024-10-16T12:57:07Z</time>
      </trkpt>
      <trkpt lat="47.30555" lon="-0.28888">
        <ele>87</ele>
        <time>2024-10-16T12:57:24Z</time>
      </trkpt>
      <trkpt lat="47.3056" lon="-0.28863">
        <ele>88</ele>
        <time>2024-10-16T12:57:28Z</time>
      </trkpt>
      <trkpt lat="47.30552" lon="-0.28815">
        <ele>91</ele>
        <time>2024-10-16T12:57:36Z</time>
      </trkpt>
      <trkpt lat="47.30554" lon="-0.28794">
        <ele>91</ele>
        <time>2024-10-16T12:57:39Z</time>
      </trkpt>
      <trkpt lat="47.3056" lon="-0.2878">
        <ele>91</ele>
        <time>2024-10-16T12:57:42Z</time>
      </trkpt>
      <trkpt lat="47.30573" lon="-0.28765">
        <ele>91</ele>
        <time>2024-10-16T12:57:45Z</time>
      </trkpt>
      <trkpt lat="47.3058" lon="-0.28749">
        <ele>91</ele>
        <time>2024-10-16T12:57:48Z</time>
      </trkpt>
      <trkpt lat="47.30589" lon="-0.28719">
        <ele>91</ele>
        <time>2024-10-16T12:57:54Z</time>
      </trkpt>
      <trkpt lat="47.30602" lon="-0.28647">
        <ele>91</ele>
        <time>2024-10-16T12:58:05Z</time>
      </trkpt>
      <trkpt lat="47.30602" lon="-0.28629">
        <ele>92</ele>
        <time>2024-10-16T12:58:08Z</time>
      </trkpt>
      <trkpt lat="47.30588" lon="-0.28568">
        <ele>92</ele>
        <time>2024-10-16T12:58:18Z</time>
      </trkpt>
      <trkpt lat="47.30578" lon="-0.28543">
        <ele>92</ele>
        <time>2024-10-16T12:58:23Z</time>
      </trkpt>
      <trkpt lat="47.30541" lon="-0.28476">
        <ele>91</ele>
        <time>2024-10-16T12:58:37Z</time>
      </trkpt>
      <trkpt lat="47.30524" lon="-0.28447">
        <ele>92</ele>
        <time>2024-10-16T12:58:43Z</time>
      </trkpt>
      <trkpt lat="47.30494" lon="-0.28408">
        <ele>92</ele>
        <time>2024-10-16T12:58:52Z</time>
      </trkpt>
      <trkpt lat="47.30477" lon="-0.28369">
        <ele>92</ele>
        <time>2024-10-16T12:58:59Z</time>
      </trkpt>
      <trkpt lat="47.30387" lon="-0.28235">
        <ele>90</ele>
        <time>2024-10-16T12:59:29Z</time>
      </trkpt>
      <trkpt lat="47.30369" lon="-0.28216">
        <ele>89</ele>
        <time>2024-10-16T12:59:34Z</time>
      </trkpt>
      <trkpt lat="47.30354" lon="-0.28193">
        <ele>88</ele>
        <time>2024-10-16T12:59:40Z</time>
      </trkpt>
      <trkpt lat="47.30337" lon="-0.28173">
        <ele>86</ele>
        <time>2024-10-16T12:59:45Z</time>
      </trkpt>
      <trkpt lat="47.30319" lon="-0.2816">
        <ele>85</ele>
        <time>2024-10-16T12:59:49Z</time>
      </trkpt>
      <trkpt lat="47.30295" lon="-0.28149">
        <ele>84</ele>
        <time>2024-10-16T12:59:55Z</time>
      </trkpt>
      <trkpt lat="47.30288" lon="-0.28148">
        <ele>84</ele>
        <time>2024-10-16T12:59:57Z</time>
      </trkpt>
      <trkpt lat="47.30277" lon="-0.28147">
        <ele>84</ele>
        <time>2024-10-16T12:59:59Z</time>
      </trkpt>
      <trkpt lat="47.30254" lon="-0.28153">
        <ele>83</ele>
        <time>2024-10-16T13:00:05Z</time>
      </trkpt>
      <trkpt lat="47.30202" lon="-0.28179">
        <ele>85</ele>
        <time>2024-10-16T13:00:18Z</time>
      </trkpt>
      <trkpt lat="47.30161" lon="-0.28204">
        <ele>86</ele>
        <time>2024-10-16T13:00:28Z</time>
      </trkpt>
      <trkpt lat="47.30134" lon="-0.28216">
        <ele>85</ele>
        <time>2024-10-16T13:00:35Z</time>
      </trkpt>
      <trkpt lat="47.30116" lon="-0.28232">
        <ele>85</ele>
        <time>2024-10-16T13:00:40Z</time>
      </trkpt>
      <trkpt lat="47.3007" lon="-0.28256">
        <ele>84</ele>
        <time>2024-10-16T13:00:51Z</time>
      </trkpt>
      <trkpt lat="47.30055" lon="-0.28267">
        <ele>84</ele>
        <time>2024-10-16T13:00:55Z</time>
      </trkpt>
      <trkpt lat="47.30044" lon="-0.28282">
        <ele>84</ele>
        <time>2024-10-16T13:00:58Z</time>
      </trkpt>
      <trkpt lat="47.30035" lon="-0.28313">
        <ele>85</ele>
        <time>2024-10-16T13:01:04Z</time>
      </trkpt>
      <trkpt lat="47.30031" lon="-0.28319">
        <ele>85</ele>
        <time>2024-10-16T13:01:05Z</time>
      </trkpt>
      <trkpt lat="47.30027" lon="-0.28319">
        <ele>85</ele>
        <time>2024-10-16T13:01:06Z</time>
      </trkpt>
      <trkpt lat="47.3002" lon="-0.28313">
        <ele>84</ele>
        <time>2024-10-16T13:01:08Z</time>
      </trkpt>
      <trkpt lat="47.29991" lon="-0.28226">
        <ele>80</ele>
        <time>2024-10-16T13:01:23Z</time>
      </trkpt>
      <trkpt lat="47.29984" lon="-0.28212">
        <ele>79</ele>
        <time>2024-10-16T13:01:26Z</time>
      </trkpt>
      <trkpt lat="47.29973" lon="-0.28159">
        <ele>77</ele>
        <time>2024-10-16T13:01:35Z</time>
      </trkpt>
      <trkpt lat="47.29954" lon="-0.2813">
        <ele>75</ele>
        <time>2024-10-16T13:01:41Z</time>
      </trkpt>
      <trkpt lat="47.29932" lon="-0.28048">
        <ele>69</ele>
        <time>2024-10-16T13:01:55Z</time>
      </trkpt>
      <trkpt lat="47.29931" lon="-0.28024">
        <ele>67</ele>
        <time>2024-10-16T13:01:59Z</time>
      </trkpt>
      <trkpt lat="47.29913" lon="-0.27957">
        <ele>65</ele>
        <time>2024-10-16T13:02:10Z</time>
      </trkpt>
      <trkpt lat="47.29898" lon="-0.27889">
        <ele>68</ele>
        <time>2024-10-16T13:02:22Z</time>
      </trkpt>
      <trkpt lat="47.29923" lon="-0.27869">
        <ele>66</ele>
        <time>2024-10-16T13:02:28Z</time>
      </trkpt>
      <trkpt lat="47.29954" lon="-0.2785">
        <ele>67</ele>
        <time>2024-10-16T13:02:36Z</time>
      </trkpt>
      <trkpt lat="47.29962" lon="-0.2785">
        <ele>67</ele>
        <time>2024-10-16T13:02:38Z</time>
      </trkpt>
      <trkpt lat="47.2997" lon="-0.27845">
        <ele>67</ele>
        <time>2024-10-16T13:02:40Z</time>
      </trkpt>
      <trkpt lat="47.2997" lon="-0.27836">
        <ele>68</ele>
        <time>2024-10-16T13:05:59Z</time>
      </trkpt>
      <trkpt lat="47.29963" lon="-0.27832">
        <ele>68</ele>
        <time>2024-10-16T13:06:01Z</time>
      </trkpt>
      <trkpt lat="47.29953" lon="-0.27803">
        <ele>72</ele>
        <time>2024-10-16T13:06:06Z</time>
      </trkpt>
      <trkpt lat="47.29947" lon="-0.27793">
        <ele>73</ele>
        <time>2024-10-16T13:06:08Z</time>
      </trkpt>
      <trkpt lat="47.29943" lon="-0.27776">
        <ele>76</ele>
        <time>2024-10-16T13:06:11Z</time>
      </trkpt>
      <trkpt lat="47.29936" lon="-0.2777">
        <ele>76</ele>
        <time>2024-10-16T13:06:13Z</time>
      </trkpt>
      <trkpt lat="47.29933" lon="-0.27757">
        <ele>77</ele>
        <time>2024-10-16T13:06:15Z</time>
      </trkpt>
      <trkpt lat="47.29927" lon="-0.27749">
        <ele>77</ele>
        <time>2024-10-16T13:06:17Z</time>
      </trkpt>
      <trkpt lat="47.29923" lon="-0.27726">
        <ele>78</ele>
        <time>2024-10-16T13:06:21Z</time>
      </trkpt>
      <trkpt lat="47.29925" lon="-0.27724">
        <ele>79</ele>
        <time>2024-10-16T13:06:21Z</time>
      </trkpt>
      <trkpt lat="47.29934" lon="-0.27732">
        <ele>79</ele>
        <time>2024-10-16T13:06:24Z</time>
      </trkpt>
      <trkpt lat="47.29947" lon="-0.27739">
        <ele>81</ele>
        <time>2024-10-16T13:06:27Z</time>
      </trkpt>
      <trkpt lat="47.29962" lon="-0.27754">
        <ele>81</ele>
        <time>2024-10-16T13:06:31Z</time>
      </trkpt>
      <trkpt lat="47.29968" lon="-0.27756">
        <ele>82</ele>
        <time>2024-10-16T13:06:33Z</time>
      </trkpt>
      <trkpt lat="47.29965" lon="-0.27753">
        <ele>82</ele>
        <time>2024-10-16T13:06:34Z</time>
      </trkpt>
      <trkpt lat="47.29961" lon="-0.2774">
        <ele>83</ele>
        <time>2024-10-16T13:06:36Z</time>
      </trkpt>
      <trkpt lat="47.29957" lon="-0.27715">
        <ele>84</ele>
        <time>2024-10-16T13:06:40Z</time>
      </trkpt>
      <trkpt lat="47.29952" lon="-0.27663">
        <ele>86</ele>
        <time>2024-10-16T13:06:48Z</time>
      </trkpt>
      <trkpt lat="47.29955" lon="-0.27658">
        <ele>87</ele>
        <time>2024-10-16T13:06:49Z</time>
      </trkpt>
      <trkpt lat="47.29952" lon="-0.27652">
        <ele>86</ele>
        <time>2024-10-16T13:06:51Z</time>
      </trkpt>
      <trkpt lat="47.29957" lon="-0.27633">
        <ele>87</ele>
        <time>2024-10-16T13:06:54Z</time>
      </trkpt>
      <trkpt lat="47.29962" lon="-0.2763">
        <ele>88</ele>
        <time>2024-10-16T13:06:55Z</time>
      </trkpt>
      <trkpt lat="47.29964" lon="-0.27624">
        <ele>88</ele>
        <time>2024-10-16T13:06:56Z</time>
      </trkpt>
      <trkpt lat="47.29971" lon="-0.27621">
        <ele>89</ele>
        <time>2024-10-16T13:06:58Z</time>
      </trkpt>
      <trkpt lat="47.29976" lon="-0.27626">
        <ele>90</ele>
        <time>2024-10-16T13:06:59Z</time>
      </trkpt>
      <trkpt lat="47.29995" lon="-0.27611">
        <ele>92</ele>
        <time>2024-10-16T13:07:04Z</time>
      </trkpt>
      <trkpt lat="47.30001" lon="-0.27599">
        <ele>93</ele>
        <time>2024-10-16T13:07:07Z</time>
      </trkpt>
      <trkpt lat="47.30001" lon="-0.27591">
        <ele>93</ele>
        <time>2024-10-16T13:07:08Z</time>
      </trkpt>
      <trkpt lat="47.2999" lon="-0.2756">
        <ele>91</ele>
        <time>2024-10-16T13:07:13Z</time>
      </trkpt>
      <trkpt lat="47.29986" lon="-0.2754">
        <ele>91</ele>
        <time>2024-10-16T13:07:17Z</time>
      </trkpt>
      <trkpt lat="47.29983" lon="-0.27498">
        <ele>90</ele>
        <time>2024-10-16T13:07:23Z</time>
      </trkpt>
      <trkpt lat="47.29975" lon="-0.27466">
        <ele>90</ele>
        <time>2024-10-16T13:07:29Z</time>
      </trkpt>
      <trkpt lat="47.29968" lon="-0.27455">
        <ele>90</ele>
        <time>2024-10-16T13:07:31Z</time>
      </trkpt>
      <trkpt lat="47.29966" lon="-0.27444">
        <ele>91</ele>
        <time>2024-10-16T13:07:33Z</time>
      </trkpt>
      <trkpt lat="47.29959" lon="-0.27428">
        <ele>91</ele>
        <time>2024-10-16T13:07:36Z</time>
      </trkpt>
      <trkpt lat="47.29953" lon="-0.27374">
        <ele>94</ele>
        <time>2024-10-16T13:07:45Z</time>
      </trkpt>
      <trkpt lat="47.29931" lon="-0.27309">
        <ele>95</ele>
        <time>2024-10-16T13:07:56Z</time>
      </trkpt>
      <trkpt lat="47.29927" lon="-0.27285">
        <ele>94</ele>
        <time>2024-10-16T13:08:00Z</time>
      </trkpt>
      <trkpt lat="47.29915" lon="-0.27257">
        <ele>93</ele>
        <time>2024-10-16T13:08:05Z</time>
      </trkpt>
      <trkpt lat="47.29914" lon="-0.27242">
        <ele>92</ele>
        <time>2024-10-16T13:08:08Z</time>
      </trkpt>
      <trkpt lat="47.29906" lon="-0.27227">
        <ele>91</ele>
        <time>2024-10-16T13:08:11Z</time>
      </trkpt>
      <trkpt lat="47.29895" lon="-0.2717">
        <ele>87</ele>
        <time>2024-10-16T13:08:20Z</time>
      </trkpt>
      <trkpt lat="47.29896" lon="-0.27165">
        <ele>87</ele>
        <time>2024-10-16T13:08:21Z</time>
      </trkpt>
      <trkpt lat="47.29918" lon="-0.27148">
        <ele>89</ele>
        <time>2024-10-16T13:08:27Z</time>
      </trkpt>
      <trkpt lat="47.3002" lon="-0.2709">
        <ele>91</ele>
        <time>2024-10-16T13:08:52Z</time>
      </trkpt>
      <trkpt lat="47.30244" lon="-0.26957">
        <ele>86</ele>
        <time>2024-10-16T13:09:49Z</time>
      </trkpt>
      <trkpt lat="47.30251" lon="-0.26947">
        <ele>85</ele>
        <time>2024-10-16T13:09:51Z</time>
      </trkpt>
      <trkpt lat="47.30239" lon="-0.26905">
        <ele>83</ele>
        <time>2024-10-16T13:09:58Z</time>
      </trkpt>
      <trkpt lat="47.30237" lon="-0.26881">
        <ele>83</ele>
        <time>2024-10-16T13:10:02Z</time>
      </trkpt>
      <trkpt lat="47.30227" lon="-0.26858">
        <ele>83</ele>
        <time>2024-10-16T13:10:06Z</time>
      </trkpt>
      <trkpt lat="47.30218" lon="-0.2682">
        <ele>83</ele>
        <time>2024-10-16T13:10:13Z</time>
      </trkpt>
      <trkpt lat="47.30202" lon="-0.26794">
        <ele>84</ele>
        <time>2024-10-16T13:10:18Z</time>
      </trkpt>
      <trkpt lat="47.30196" lon="-0.26769">
        <ele>84</ele>
        <time>2024-10-16T13:10:22Z</time>
      </trkpt>
      <trkpt lat="47.30185" lon="-0.26753">
        <ele>84</ele>
        <time>2024-10-16T13:10:26Z</time>
      </trkpt>
      <trkpt lat="47.30178" lon="-0.26735">
        <ele>85</ele>
        <time>2024-10-16T13:10:29Z</time>
      </trkpt>
      <trkpt lat="47.30175" lon="-0.26714">
        <ele>86</ele>
        <time>2024-10-16T13:10:33Z</time>
      </trkpt>
      <trkpt lat="47.30169" lon="-0.26702">
        <ele>87</ele>
        <time>2024-10-16T13:10:35Z</time>
      </trkpt>
      <trkpt lat="47.30165" lon="-0.26677">
        <ele>88</ele>
        <time>2024-10-16T13:10:39Z</time>
      </trkpt>
      <trkpt lat="47.30148" lon="-0.2663">
        <ele>89</ele>
        <time>2024-10-16T13:10:48Z</time>
      </trkpt>
      <trkpt lat="47.30147" lon="-0.26614">
        <ele>89</ele>
        <time>2024-10-16T13:10:50Z</time>
      </trkpt>
      <trkpt lat="47.30138" lon="-0.26593">
        <ele>90</ele>
        <time>2024-10-16T13:10:54Z</time>
      </trkpt>
      <trkpt lat="47.30135" lon="-0.26555">
        <ele>89</ele>
        <time>2024-10-16T13:11:00Z</time>
      </trkpt>
      <trkpt lat="47.30124" lon="-0.26519">
        <ele>88</ele>
        <time>2024-10-16T13:11:06Z</time>
      </trkpt>
      <trkpt lat="47.30111" lon="-0.26488">
        <ele>87</ele>
        <time>2024-10-16T13:11:12Z</time>
      </trkpt>
      <trkpt lat="47.30089" lon="-0.26405">
        <ele>82</ele>
        <time>2024-10-16T13:11:26Z</time>
      </trkpt>
      <trkpt lat="47.30081" lon="-0.26393">
        <ele>81</ele>
        <time>2024-10-16T13:11:29Z</time>
      </trkpt>
      <trkpt lat="47.30073" lon="-0.26363">
        <ele>79</ele>
        <time>2024-10-16T13:11:34Z</time>
      </trkpt>
      <trkpt lat="47.30064" lon="-0.2635">
        <ele>78</ele>
        <time>2024-10-16T13:11:37Z</time>
      </trkpt>
      <trkpt lat="47.30052" lon="-0.26316">
        <ele>77</ele>
        <time>2024-10-16T13:11:43Z</time>
      </trkpt>
      <trkpt lat="47.30044" lon="-0.26301">
        <ele>78</ele>
        <time>2024-10-16T13:11:46Z</time>
      </trkpt>
      <trkpt lat="47.30038" lon="-0.26298">
        <ele>78</ele>
        <time>2024-10-16T13:11:48Z</time>
      </trkpt>
      <trkpt lat="47.30019" lon="-0.26267">
        <ele>78</ele>
        <time>2024-10-16T13:11:54Z</time>
      </trkpt>
      <trkpt lat="47.30018" lon="-0.26254">
        <ele>79</ele>
        <time>2024-10-16T13:11:56Z</time>
      </trkpt>
      <trkpt lat="47.30006" lon="-0.26233">
        <ele>79</ele>
        <time>2024-10-16T13:12:01Z</time>
      </trkpt>
      <trkpt lat="47.30006" lon="-0.2622">
        <ele>80</ele>
        <time>2024-10-16T13:12:03Z</time>
      </trkpt>
      <trkpt lat="47.30012" lon="-0.262">
        <ele>80</ele>
        <time>2024-10-16T13:12:06Z</time>
      </trkpt>
      <trkpt lat="47.30009" lon="-0.26195">
        <ele>80</ele>
        <time>2024-10-16T13:12:07Z</time>
      </trkpt>
      <trkpt lat="47.30022" lon="-0.26185">
        <ele>80</ele>
        <time>2024-10-16T13:12:11Z</time>
      </trkpt>
      <trkpt lat="47.30024" lon="-0.26179">
        <ele>80</ele>
        <time>2024-10-16T13:12:12Z</time>
      </trkpt>
      <trkpt lat="47.30019" lon="-0.26119">
        <ele>81</ele>
        <time>2024-10-16T13:12:21Z</time>
      </trkpt>
      <trkpt lat="47.29995" lon="-0.26006">
        <ele>79</ele>
        <time>2024-10-16T13:12:40Z</time>
      </trkpt>
      <trkpt lat="47.29988" lon="-0.25993">
        <ele>79</ele>
        <time>2024-10-16T13:12:43Z</time>
      </trkpt>
      <trkpt lat="47.29986" lon="-0.25976">
        <ele>79</ele>
        <time>2024-10-16T13:12:45Z</time>
      </trkpt>
      <trkpt lat="47.29974" lon="-0.25929">
        <ele>78</ele>
        <time>2024-10-16T13:12:53Z</time>
      </trkpt>
      <trkpt lat="47.29969" lon="-0.25924">
        <ele>78</ele>
        <time>2024-10-16T13:12:55Z</time>
      </trkpt>
      <trkpt lat="47.29952" lon="-0.25867">
        <ele>78</ele>
        <time>2024-10-16T13:13:05Z</time>
      </trkpt>
      <trkpt lat="47.2995" lon="-0.25864">
        <ele>78</ele>
        <time>2024-10-16T13:13:05Z</time>
      </trkpt>
      <trkpt lat="47.29939" lon="-0.25865">
        <ele>79</ele>
        <time>2024-10-16T13:13:08Z</time>
      </trkpt>
      <trkpt lat="47.29908" lon="-0.25879">
        <ele>82</ele>
        <time>2024-10-16T13:13:15Z</time>
      </trkpt>
      <trkpt lat="47.29899" lon="-0.25887">
        <ele>83</ele>
        <time>2024-10-16T13:13:18Z</time>
      </trkpt>
      <trkpt lat="47.29817" lon="-0.2593">
        <ele>88</ele>
        <time>2024-10-16T13:13:38Z</time>
      </trkpt>
      <trkpt lat="47.29799" lon="-0.25942">
        <ele>88</ele>
        <time>2024-10-16T13:13:43Z</time>
      </trkpt>
      <trkpt lat="47.29792" lon="-0.2595">
        <ele>88</ele>
        <time>2024-10-16T13:13:45Z</time>
      </trkpt>
      <trkpt lat="47.29778" lon="-0.25958">
        <ele>88</ele>
        <time>2024-10-16T13:13:48Z</time>
      </trkpt>
      <trkpt lat="47.29775" lon="-0.25955">
        <ele>88</ele>
        <time>2024-10-16T13:13:49Z</time>
      </trkpt>
      <trkpt lat="47.29774" lon="-0.25945">
        <ele>88</ele>
        <time>2024-10-16T13:13:51Z</time>
      </trkpt>
      <trkpt lat="47.29768" lon="-0.25961">
        <ele>88</ele>
        <time>2024-10-16T13:13:54Z</time>
      </trkpt>
      <trkpt lat="47.29761" lon="-0.25969">
        <ele>88</ele>
        <time>2024-10-16T13:13:56Z</time>
      </trkpt>
      <trkpt lat="47.29707" lon="-0.25995">
        <ele>89</ele>
        <time>2024-10-16T13:14:09Z</time>
      </trkpt>
      <trkpt lat="47.29657" lon="-0.26032">
        <ele>90</ele>
        <time>2024-10-16T13:14:22Z</time>
      </trkpt>
      <trkpt lat="47.29605" lon="-0.26062">
        <ele>92</ele>
        <time>2024-10-16T13:14:35Z</time>
      </trkpt>
      <trkpt lat="47.29588" lon="-0.26046">
        <ele>92</ele>
        <time>2024-10-16T13:14:40Z</time>
      </trkpt>
      <trkpt lat="47.29562" lon="-0.26045">
        <ele>91</ele>
        <time>2024-10-16T13:14:46Z</time>
      </trkpt>
      <trkpt lat="47.2954" lon="-0.26038">
        <ele>89</ele>
        <time>2024-10-16T13:14:51Z</time>
      </trkpt>
      <trkpt lat="47.29535" lon="-0.26039">
        <ele>88</ele>
        <time>2024-10-16T13:14:52Z</time>
      </trkpt>
      <trkpt lat="47.29531" lon="-0.26044">
        <ele>88</ele>
        <time>2024-10-16T13:14:54Z</time>
      </trkpt>
      <trkpt lat="47.29529" lon="-0.26059">
        <ele>89</ele>
        <time>2024-10-16T13:14:56Z</time>
      </trkpt>
      <trkpt lat="47.29525" lon="-0.26067">
        <ele>89</ele>
        <time>2024-10-16T13:14:58Z</time>
      </trkpt>
      <trkpt lat="47.29513" lon="-0.26079">
        <ele>89</ele>
        <time>2024-10-16T13:15:01Z</time>
      </trkpt>
      <trkpt lat="47.29499" lon="-0.26101">
        <ele>89</ele>
        <time>2024-10-16T13:15:06Z</time>
      </trkpt>
      <trkpt lat="47.29486" lon="-0.2611">
        <ele>88</ele>
        <time>2024-10-16T13:15:09Z</time>
      </trkpt>
      <trkpt lat="47.29474" lon="-0.26125">
        <ele>87</ele>
        <time>2024-10-16T13:15:13Z</time>
      </trkpt>
      <trkpt lat="47.29458" lon="-0.26137">
        <ele>86</ele>
        <time>2024-10-16T13:15:17Z</time>
      </trkpt>
      <trkpt lat="47.29452" lon="-0.26146">
        <ele>86</ele>
        <time>2024-10-16T13:15:19Z</time>
      </trkpt>
      <trkpt lat="47.2945" lon="-0.26155">
        <ele>87</ele>
        <time>2024-10-16T13:15:20Z</time>
      </trkpt>
      <trkpt lat="47.29444" lon="-0.2616">
        <ele>87</ele>
        <time>2024-10-16T13:15:22Z</time>
      </trkpt>
      <trkpt lat="47.29437" lon="-0.26159">
        <ele>86</ele>
        <time>2024-10-16T13:15:24Z</time>
      </trkpt>
      <trkpt lat="47.29434" lon="-0.26161">
        <ele>86</ele>
        <time>2024-10-16T13:15:25Z</time>
      </trkpt>
      <trkpt lat="47.29418" lon="-0.26178">
        <ele>86</ele>
        <time>2024-10-16T13:15:29Z</time>
      </trkpt>
      <trkpt lat="47.29385" lon="-0.262">
        <ele>87</ele>
        <time>2024-10-16T13:15:38Z</time>
      </trkpt>
      <trkpt lat="47.29368" lon="-0.26203">
        <ele>87</ele>
        <time>2024-10-16T13:15:42Z</time>
      </trkpt>
      <trkpt lat="47.29354" lon="-0.26201">
        <ele>87</ele>
        <time>2024-10-16T13:15:45Z</time>
      </trkpt>
      <trkpt lat="47.29338" lon="-0.26203">
        <ele>87</ele>
        <time>2024-10-16T13:15:49Z</time>
      </trkpt>
      <trkpt lat="47.29302" lon="-0.26195">
        <ele>87</ele>
        <time>2024-10-16T13:15:57Z</time>
      </trkpt>
      <trkpt lat="47.29279" lon="-0.262">
        <ele>87</ele>
        <time>2024-10-16T13:16:03Z</time>
      </trkpt>
      <trkpt lat="47.29265" lon="-0.26223">
        <ele>88</ele>
        <time>2024-10-16T13:16:07Z</time>
      </trkpt>
      <trkpt lat="47.29259" lon="-0.26243">
        <ele>89</ele>
        <time>2024-10-16T13:16:11Z</time>
      </trkpt>
      <trkpt lat="47.29241" lon="-0.26258">
        <ele>89</ele>
        <time>2024-10-16T13:16:16Z</time>
      </trkpt>
      <trkpt lat="47.2924" lon="-0.26264">
        <ele>89</ele>
        <time>2024-10-16T13:16:17Z</time>
      </trkpt>
      <trkpt lat="47.29236" lon="-0.26267">
        <ele>89</ele>
        <time>2024-10-16T13:16:18Z</time>
      </trkpt>
      <trkpt lat="47.29237" lon="-0.26274">
        <ele>89</ele>
        <time>2024-10-16T13:16:19Z</time>
      </trkpt>
      <trkpt lat="47.2922" lon="-0.26312">
        <ele>89</ele>
        <time>2024-10-16T13:16:26Z</time>
      </trkpt>
      <trkpt lat="47.29204" lon="-0.26335">
        <ele>89</ele>
        <time>2024-10-16T13:16:31Z</time>
      </trkpt>
      <trkpt lat="47.292" lon="-0.26337">
        <ele>89</ele>
        <time>2024-10-16T13:16:32Z</time>
      </trkpt>
      <trkpt lat="47.29188" lon="-0.26352">
        <ele>89</ele>
        <time>2024-10-16T13:16:36Z</time>
      </trkpt>
      <trkpt lat="47.29181" lon="-0.26371">
        <ele>90</ele>
        <time>2024-10-16T13:16:39Z</time>
      </trkpt>
      <trkpt lat="47.29175" lon="-0.2638">
        <ele>90</ele>
        <time>2024-10-16T13:16:41Z</time>
      </trkpt>
      <trkpt lat="47.29167" lon="-0.26406">
        <ele>91</ele>
        <time>2024-10-16T13:16:46Z</time>
      </trkpt>
      <trkpt lat="47.29159" lon="-0.26418">
        <ele>92</ele>
        <time>2024-10-16T13:16:49Z</time>
      </trkpt>
      <trkpt lat="47.29153" lon="-0.26423">
        <ele>92</ele>
        <time>2024-10-16T13:16:50Z</time>
      </trkpt>
      <trkpt lat="47.2915" lon="-0.26422">
        <ele>92</ele>
        <time>2024-10-16T13:16:51Z</time>
      </trkpt>
      <trkpt lat="47.29125" lon="-0.26383">
        <ele>90</ele>
        <time>2024-10-16T13:16:59Z</time>
      </trkpt>
      <trkpt lat="47.28976" lon="-0.26103">
        <ele>88</ele>
        <time>2024-10-16T13:17:56Z</time>
      </trkpt>
      <trkpt lat="47.28891" lon="-0.25872">
        <ele>86</ele>
        <time>2024-10-16T13:18:37Z</time>
      </trkpt>
      <trkpt lat="47.28813" lon="-0.25676">
        <ele>80</ele>
        <time>2024-10-16T13:19:13Z</time>
      </trkpt>
      <trkpt lat="47.28809" lon="-0.25673">
        <ele>79</ele>
        <time>2024-10-16T13:19:14Z</time>
      </trkpt>
      <trkpt lat="47.28801" lon="-0.25675">
        <ele>79</ele>
        <time>2024-10-16T13:19:16Z</time>
      </trkpt>
      <trkpt lat="47.2879" lon="-0.25683">
        <ele>79</ele>
        <time>2024-10-16T13:19:19Z</time>
      </trkpt>
      <trkpt lat="47.28776" lon="-0.25699">
        <ele>79</ele>
        <time>2024-10-16T13:19:23Z</time>
      </trkpt>
      <trkpt lat="47.28764" lon="-0.25705">
        <ele>79</ele>
        <time>2024-10-16T13:19:26Z</time>
      </trkpt>
      <trkpt lat="47.28744" lon="-0.257">
        <ele>78</ele>
        <time>2024-10-16T13:19:31Z</time>
      </trkpt>
      <trkpt lat="47.28709" lon="-0.25698">
        <ele>78</ele>
        <time>2024-10-16T13:19:39Z</time>
      </trkpt>
      <trkpt lat="47.28703" lon="-0.25695">
        <ele>78</ele>
        <time>2024-10-16T13:19:41Z</time>
      </trkpt>
      <trkpt lat="47.28701" lon="-0.2568">
        <ele>77</ele>
        <time>2024-10-16T13:19:43Z</time>
      </trkpt>
      <trkpt lat="47.28715" lon="-0.25529">
        <ele>72</ele>
        <time>2024-10-16T13:20:07Z</time>
      </trkpt>
      <trkpt lat="47.2871" lon="-0.25491">
        <ele>71</ele>
        <time>2024-10-16T13:20:13Z</time>
      </trkpt>
      <trkpt lat="47.28704" lon="-0.25474">
        <ele>72</ele>
        <time>2024-10-16T13:20:16Z</time>
      </trkpt>
      <trkpt lat="47.28699" lon="-0.25467">
        <ele>73</ele>
        <time>2024-10-16T13:20:18Z</time>
      </trkpt>
      <trkpt lat="47.28661" lon="-0.25436">
        <ele>75</ele>
        <time>2024-10-16T13:20:28Z</time>
      </trkpt>
      <trkpt lat="47.28654" lon="-0.25427">
        <ele>76</ele>
        <time>2024-10-16T13:20:30Z</time>
      </trkpt>
      <trkpt lat="47.2863" lon="-0.25377">
        <ele>79</ele>
        <time>2024-10-16T13:20:40Z</time>
      </trkpt>
      <trkpt lat="47.28624" lon="-0.25354">
        <ele>80</ele>
        <time>2024-10-16T13:20:44Z</time>
      </trkpt>
      <trkpt lat="47.28625" lon="-0.2534">
        <ele>80</ele>
        <time>2024-10-16T13:20:46Z</time>
      </trkpt>
      <trkpt lat="47.28622" lon="-0.25315">
        <ele>80</ele>
        <time>2024-10-16T13:20:50Z</time>
      </trkpt>
      <trkpt lat="47.28625" lon="-0.25303">
        <ele>80</ele>
        <time>2024-10-16T13:20:52Z</time>
      </trkpt>
      <trkpt lat="47.28641" lon="-0.25291">
        <ele>80</ele>
        <time>2024-10-16T13:20:56Z</time>
      </trkpt>
      <trkpt lat="47.28663" lon="-0.25284">
        <ele>79</ele>
        <time>2024-10-16T13:21:02Z</time>
      </trkpt>
      <trkpt lat="47.2874" lon="-0.25269">
        <ele>75</ele>
        <time>2024-10-16T13:21:20Z</time>
      </trkpt>
      <trkpt lat="47.28748" lon="-0.25264">
        <ele>74</ele>
        <time>2024-10-16T13:21:22Z</time>
      </trkpt>
      <trkpt lat="47.28748" lon="-0.25269">
        <ele>74</ele>
        <time>2024-10-16T13:21:23Z</time>
      </trkpt>
      <trkpt lat="47.28749" lon="-0.25257">
        <ele>73</ele>
        <time>2024-10-16T13:21:25Z</time>
      </trkpt>
      <trkpt lat="47.28781" lon="-0.25195">
        <ele>73</ele>
        <time>2024-10-16T13:21:37Z</time>
      </trkpt>
      <trkpt lat="47.28793" lon="-0.25161">
        <ele>73</ele>
        <time>2024-10-16T13:21:43Z</time>
      </trkpt>
      <trkpt lat="47.28815" lon="-0.25115">
        <ele>73</ele>
        <time>2024-10-16T13:21:52Z</time>
      </trkpt>
      <trkpt lat="47.2883" lon="-0.25072">
        <ele>73</ele>
        <time>2024-10-16T13:22:00Z</time>
      </trkpt>
      <trkpt lat="47.28843" lon="-0.25058">
        <ele>73</ele>
        <time>2024-10-16T13:22:03Z</time>
      </trkpt>
      <trkpt lat="47.28927" lon="-0.24986">
        <ele>70</ele>
        <time>2024-10-16T13:22:26Z</time>
      </trkpt>
      <trkpt lat="47.28937" lon="-0.24981">
        <ele>70</ele>
        <time>2024-10-16T13:22:28Z</time>
      </trkpt>
      <trkpt lat="47.29051" lon="-0.24947">
        <ele>69</ele>
        <time>2024-10-16T13:22:56Z</time>
      </trkpt>
      <trkpt lat="47.29074" lon="-0.24945">
        <ele>70</ele>
        <time>2024-10-16T13:23:01Z</time>
      </trkpt>
      <trkpt lat="47.29098" lon="-0.24949">
        <ele>69</ele>
        <time>2024-10-16T13:23:07Z</time>
      </trkpt>
      <trkpt lat="47.29117" lon="-0.24945">
        <ele>69</ele>
        <time>2024-10-16T13:23:11Z</time>
      </trkpt>
      <trkpt lat="47.29136" lon="-0.24933">
        <ele>69</ele>
        <time>2024-10-16T13:23:16Z</time>
      </trkpt>
      <trkpt lat="47.29192" lon="-0.24883">
        <ele>71</ele>
        <time>2024-10-16T13:23:31Z</time>
      </trkpt>
      <trkpt lat="47.29293" lon="-0.24799">
        <ele>70</ele>
        <time>2024-10-16T13:23:58Z</time>
      </trkpt>
      <trkpt lat="47.29436" lon="-0.24716">
        <ele>69</ele>
        <time>2024-10-16T13:24:34Z</time>
      </trkpt>
      <trkpt lat="47.29486" lon="-0.24681">
        <ele>70</ele>
        <time>2024-10-16T13:24:47Z</time>
      </trkpt>
      <trkpt lat="47.29522" lon="-0.24642">
        <ele>71</ele>
        <time>2024-10-16T13:24:58Z</time>
      </trkpt>
      <trkpt lat="47.29584" lon="-0.24589">
        <ele>70</ele>
        <time>2024-10-16T13:25:14Z</time>
      </trkpt>
      <trkpt lat="47.2964" lon="-0.24528">
        <ele>72</ele>
        <time>2024-10-16T13:25:31Z</time>
      </trkpt>
      <trkpt lat="47.2966" lon="-0.24511">
        <ele>71</ele>
        <time>2024-10-16T13:25:36Z</time>
      </trkpt>
      <trkpt lat="47.29694" lon="-0.24447">
        <ele>76</ele>
        <time>2024-10-16T13:25:49Z</time>
      </trkpt>
      <trkpt lat="47.29717" lon="-0.24363">
        <ele>78</ele>
        <time>2024-10-16T13:26:03Z</time>
      </trkpt>
      <trkpt lat="47.29722" lon="-0.24353">
        <ele>78</ele>
        <time>2024-10-16T13:26:05Z</time>
      </trkpt>
      <trkpt lat="47.2973" lon="-0.24351">
        <ele>78</ele>
        <time>2024-10-16T13:26:07Z</time>
      </trkpt>
      <trkpt lat="47.29761" lon="-0.24386">
        <ele>76</ele>
        <time>2024-10-16T13:26:16Z</time>
      </trkpt>
      <trkpt lat="47.29776" lon="-0.2438">
        <ele>77</ele>
        <time>2024-10-16T13:26:20Z</time>
      </trkpt>
      <trkpt lat="47.29813" lon="-0.24343">
        <ele>79</ele>
        <time>2024-10-16T13:26:30Z</time>
      </trkpt>
      <trkpt lat="47.29844" lon="-0.24291">
        <ele>83</ele>
        <time>2024-10-16T13:26:41Z</time>
      </trkpt>
      <trkpt lat="47.29906" lon="-0.24209">
        <ele>88</ele>
        <time>2024-10-16T13:27:01Z</time>
      </trkpt>
      <trkpt lat="47.29916" lon="-0.24208">
        <ele>88</ele>
        <time>2024-10-16T13:27:03Z</time>
      </trkpt>
      <trkpt lat="47.29974" lon="-0.24232">
        <ele>88</ele>
        <time>2024-10-16T13:27:17Z</time>
      </trkpt>
      <trkpt lat="47.29982" lon="-0.24228">
        <ele>88</ele>
        <time>2024-10-16T13:27:19Z</time>
      </trkpt>
      <trkpt lat="47.30155" lon="-0.24028">
        <ele>89</ele>
        <time>2024-10-16T13:28:10Z</time>
      </trkpt>
      <trkpt lat="47.30201" lon="-0.2398">
        <ele>89</ele>
        <time>2024-10-16T13:28:24Z</time>
      </trkpt>
      <trkpt lat="47.30265" lon="-0.23919">
        <ele>90</ele>
        <time>2024-10-16T13:28:41Z</time>
      </trkpt>
      <trkpt lat="47.3042" lon="-0.23757">
        <ele>92</ele>
        <time>2024-10-16T13:29:26Z</time>
      </trkpt>
      <trkpt lat="47.30441" lon="-0.23723">
        <ele>92</ele>
        <time>2024-10-16T13:29:33Z</time>
      </trkpt>
      <trkpt lat="47.30452" lon="-0.23698">
        <ele>92</ele>
        <time>2024-10-16T13:29:38Z</time>
      </trkpt>
      <trkpt lat="47.305" lon="-0.23607">
        <ele>93</ele>
        <time>2024-10-16T13:29:56Z</time>
      </trkpt>
      <trkpt lat="47.30514" lon="-0.2357">
        <ele>93</ele>
        <time>2024-10-16T13:30:03Z</time>
      </trkpt>
      <trkpt lat="47.30542" lon="-0.2352">
        <ele>92</ele>
        <time>2024-10-16T13:30:13Z</time>
      </trkpt>
      <trkpt lat="47.30551" lon="-0.23497">
        <ele>92</ele>
        <time>2024-10-16T13:30:17Z</time>
      </trkpt>
      <trkpt lat="47.30556" lon="-0.23471">
        <ele>92</ele>
        <time>2024-10-16T13:30:21Z</time>
      </trkpt>
      <trkpt lat="47.30562" lon="-0.2346">
        <ele>92</ele>
        <time>2024-10-16T13:30:24Z</time>
      </trkpt>
      <trkpt lat="47.30569" lon="-0.23429">
        <ele>92</ele>
        <time>2024-10-16T13:30:29Z</time>
      </trkpt>
      <trkpt lat="47.30597" lon="-0.23384">
        <ele>94</ele>
        <time>2024-10-16T13:30:39Z</time>
      </trkpt>
      <trkpt lat="47.30616" lon="-0.23366">
        <ele>94</ele>
        <time>2024-10-16T13:30:44Z</time>
      </trkpt>
      <trkpt lat="47.30634" lon="-0.23358">
        <ele>94</ele>
        <time>2024-10-16T13:30:48Z</time>
      </trkpt>
      <trkpt lat="47.3065" lon="-0.23355">
        <ele>95</ele>
        <time>2024-10-16T13:30:52Z</time>
      </trkpt>
      <trkpt lat="47.30724" lon="-0.23363">
        <ele>92</ele>
        <time>2024-10-16T13:31:09Z</time>
      </trkpt>
      <trkpt lat="47.30805" lon="-0.23361">
        <ele>91</ele>
        <time>2024-10-16T13:31:28Z</time>
      </trkpt>
      <trkpt lat="47.30875" lon="-0.23366">
        <ele>91</ele>
        <time>2024-10-16T13:31:45Z</time>
      </trkpt>
      <trkpt lat="47.30918" lon="-0.23391">
        <ele>90</ele>
        <time>2024-10-16T13:31:55Z</time>
      </trkpt>
      <trkpt lat="47.30955" lon="-0.23406">
        <ele>90</ele>
        <time>2024-10-16T13:32:04Z</time>
      </trkpt>
      <trkpt lat="47.31025" lon="-0.23447">
        <ele>89</ele>
        <time>2024-10-16T13:32:22Z</time>
      </trkpt>
      <trkpt lat="47.31036" lon="-0.23449">
        <ele>89</ele>
        <time>2024-10-16T13:32:24Z</time>
      </trkpt>
      <trkpt lat="47.31065" lon="-0.23443">
        <ele>88</ele>
        <time>2024-10-16T13:32:31Z</time>
      </trkpt>
      <trkpt lat="47.31092" lon="-0.2343">
        <ele>88</ele>
        <time>2024-10-16T13:32:38Z</time>
      </trkpt>
      <trkpt lat="47.31129" lon="-0.23403">
        <ele>87</ele>
        <time>2024-10-16T13:32:48Z</time>
      </trkpt>
      <trkpt lat="47.31156" lon="-0.23375">
        <ele>86</ele>
        <time>2024-10-16T13:32:55Z</time>
      </trkpt>
      <trkpt lat="47.3117" lon="-0.23365">
        <ele>86</ele>
        <time>2024-10-16T13:32:59Z</time>
      </trkpt>
      <trkpt lat="47.31236" lon="-0.23345">
        <ele>84</ele>
        <time>2024-10-16T13:33:15Z</time>
      </trkpt>
      <trkpt lat="47.31289" lon="-0.23315">
        <ele>84</ele>
        <time>2024-10-16T13:33:28Z</time>
      </trkpt>
      <trkpt lat="47.31319" lon="-0.23307">
        <ele>84</ele>
        <time>2024-10-16T13:33:35Z</time>
      </trkpt>
      <trkpt lat="47.31372" lon="-0.23302">
        <ele>82</ele>
        <time>2024-10-16T13:33:47Z</time>
      </trkpt>
      <trkpt lat="47.31397" lon="-0.23304">
        <ele>81</ele>
        <time>2024-10-16T13:33:53Z</time>
      </trkpt>
      <trkpt lat="47.3146" lon="-0.233">
        <ele>81</ele>
        <time>2024-10-16T13:34:08Z</time>
      </trkpt>
      <trkpt lat="47.31497" lon="-0.23295">
        <ele>82</ele>
        <time>2024-10-16T13:34:17Z</time>
      </trkpt>
      <trkpt lat="47.31532" lon="-0.23296">
        <ele>81</ele>
        <time>2024-10-16T13:34:25Z</time>
      </trkpt>
      <trkpt lat="47.31579" lon="-0.23291">
        <ele>81</ele>
        <time>2024-10-16T13:34:36Z</time>
      </trkpt>
      <trkpt lat="47.31626" lon="-0.23297">
        <ele>81</ele>
        <time>2024-10-16T13:34:47Z</time>
      </trkpt>
      <trkpt lat="47.31663" lon="-0.23299">
        <ele>80</ele>
        <time>2024-10-16T13:34:56Z</time>
      </trkpt>
      <trkpt lat="47.31737" lon="-0.23295">
        <ele>80</ele>
        <time>2024-10-16T13:35:13Z</time>
      </trkpt>
      <trkpt lat="47.31829" lon="-0.23297">
        <ele>78</ele>
        <time>2024-10-16T13:35:34Z</time>
      </trkpt>
      <trkpt lat="47.31861" lon="-0.23292">
        <ele>78</ele>
        <time>2024-10-16T13:35:42Z</time>
      </trkpt>
      <trkpt lat="47.31873" lon="-0.23284">
        <ele>78</ele>
        <time>2024-10-16T13:35:45Z</time>
      </trkpt>
      <trkpt lat="47.31914" lon="-0.23237">
        <ele>78</ele>
        <time>2024-10-16T13:35:57Z</time>
      </trkpt>
      <trkpt lat="47.31924" lon="-0.23224">
        <ele>78</ele>
        <time>2024-10-16T13:36:00Z</time>
      </trkpt>
      <trkpt lat="47.31938" lon="-0.23191">
        <ele>77</ele>
        <time>2024-10-16T13:36:06Z</time>
      </trkpt>
      <trkpt lat="47.31956" lon="-0.23169">
        <ele>77</ele>
        <time>2024-10-16T13:36:12Z</time>
      </trkpt>
      <trkpt lat="47.31971" lon="-0.23155">
        <ele>76</ele>
        <time>2024-10-16T13:36:16Z</time>
      </trkpt>
      <trkpt lat="47.31995" lon="-0.23119">
        <ele>74</ele>
        <time>2024-10-16T13:36:24Z</time>
      </trkpt>
      <trkpt lat="47.32022" lon="-0.23089">
        <ele>72</ele>
        <time>2024-10-16T13:36:32Z</time>
      </trkpt>
      <trkpt lat="47.32075" lon="-0.23045">
        <ele>70</ele>
        <time>2024-10-16T13:36:46Z</time>
      </trkpt>
      <trkpt lat="47.32087" lon="-0.2304">
        <ele>69</ele>
        <time>2024-10-16T13:36:49Z</time>
      </trkpt>
      <trkpt lat="47.32099" lon="-0.23046">
        <ele>69</ele>
        <time>2024-10-16T13:36:52Z</time>
      </trkpt>
      <trkpt lat="47.32131" lon="-0.23085">
        <ele>70</ele>
        <time>2024-10-16T13:37:02Z</time>
      </trkpt>
      <trkpt lat="47.32148" lon="-0.231">
        <ele>70</ele>
        <time>2024-10-16T13:37:06Z</time>
      </trkpt>
      <trkpt lat="47.32149" lon="-0.23097">
        <ele>70</ele>
        <time>2024-10-16T13:37:07Z</time>
      </trkpt>
      <trkpt lat="47.32143" lon="-0.23075">
        <ele>69</ele>
        <time>2024-10-16T13:37:10Z</time>
      </trkpt>
      <trkpt lat="47.32132" lon="-0.23047">
        <ele>69</ele>
        <time>2024-10-16T13:37:16Z</time>
      </trkpt>
      <trkpt lat="47.32081" lon="-0.22933">
        <ele>67</ele>
        <time>2024-10-16T13:37:37Z</time>
      </trkpt>
      <trkpt lat="47.32072" lon="-0.22885">
        <ele>68</ele>
        <time>2024-10-16T13:37:45Z</time>
      </trkpt>
      <trkpt lat="47.32073" lon="-0.22875">
        <ele>68</ele>
        <time>2024-10-16T13:37:47Z</time>
      </trkpt>
      <trkpt lat="47.32076" lon="-0.22873">
        <ele>68</ele>
        <time>2024-10-16T13:37:47Z</time>
      </trkpt>
      <trkpt lat="47.32089" lon="-0.22874">
        <ele>68</ele>
        <time>2024-10-16T13:37:51Z</time>
      </trkpt>
      <trkpt lat="47.32106" lon="-0.2287">
        <ele>68</ele>
        <time>2024-10-16T13:37:55Z</time>
      </trkpt>
      <trkpt lat="47.32174" lon="-0.22839">
        <ele>69</ele>
        <time>2024-10-16T13:38:11Z</time>
      </trkpt>
      <trkpt lat="47.32213" lon="-0.22834">
        <ele>68</ele>
        <time>2024-10-16T13:38:20Z</time>
      </trkpt>
      <trkpt lat="47.32277" lon="-0.22852">
        <ele>69</ele>
        <time>2024-10-16T13:38:36Z</time>
      </trkpt>
      <trkpt lat="47.32293" lon="-0.22851">
        <ele>69</ele>
        <time>2024-10-16T13:38:39Z</time>
      </trkpt>
      <trkpt lat="47.323" lon="-0.22854">
        <ele>70</ele>
        <time>2024-10-16T13:38:41Z</time>
      </trkpt>
      <trkpt lat="47.32324" lon="-0.22856">
        <ele>70</ele>
        <time>2024-10-16T13:38:47Z</time>
      </trkpt>
      <trkpt lat="47.32339" lon="-0.22867">
        <ele>71</ele>
        <time>2024-10-16T13:38:50Z</time>
      </trkpt>
      <trkpt lat="47.32347" lon="-0.22866">
        <ele>71</ele>
        <time>2024-10-16T13:38:52Z</time>
      </trkpt>
      <trkpt lat="47.32371" lon="-0.22851">
        <ele>70</ele>
        <time>2024-10-16T13:38:58Z</time>
      </trkpt>
      <trkpt lat="47.32381" lon="-0.22848">
        <ele>70</ele>
        <time>2024-10-16T13:39:01Z</time>
      </trkpt>
      <trkpt lat="47.324" lon="-0.22823">
        <ele>70</ele>
        <time>2024-10-16T13:39:07Z</time>
      </trkpt>
      <trkpt lat="47.32427" lon="-0.22797">
        <ele>70</ele>
        <time>2024-10-16T13:39:14Z</time>
      </trkpt>
    </trkseg>
  </trk>
</gpx>